Darstellungsparameter: Aktuell verwendete Einstellungen:
Skalierung der Graphiken ... ?
xyx+y,   Skalierungsfaktor:      Skalierung: Modus: x, Faktor: 1
Darstellungszeitraum ... ?
Vom - - bis: - -   Zeitraum: 28.04.2009 - 18.05.2009
Min/Max/Avg-Anzeige ... ?
Zeige MMA aktuell
Zeige MMA Monat
Zeige MMA alles
Zeige --A aktuell
Zeige --A Monat
Zeige --A alles
Keine MMA-Anzeige
MMA:
Keine MMA-Graphiken
MMA-Basis: 28.04.2009 - 18.05.2009
Quicknavigation für Darstellung... ?
Tage:      1T, 2T, 3T, 5T -1T -2T -3T -5T +1T +2T +3T +5T
Wochen: 1W, 2W, 3W -1W -2W -3W +1W +2W +3W
Monate: 1M, 3M, 6M -1M -3M -6M +1M +3M +6M
Jahre:    1J, 3J, 5J, 10J -1J -3J -5J -10J +1J +3J +5J +10J
Nutze für die Darstellung ... ?
Originaldaten oder Mittelwerte auf ...
Stundenbasis Tagesbasis Wochenbasis
Monatsbasis Jahresbasis      Datenbasis: Original-Daten
Darstellen als:
Statistik (Auto) Statistik J:M      Darstellung:
Zur Graphik,    zurück zur Übersicht aller Sensoren.
 
Tabellarische Datenbersicht: ?
 
Sensor: Nr:Datum:Temp:Abs-Feuchte:Windchill:Wind:
Aussen-T/F 1 28-04-2009 00:00:01 12.4 C 7.43 g/m*3 12.4 C 0 km/h
2 28-04-2009 00:12:01 12.5 C 7.48 g/m*3 12.5 C 0 km/h
3 28-04-2009 00:24:01 12.1 C 7.29 g/m*3 12.1 C 0 km/h
4 28-04-2009 00:36:01 11.5 C 7.23 g/m*3 11.5 C 0 km/h
5 28-04-2009 00:48:01 10.8 C 7.71 g/m*3 10.8 C 0 km/h
6 28-04-2009 01:00:01 10.7 C 8.05 g/m*3 10.7 C 0 km/h
7 28-04-2009 01:12:01 10.6 C 8.2 g/m*3 10.6 C 0 km/h
8 28-04-2009 01:24:01 10.5 C 8.24 g/m*3 10.5 C 0 km/h
9 28-04-2009 01:36:01 10.5 C 8.34 g/m*3 10.5 C 0 km/h
10 28-04-2009 01:48:02 10.6 C 8.49 g/m*3 10.6 C 0 km/h
11 28-04-2009 02:00:02 10.7 C 8.55 g/m*3 10.7 C 0 km/h
12 28-04-2009 02:12:02 10.7 C 8.55 g/m*3 10.7 C 0 km/h
13 28-04-2009 02:24:02 10.8 C 8.6 g/m*3 10.8 C 0 km/h
14 28-04-2009 02:36:02 10.9 C 8.65 g/m*3 10.9 C 0 km/h
15 28-04-2009 02:48:02 10.6 C 8.49 g/m*3 10.6 C 0 km/h
16 28-04-2009 03:00:02 10.5 C 8.53 g/m*3 10.5 C 0 km/h
17 28-04-2009 03:12:02 10.5 C 8.63 g/m*3 10.5 C 0 km/h
18 28-04-2009 03:24:02 10.6 C 8.69 g/m*3 10.6 C 0 km/h
19 28-04-2009 03:36:02 10.6 C 8.69 g/m*3 10.6 C 0 km/h
20 28-04-2009 03:48:02 10.5 C 8.63 g/m*3 10.5 C 0 km/h
21 28-04-2009 04:00:02 10.5 C 8.63 g/m*3 10.5 C 0 km/h
22 28-04-2009 04:12:02 10.4 C 8.67 g/m*3 10.4 C 0 km/h
23 28-04-2009 04:24:02 10.4 C 8.58 g/m*3 10.4 C 0 km/h
24 28-04-2009 04:36:02 10.2 C 8.56 g/m*3 10.2 C 0 km/h
25 28-04-2009 04:48:02 10.4 C 8.67 g/m*3 10.4 C 0 km/h
Sensor: Nr:Datum:Temp:Abs-Feuchte:Windchill:Wind:
Aussen-T/F 26 28-04-2009 05:00:02 10.2 C 8.56 g/m*3 10.2 C 0 km/h
27 28-04-2009 05:12:02 10.3 C 8.62 g/m*3 10.3 C 0 km/h
28 28-04-2009 05:24:02 10.1 C 8.51 g/m*3 10.1 C 0 km/h
29 28-04-2009 05:36:02 10.1 C 8.51 g/m*3 10.1 C 0 km/h
30 28-04-2009 05:48:03 10.2 C 8.56 g/m*3 10.2 C 0 km/h
31 28-04-2009 06:00:03 10.1 C 8.51 g/m*3 10.1 C 0 km/h
32 28-04-2009 06:12:03 10.1 C 8.61 g/m*3 10.1 C 0 km/h
33 28-04-2009 06:24:03 10 C 8.55 g/m*3 10 C 0 km/h
34 28-04-2009 06:36:00 9.9 C 8.59 g/m*3 9.9 C 0 km/h
35 28-04-2009 06:48:00 9.9 C 8.59 g/m*3 9.9 C 0 km/h
36 28-04-2009 07:00:00 10 C 8.55 g/m*3 10 C 0 km/h
37 28-04-2009 07:12:00 10.2 C 8.66 g/m*3 10.2 C 0 km/h
38 28-04-2009 07:24:00 10.2 C 8.66 g/m*3 10.2 C 0 km/h
39 28-04-2009 07:36:00 10.3 C 8.71 g/m*3 10.3 C 0 km/h
40 28-04-2009 07:48:59 10.3 C 8.71 g/m*3 10.3 C 0 km/h
41 28-04-2009 08:00:00 10.4 C 8.77 g/m*3 10.4 C 0 km/h
42 28-04-2009 08:12:01 10.5 C 8.83 g/m*3 10.5 C 0 km/h
43 28-04-2009 08:24:59 10.5 C 8.83 g/m*3 10.5 C 0 km/h
44 28-04-2009 08:36:59 10.8 C 8.99 g/m*3 10.8 C 0 km/h
45 28-04-2009 08:48:59 10.9 C 9.05 g/m*3 10.9 C 0 km/h
46 28-04-2009 09:00:59 10.9 C 9.05 g/m*3 10.9 C 0 km/h
47 28-04-2009 09:12:59 11 C 9.01 g/m*3 11 C 0 km/h
48 28-04-2009 09:24:59 11 C 9.01 g/m*3 11 C 0 km/h
49 28-04-2009 09:36:58 10.8 C 8.9 g/m*3 10.8 C 0 km/h
50 28-04-2009 09:48:59 10.8 C 8.9 g/m*3 10.8 C 0 km/h
Sensor: Nr:Datum:Temp:Abs-Feuchte:Windchill:Wind:
Aussen-T/F 51 28-04-2009 10:00:58 11 C 9.01 g/m*3 11 C 0 km/h
52 28-04-2009 10:12:58 11.1 C 9.07 g/m*3 11.1 C 0 km/h
53 28-04-2009 10:24:58 11.1 C 9.07 g/m*3 11.1 C 0 km/h
54 28-04-2009 10:36:58 11.5 C 9.3 g/m*3 11.5 C 0 km/h
55 28-04-2009 10:48:58 11.4 C 9.24 g/m*3 11.4 C 0 km/h
56 28-04-2009 11:00:57 11.5 C 9.3 g/m*3 11.5 C 0 km/h
57 28-04-2009 11:12:57 11.2 C 9.02 g/m*3 11.2 C 0 km/h
58 28-04-2009 11:24:58 11.3 C 9.08 g/m*3 11.3 C 0 km/h
59 28-04-2009 11:36:58 11.5 C 9.19 g/m*3 11.5 C 0 km/h
60 28-04-2009 11:48:57 11.6 C 9.15 g/m*3 11.6 C 0 km/h
61 28-04-2009 12:00:58 11.9 C 9.32 g/m*3 11.9 C 0 km/h
62 28-04-2009 12:12:58 11.6 C 9.04 g/m*3 11.6 C 0 km/h
63 28-04-2009 12:24:57 12.1 C 9.22 g/m*3 12.1 C 0 km/h
64 28-04-2009 12:36:57 12.2 C 9.06 g/m*3 12.2 C 0 km/h
65 28-04-2009 12:48:57 12.6 C 9.29 g/m*3 12.6 C 0 km/h
66 28-04-2009 13:00:57 12.8 C 9.3 g/m*3 12.8 C 0 km/h
67 28-04-2009 13:12:57 12.7 C 9.24 g/m*3 12.7 C 0 km/h
68 28-04-2009 13:24:56 12.7 C 9.02 g/m*3 12.7 C 0 km/h
69 28-04-2009 13:36:56 11.5 C 8.47 g/m*3 11.5 C 0 km/h
70 28-04-2009 13:48:56 10.4 C 7.9 g/m*3 10.4 C 0 km/h
71 28-04-2009 14:00:56 10.5 C 7.95 g/m*3 10.5 C 0 km/h
72 28-04-2009 14:12:56 10.5 C 8.05 g/m*3 10.5 C 0 km/h
73 28-04-2009 14:24:56 10.7 C 8.05 g/m*3 10.7 C 0 km/h
74 28-04-2009 14:36:56 11.5 C 8.06 g/m*3 11.5 C 0 km/h
75 28-04-2009 14:48:56 11.6 C 7.8 g/m*3 11.6 C 0 km/h
Sensor: Nr:Datum:Temp:Abs-Feuchte:Windchill:Wind:
Aussen-T/F 76 28-04-2009 15:00:55 11.5 C 7.64 g/m*3 11.5 C 0 km/h
77 28-04-2009 15:12:55 11.5 C 7.44 g/m*3 11.5 C 0 km/h
78 28-04-2009 15:24:56 11.6 C 7.48 g/m*3 11.6 C 0 km/h
79 28-04-2009 15:36:55 11.9 C 7.52 g/m*3 11.9 C 0 km/h
80 28-04-2009 15:48:55 11.9 C 7.52 g/m*3 11.9 C 0 km/h
81 28-04-2009 16:00:55 12.1 C 7.4 g/m*3 12.1 C 0 km/h
82 28-04-2009 16:12:55 12.2 C 7.34 g/m*3 12.2 C 0 km/h
83 28-04-2009 16:24:55 12.5 C 7.26 g/m*3 12.5 C 0 km/h
84 28-04-2009 16:36:54 13.1 C 7.07 g/m*3 13.1 C 0 km/h
85 28-04-2009 16:48:55 13.3 C 6.82 g/m*3 13.3 C 0 km/h
86 28-04-2009 17:00:55 13.4 C 6.74 g/m*3 13.4 C 0 km/h
87 28-04-2009 17:12:55 13.6 C 6.59 g/m*3 13.6 C 0 km/h
88 28-04-2009 17:24:54 13.4 C 6.39 g/m*3 13.4 C 0 km/h
89 28-04-2009 17:36:54 13.3 C 6.47 g/m*3 13.3 C 0 km/h
90 28-04-2009 17:48:54 13.4 C 6.51 g/m*3 13.4 C 0 km/h
91 28-04-2009 18:00:54 13.2 C 6.09 g/m*3 13.2 C 0 km/h
92 28-04-2009 18:12:54 13.2 C 6.2 g/m*3 13.2 C 0 km/h
93 28-04-2009 18:24:53 12.9 C 5.97 g/m*3 12.9 C 0 km/h
94 28-04-2009 18:36:54 13 C 6.12 g/m*3 13 C 0 km/h
95 28-04-2009 18:48:53 13.1 C 6.28 g/m*3 13.1 C 0 km/h
96 28-04-2009 19:00:53 12.9 C 6.2 g/m*3 12.9 C 0 km/h
97 28-04-2009 19:12:53 12.9 C 6.88 g/m*3 12.9 C 0 km/h
98 28-04-2009 19:24:53 12.8 C 7.17 g/m*3 12.8 C 0 km/h
99 28-04-2009 19:36:53 12.8 C 7.17 g/m*3 12.8 C 0 km/h
100 28-04-2009 19:48:52 12.7 C 7.01 g/m*3 12.7 C 0 km/h
Sensor: Nr:Datum:Temp:Abs-Feuchte:Windchill:Wind:
Aussen-T/F 101 28-04-2009 20:00:53 12.6 C 7.08 g/m*3 12.6 C 0 km/h
102 28-04-2009 20:12:53 12.5 C 7.04 g/m*3 12.5 C 0 km/h
103 28-04-2009 20:24:53 11.6 C 6.96 g/m*3 11.6 C 0 km/h
104 28-04-2009 20:36:52 10.8 C 6.92 g/m*3 10.8 C 0 km/h
105 28-04-2009 20:48:53 10.1 C 6.71 g/m*3 10.1 C 0 km/h
106 28-04-2009 21:00:52 9.6 C 6.69 g/m*3 9.6 C 0 km/h
107 28-04-2009 21:12:52 9.2 C 6.79 g/m*3 9.2 C 0 km/h
108 28-04-2009 21:24:52 9.1 C 6.83 g/m*3 9.1 C 0 km/h
109 28-04-2009 21:36:52 9.2 C 6.88 g/m*3 9.2 C 0 km/h
110 28-04-2009 21:49:53 9.3 C 6.92 g/m*3 9.3 C 0 km/h
111 28-04-2009 22:01:53 9.2 C 6.88 g/m*3 9.2 C 0 km/h
112 28-04-2009 22:13:53 9.1 C 7.01 g/m*3 9.1 C 0 km/h
113 28-04-2009 22:25:53 9 C 6.96 g/m*3 9 C 0 km/h
114 28-04-2009 22:37:53 8.9 C 7.01 g/m*3 8.9 C 0 km/h
115 28-04-2009 22:49:53 8.6 C 6.87 g/m*3 8.6 C 0 km/h
116 28-04-2009 23:01:53 8.7 C 6.92 g/m*3 8.7 C 0 km/h
117 28-04-2009 23:13:53 8.8 C 6.96 g/m*3 8.8 C 0 km/h
118 28-04-2009 23:25:53 8.9 C 7.01 g/m*3 8.9 C 0 km/h
119 28-04-2009 23:37:53 8.8 C 6.96 g/m*3 8.8 C 0 km/h
120 28-04-2009 23:49:53 8.7 C 6.92 g/m*3 8.7 C 0 km/h
121 29-04-2009 00:01:53 8.6 C 6.96 g/m*3 8.6 C 0 km/h
122 29-04-2009 00:13:53 8.6 C 6.96 g/m*3 8.6 C 0 km/h
123 29-04-2009 00:25:53 8.6 C 7.05 g/m*3 8.6 C 0 km/h
124 29-04-2009 00:37:53 8.5 C 7 g/m*3 8.5 C 0 km/h
125 29-04-2009 00:49:54 8.4 C 7.04 g/m*3 8.4 C 0 km/h
Sensor: Nr:Datum:Temp:Abs-Feuchte:Windchill:Wind:
Aussen-T/F 126 29-04-2009 01:01:54 8.4 C 7.04 g/m*3 8.4 C 0 km/h
127 29-04-2009 01:13:54 8.3 C 7 g/m*3 8.3 C 0 km/h
128 29-04-2009 01:25:54 8.2 C 6.95 g/m*3 8.2 C 0 km/h
129 29-04-2009 01:37:54 8.1 C 6.91 g/m*3 8.1 C 0 km/h
130 29-04-2009 01:49:54 8 C 6.86 g/m*3 8 C 0 km/h
131 29-04-2009 02:01:54 7.9 C 6.9 g/m*3 7.9 C 0 km/h
132 29-04-2009 02:13:54 7.7 C 6.81 g/m*3 7.7 C 0 km/h
133 29-04-2009 02:25:54 7.7 C 6.89 g/m*3 7.7 C 0 km/h
134 29-04-2009 02:37:54 7.6 C 6.85 g/m*3 7.6 C 0 km/h
135 29-04-2009 02:49:54 7.4 C 6.76 g/m*3 7.4 C 0 km/h
136 29-04-2009 03:01:54 7.3 C 6.79 g/m*3 7.3 C 0 km/h
137 29-04-2009 03:13:54 7.3 C 6.87 g/m*3 7.3 C 0 km/h
138 29-04-2009 03:25:54 7.3 C 6.87 g/m*3 7.3 C 0 km/h
139 29-04-2009 03:37:54 7.2 C 6.83 g/m*3 7.2 C 0 km/h
140 29-04-2009 03:49:54 7.2 C 6.83 g/m*3 7.2 C 0 km/h
141 29-04-2009 04:01:54 7.1 C 6.79 g/m*3 7.1 C 0 km/h
142 29-04-2009 04:13:54 6.9 C 6.77 g/m*3 6.9 C 0 km/h
143 29-04-2009 04:25:54 6.9 C 6.77 g/m*3 6.9 C 0 km/h
144 29-04-2009 04:37:54 6.8 C 6.73 g/m*3 6.8 C 0 km/h
145 29-04-2009 04:49:55 6.7 C 6.69 g/m*3 6.7 C 0 km/h
146 29-04-2009 05:01:55 6.6 C 6.72 g/m*3 6.6 C 0 km/h
147 29-04-2009 05:13:55 6.6 C 6.72 g/m*3 6.6 C 0 km/h
148 29-04-2009 05:25:55 7 C 6.9 g/m*3 7 C 0 km/h
149 29-04-2009 05:37:55 7.2 C 6.99 g/m*3 7.2 C 0 km/h
150 29-04-2009 05:49:55 7.3 C 7.11 g/m*3 7.3 C 0 km/h
Sensor: Nr:Datum:Temp:Abs-Feuchte:Windchill:Wind:
Aussen-T/F 151 29-04-2009 06:01:55 7.1 C 6.94 g/m*3 7.1 C 0 km/h
152 29-04-2009 06:13:55 7 C 6.97 g/m*3 7 C 0 km/h
153 29-04-2009 06:25:55 6.9 C 6.93 g/m*3 6.9 C 0 km/h
154 29-04-2009 06:37:55 7 C 6.97 g/m*3 7 C 0 km/h
155 29-04-2009 06:49:55 7 C 6.97 g/m*3 7 C 0 km/h
156 29-04-2009 07:01:55 7 C 6.97 g/m*3 7 C 0 km/h
157 29-04-2009 07:13:55 7.1 C 7.02 g/m*3 7.1 C 0 km/h
158 29-04-2009 07:25:53 7.4 C 7.16 g/m*3 7.4 C 0 km/h
159 29-04-2009 07:37:52 7.6 C 7.25 g/m*3 7.6 C 0 km/h
160 29-04-2009 07:49:52 7.8 C 7.26 g/m*3 7.8 C 0 km/h
161 29-04-2009 08:01:52 8 C 7.19 g/m*3 8 C 0 km/h
162 29-04-2009 08:13:52 8.1 C 7.07 g/m*3 8.1 C 0 km/h
163 29-04-2009 08:25:52 8.1 C 6.99 g/m*3 8.1 C 0 km/h
164 29-04-2009 08:37:51 8.2 C 7.03 g/m*3 8.2 C 0 km/h
165 29-04-2009 08:49:51 8.5 C 7.17 g/m*3 8.5 C 0 km/h
166 29-04-2009 09:01:51 8.7 C 7.18 g/m*3 8.7 C 0 km/h
167 29-04-2009 09:13:51 9.3 C 7.28 g/m*3 9.3 C 0 km/h
168 29-04-2009 09:25:51 9.7 C 7.28 g/m*3 9.7 C 0 km/h
169 29-04-2009 09:37:51 10.3 C 7.28 g/m*3 10.3 C 0 km/h
170 29-04-2009 09:49:51 10.8 C 7.31 g/m*3 10.8 C 0 km/h
171 29-04-2009 10:01:50 11.5 C 7.33 g/m*3 11.5 C 0 km/h
172 29-04-2009 10:13:50 12.2 C 7.45 g/m*3 12.2 C 0 km/h
173 29-04-2009 10:25:51 12.9 C 7.44 g/m*3 12.9 C 0 km/h
174 29-04-2009 10:37:50 13.2 C 7.23 g/m*3 13.2 C 0 km/h
175 29-04-2009 10:49:50 13.5 C 7.25 g/m*3 13.5 C 0 km/h
Sensor: Nr:Datum:Temp:Abs-Feuchte:Windchill:Wind:
Aussen-T/F 176 29-04-2009 11:01:50 14.1 C 7.04 g/m*3 14.1 C 0 km/h
177 29-04-2009 11:13:50 14.7 C 6.92 g/m*3 14.7 C 0 km/h
178 29-04-2009 11:25:50 15.5 C 6.87 g/m*3 15.5 C 0 km/h
179 29-04-2009 11:37:50 15.5 C 6.74 g/m*3 15.5 C 0 km/h
180 29-04-2009 11:49:50 16.3 C 6.66 g/m*3 16.3 C 0 km/h
181 29-04-2009 12:01:50 16.6 C 6.5 g/m*3 16.6 C 0 km/h
182 29-04-2009 12:13:50 16.4 C 5.44 g/m*3 16.4 C 0 km/h
183 29-04-2009 12:25:49 17.3 C 5.6 g/m*3 17.3 C 0 km/h
184 29-04-2009 12:37:50 17 C 5.35 g/m*3 17 C 0 km/h
185 29-04-2009 12:49:49 17.9 C 5.65 g/m*3 17.9 C 0 km/h
186 29-04-2009 13:01:49 18.5 C 5.22 g/m*3 18.5 C 0 km/h
187 29-04-2009 13:13:50 18.6 C 4.93 g/m*3 18.6 C 0 km/h
188 29-04-2009 13:25:49 18.3 C 5 g/m*3 18.3 C 0 km/h
189 29-04-2009 13:37:49 18.5 C 4.59 g/m*3 18.5 C 0 km/h
190 29-04-2009 13:49:48 18.1 C 3.86 g/m*3 18.1 C 0 km/h
191 29-04-2009 14:01:48 17.9 C 4.12 g/m*3 17.9 C 0 km/h
192 29-04-2009 14:13:48 17.5 C 4.47 g/m*3 17.5 C 0 km/h
193 29-04-2009 14:25:49 18.5 C 4.75 g/m*3 18.5 C 0 km/h
194 29-04-2009 14:37:48 18.6 C 4.77 g/m*3 18.6 C 0 km/h
195 29-04-2009 14:49:48 20.3 C 5.1 g/m*3 20.3 C 0 km/h
196 29-04-2009 15:01:48 20.2 C 4.37 g/m*3 20.2 C 0 km/h
197 29-04-2009 15:13:48 18.1 C 4.94 g/m*3 18.1 C 0 km/h
198 29-04-2009 15:25:48 17.5 C 5.22 g/m*3 17.5 C 0 km/h
199 29-04-2009 15:37:47 18 C 4.92 g/m*3 18 C 0 km/h
200 29-04-2009 15:49:48 20 C 5.01 g/m*3 20 C 0 km/h
Sensor: Nr:Datum:Temp:Abs-Feuchte:Windchill:Wind:
Aussen-T/F 201 29-04-2009 16:01:47 21.1 C 4.97 g/m*3 21.1 C 0 km/h
202 29-04-2009 16:13:47 20.5 C 4.45 g/m*3 20.5 C 0 km/h
203 29-04-2009 16:25:47 20.7 C 4.5 g/m*3 20.7 C 0 km/h
204 29-04-2009 16:37:48 21.2 C 4.63 g/m*3 21.2 C 0 km/h
205 29-04-2009 16:49:47 21.8 C 4.22 g/m*3 21.8 C 0 km/h
206 29-04-2009 17:01:47 19.5 C 4.36 g/m*3 19.5 C 0 km/h
207 29-04-2009 17:13:47 17.6 C 4.65 g/m*3 17.6 C 0 km/h
208 29-04-2009 17:25:47 17.3 C 5.01 g/m*3 17.3 C 0 km/h
209 29-04-2009 17:37:47 16.8 C 5 g/m*3 16.8 C 0 km/h
210 29-04-2009 17:49:46 14.9 C 6.37 g/m*3 14.9 C 0 km/h
211 29-04-2009 18:01:47 13.7 C 8.64 g/m*3 13.7 C 0 km/h
212 29-04-2009 18:13:47 12.5 C 8.36 g/m*3 12.5 C 0 km/h
213 29-04-2009 18:25:46 12 C 8.42 g/m*3 12 C 0 km/h
214 29-04-2009 18:37:46 11.2 C 8.11 g/m*3 11.2 C 0 km/h
215 29-04-2009 18:49:46 11.8 C 8.63 g/m*3 11.8 C 0 km/h
216 29-04-2009 19:01:46 12.7 C 9.02 g/m*3 12.7 C 0 km/h
217 29-04-2009 19:13:46 12.8 C 8.62 g/m*3 12.8 C 0 km/h
218 29-04-2009 19:25:45 12.7 C 8.68 g/m*3 12.7 C 0 km/h
219 29-04-2009 19:37:46 12.5 C 8.58 g/m*3 12.5 C 0 km/h
220 29-04-2009 19:49:45 12.5 C 8.47 g/m*3 12.5 C 0 km/h
221 29-04-2009 20:01:45 12.2 C 8.09 g/m*3 12.2 C 0 km/h
222 29-04-2009 20:13:45 12.3 C 8.25 g/m*3 12.3 C 0 km/h
223 29-04-2009 20:25:45 12 C 7.99 g/m*3 12 C 0 km/h
224 29-04-2009 20:37:45 11.7 C 8.05 g/m*3 11.7 C 0 km/h
225 29-04-2009 20:49:44 11.7 C 8.05 g/m*3 11.7 C 0 km/h
Sensor: Nr:Datum:Temp:Abs-Feuchte:Windchill:Wind:
Aussen-T/F 226 29-04-2009 21:01:45 11.3 C 7.65 g/m*3 11.3 C 0 km/h
227 29-04-2009 21:13:46 11.1 C 7.55 g/m*3 11.1 C 0 km/h
228 29-04-2009 21:25:44 11 C 7.41 g/m*3 11 C 0 km/h
229 29-04-2009 21:37:44 10.8 C 7.41 g/m*3 10.8 C 0 km/h
230 29-04-2009 21:49:44 10.7 C 7.27 g/m*3 10.7 C 0 km/h
231 29-04-2009 22:01:44 10.6 C 7.22 g/m*3 10.6 C 0 km/h
232 29-04-2009 22:13:44 10.7 C 7.07 g/m*3 10.7 C 0 km/h
233 29-04-2009 22:25:44 10.7 C 7.07 g/m*3 10.7 C 0 km/h
234 29-04-2009 22:38:45 10.7 C 7.07 g/m*3 10.7 C 0 km/h
235 29-04-2009 22:50:45 10.7 C 7.07 g/m*3 10.7 C 0 km/h
236 29-04-2009 23:02:45 10.7 C 7.17 g/m*3 10.7 C 0 km/h
237 29-04-2009 23:14:46 10.6 C 7.12 g/m*3 10.6 C 0 km/h
238 29-04-2009 23:26:46 10.5 C 7.18 g/m*3 10.5 C 0 km/h
239 29-04-2009 23:38:46 10.3 C 7.18 g/m*3 10.3 C 0 km/h
240 29-04-2009 23:50:46 10 C 7.14 g/m*3 10 C 0 km/h
241 30-04-2009 00:02:46 9.7 C 7.19 g/m*3 9.7 C 0 km/h
242 30-04-2009 00:14:46 9.5 C 7.19 g/m*3 9.5 C 0 km/h
243 30-04-2009 00:26:46 9.5 C 7.28 g/m*3 9.5 C 0 km/h
244 30-04-2009 00:38:46 9.6 C 7.33 g/m*3 9.6 C 0 km/h
245 30-04-2009 00:50:46 9.6 C 7.42 g/m*3 9.6 C 0 km/h
246 30-04-2009 01:02:46 9.6 C 7.42 g/m*3 9.6 C 0 km/h
247 30-04-2009 01:14:46 9.5 C 7.37 g/m*3 9.5 C 0 km/h
248 30-04-2009 01:26:46 9.2 C 7.32 g/m*3 9.2 C 0 km/h
249 30-04-2009 01:38:46 9.1 C 7.28 g/m*3 9.1 C 0 km/h
250 30-04-2009 01:50:46 9 C 7.32 g/m*3 9 C 0 km/h
Sensor: Nr:Datum:Temp:Abs-Feuchte:Windchill:Wind:
Aussen-T/F 251 30-04-2009 02:02:46 8.9 C 7.36 g/m*3 8.9 C 0 km/h
252 30-04-2009 02:14:46 8.7 C 7.35 g/m*3 8.7 C 0 km/h
253 30-04-2009 02:26:46 8.8 C 7.4 g/m*3 8.8 C 0 km/h
254 30-04-2009 02:38:46 8.9 C 7.45 g/m*3 8.9 C 0 km/h
255 30-04-2009 02:50:46 8.9 C 7.45 g/m*3 8.9 C 0 km/h
256 30-04-2009 03:02:47 8.9 C 7.45 g/m*3 8.9 C 0 km/h
257 30-04-2009 03:14:47 8.6 C 7.3 g/m*3 8.6 C 0 km/h
258 30-04-2009 03:26:47 8.4 C 7.21 g/m*3 8.4 C 0 km/h
259 30-04-2009 03:38:47 8.2 C 7.12 g/m*3 8.2 C 0 km/h
260 30-04-2009 03:50:47 8 C 7.11 g/m*3 8 C 0 km/h
261 30-04-2009 04:02:47 7.8 C 7.18 g/m*3 7.8 C 0 km/h
262 30-04-2009 04:14:47 7.8 C 7.18 g/m*3 7.8 C 0 km/h
263 30-04-2009 04:26:47 7.6 C 7.09 g/m*3 7.6 C 0 km/h
264 30-04-2009 04:38:47 7.4 C 7.08 g/m*3 7.4 C 0 km/h
265 30-04-2009 04:50:47 7.4 C 7.08 g/m*3 7.4 C 0 km/h
266 30-04-2009 05:02:47 7.6 C 7.25 g/m*3 7.6 C 0 km/h
267 30-04-2009 05:14:47 7.8 C 7.43 g/m*3 7.8 C 0 km/h
268 30-04-2009 05:26:47 7.9 C 7.47 g/m*3 7.9 C 0 km/h
269 30-04-2009 05:38:47 8 C 7.36 g/m*3 8 C 0 km/h
270 30-04-2009 05:50:47 8.1 C 7.41 g/m*3 8.1 C 0 km/h
271 30-04-2009 06:02:47 8.1 C 7.41 g/m*3 8.1 C 0 km/h
272 30-04-2009 06:14:47 8.1 C 7.32 g/m*3 8.1 C 0 km/h
273 30-04-2009 06:26:47 8.2 C 7.37 g/m*3 8.2 C 0 km/h
274 30-04-2009 06:38:47 8.2 C 7.37 g/m*3 8.2 C 0 km/h
275 30-04-2009 06:50:44 8.3 C 7.33 g/m*3 8.3 C 0 km/h
Sensor: Nr:Datum:Temp:Abs-Feuchte:Windchill:Wind:
Aussen-T/F 276 30-04-2009 07:02:45 8.3 C 7.33 g/m*3 8.3 C 0 km/h
277 30-04-2009 07:14:44 8.4 C 7.38 g/m*3 8.4 C 0 km/h
278 30-04-2009 07:26:44 8.4 C 7.38 g/m*3 8.4 C 0 km/h
279 30-04-2009 07:38:44 8.6 C 7.48 g/m*3 8.6 C 0 km/h
280 30-04-2009 07:50:44 8.7 C 7.52 g/m*3 8.7 C 0 km/h
281 30-04-2009 08:02:44 9 C 7.49 g/m*3 9 C 0 km/h
282 30-04-2009 08:14:43 9.1 C 7.45 g/m*3 9.1 C 0 km/h
283 30-04-2009 08:26:43 9.3 C 7.55 g/m*3 9.3 C 0 km/h
284 30-04-2009 08:38:43 9.6 C 7.6 g/m*3 9.6 C 0 km/h
285 30-04-2009 08:50:44 9.8 C 7.52 g/m*3 9.8 C 0 km/h
286 30-04-2009 09:02:43 9.8 C 7.42 g/m*3 9.8 C 0 km/h
287 30-04-2009 09:14:43 10.1 C 7.47 g/m*3 10.1 C 0 km/h
288 30-04-2009 09:26:43 10.3 C 7.47 g/m*3 10.3 C 0 km/h
289 30-04-2009 09:38:44 10.6 C 7.52 g/m*3 10.6 C 0 km/h
290 30-04-2009 09:50:43 10.8 C 7.41 g/m*3 10.8 C 0 km/h
291 30-04-2009 10:02:43 11 C 7.41 g/m*3 11 C 0 km/h
292 30-04-2009 10:14:42 11.2 C 7.5 g/m*3 11.2 C 0 km/h
293 30-04-2009 10:26:42 11.4 C 7.49 g/m*3 11.4 C 0 km/h
294 30-04-2009 10:38:43 11.7 C 7.53 g/m*3 11.7 C 0 km/h
295 30-04-2009 10:50:42 12 C 7.46 g/m*3 12 C 0 km/h
296 30-04-2009 11:02:42 12.2 C 7.45 g/m*3 12.2 C 0 km/h
297 30-04-2009 11:14:42 12.4 C 7.65 g/m*3 12.4 C 0 km/h
298 30-04-2009 11:26:42 12.6 C 7.63 g/m*3 12.6 C 0 km/h
299 30-04-2009 11:38:42 12.8 C 7.73 g/m*3 12.8 C 0 km/h
300 30-04-2009 11:50:41 13.2 C 7.69 g/m*3 13.2 C 0 km/h
Sensor: Nr:Datum:Temp:Abs-Feuchte:Windchill:Wind:
Aussen-T/F 301 30-04-2009 12:02:42 13.4 C 7.56 g/m*3 13.4 C 0 km/h
302 30-04-2009 12:14:42 13.8 C 7.63 g/m*3 13.8 C 0 km/h
303 30-04-2009 12:26:42 13.8 C 7.39 g/m*3 13.8 C 0 km/h
304 30-04-2009 12:38:41 14.2 C 7.45 g/m*3 14.2 C 0 km/h
305 30-04-2009 12:50:42 15 C 7.44 g/m*3 15 C 0 km/h
306 30-04-2009 13:02:41 15.3 C 7.31 g/m*3 15.3 C 0 km/h
307 30-04-2009 13:14:41 16.1 C 7.13 g/m*3 16.1 C 0 km/h
308 30-04-2009 13:26:41 16.1 C 6.72 g/m*3 16.1 C 0 km/h
309 30-04-2009 13:38:41 16.9 C 6.9 g/m*3 16.9 C 0 km/h
310 30-04-2009 13:50:41 18.1 C 6.49 g/m*3 18.1 C 0 km/h
311 30-04-2009 14:02:40 18.1 C 6.33 g/m*3 18.1 C 0 km/h
312 30-04-2009 14:14:40 18 C 6.3 g/m*3 18 C 0 km/h
313 30-04-2009 14:26:40 19.1 C 6.23 g/m*3 19.1 C 0 km/h
314 30-04-2009 14:38:40 19 C 6.36 g/m*3 19 C 0 km/h
315 30-04-2009 14:50:40 17.8 C 6.53 g/m*3 17.8 C 0 km/h
316 30-04-2009 15:02:40 17.9 C 6.57 g/m*3 17.9 C 0 km/h
317 30-04-2009 15:14:40 18 C 6.45 g/m*3 18 C 0 km/h
318 30-04-2009 15:26:40 18.4 C 6.45 g/m*3 18.4 C 0 km/h
319 30-04-2009 15:38:40 18 C 6.6 g/m*3 18 C 0 km/h
320 30-04-2009 15:50:39 17.6 C 6.75 g/m*3 17.6 C 0 km/h
321 30-04-2009 16:02:40 17.6 C 6.6 g/m*3 17.6 C 0 km/h
322 30-04-2009 16:14:39 17.8 C 6.37 g/m*3 17.8 C 0 km/h
323 30-04-2009 16:26:39 17.9 C 6.57 g/m*3 17.9 C 0 km/h
324 30-04-2009 16:38:39 18.1 C 6.64 g/m*3 18.1 C 0 km/h
325 30-04-2009 16:50:39 18.3 C 6.57 g/m*3 18.3 C 0 km/h
Sensor: Nr:Datum:Temp:Abs-Feuchte:Windchill:Wind:
Aussen-T/F 326 30-04-2009 17:02:39 18.9 C 6.64 g/m*3 18.9 C 0 km/h
327 30-04-2009 17:14:38 18.9 C 6.64 g/m*3 18.9 C 0 km/h
328 30-04-2009 17:26:38 18.3 C 6.41 g/m*3 18.3 C 0 km/h
329 30-04-2009 17:38:39 18.1 C 6.49 g/m*3 18.1 C 0 km/h
330 30-04-2009 17:50:38 18 C 6.45 g/m*3 18 C 0 km/h
331 30-04-2009 18:02:38 17.9 C 6.72 g/m*3 17.9 C 0 km/h
332 30-04-2009 18:14:39 18.1 C 6.49 g/m*3 18.1 C 0 km/h
333 30-04-2009 18:26:39 17.9 C 6.57 g/m*3 17.9 C 0 km/h
334 30-04-2009 18:38:38 17.7 C 6.79 g/m*3 17.7 C 0 km/h
335 30-04-2009 18:50:38 17.9 C 6.87 g/m*3 17.9 C 0 km/h
336 30-04-2009 19:02:37 18.7 C 6.72 g/m*3 18.7 C 0 km/h
337 30-04-2009 19:14:38 19.3 C 6.63 g/m*3 19.3 C 0 km/h
338 30-04-2009 19:26:39 19.5 C 6.71 g/m*3 19.5 C 0 km/h
339 30-04-2009 19:38:37 19.1 C 6.88 g/m*3 19.1 C 0 km/h
340 30-04-2009 19:50:37 18.5 C 6.8 g/m*3 18.5 C 0 km/h
341 30-04-2009 20:02:37 18.2 C 7.15 g/m*3 18.2 C 0 km/h
342 30-04-2009 20:14:37 17.6 C 7.5 g/m*3 17.6 C 0 km/h
343 30-04-2009 20:26:37 16.5 C 7.44 g/m*3 16.5 C 0 km/h
344 30-04-2009 20:38:37 15.7 C 7.63 g/m*3 15.7 C 0 km/h
345 30-04-2009 20:50:37 14.9 C 7.52 g/m*3 14.9 C 0 km/h
346 30-04-2009 21:02:36 14.1 C 7.28 g/m*3 14.1 C 0 km/h
347 30-04-2009 21:14:37 13.8 C 7.51 g/m*3 13.8 C 0 km/h
348 30-04-2009 21:26:37 13.9 C 7.55 g/m*3 13.9 C 0 km/h
349 30-04-2009 21:38:36 13.9 C 7.67 g/m*3 13.9 C 0 km/h
350 30-04-2009 21:50:36 13.8 C 7.74 g/m*3 13.8 C 0 km/h
Sensor: Nr:Datum:Temp:Abs-Feuchte:Windchill:Wind:
Aussen-T/F 351 30-04-2009 22:02:36 13.7 C 7.82 g/m*3 13.7 C 0 km/h
352 30-04-2009 22:14:36 13.6 C 7.77 g/m*3 13.6 C 0 km/h
353 30-04-2009 22:26:36 13.5 C 7.95 g/m*3 13.5 C 0 km/h
354 30-04-2009 22:39:30 13.3 C 7.97 g/m*3 13.3 C 0 km/h
355 30-04-2009 22:51:30 13 C 7.94 g/m*3 13 C 0 km/h
356 30-04-2009 23:03:30 12.8 C 7.95 g/m*3 12.8 C 0 km/h
357 30-04-2009 23:15:30 12.6 C 7.85 g/m*3 12.6 C 0 km/h
358 30-04-2009 23:27:30 12.4 C 7.87 g/m*3 12.4 C 0 km/h
359 30-04-2009 23:39:30 12.3 C 7.93 g/m*3 12.3 C 0 km/h
360 30-04-2009 23:51:30 12.1 C 7.83 g/m*3 12.1 C 0 km/h
361 01-05-2009 00:03:30 11.9 C 7.94 g/m*3 11.9 C 0 km/h
362 01-05-2009 00:15:31 11.7 C 7.95 g/m*3 11.7 C 0 km/h
363 01-05-2009 00:27:31 11.5 C 7.85 g/m*3 11.5 C 0 km/h
364 01-05-2009 00:39:31 11.3 C 7.85 g/m*3 11.3 C 0 km/h
365 01-05-2009 00:51:31 11.2 C 7.8 g/m*3 11.2 C 0 km/h
366 01-05-2009 01:03:31 11 C 7.71 g/m*3 11 C 0 km/h
367 01-05-2009 01:15:31 10.9 C 7.76 g/m*3 10.9 C 0 km/h
368 01-05-2009 01:27:31 10.7 C 7.66 g/m*3 10.7 C 0 km/h
369 01-05-2009 01:39:31 10.5 C 7.66 g/m*3 10.5 C 0 km/h
370 01-05-2009 01:51:31 10.4 C 7.61 g/m*3 10.4 C 0 km/h
371 01-05-2009 02:03:31 10.2 C 7.61 g/m*3 10.2 C 0 km/h
372 01-05-2009 02:15:31 10 C 7.52 g/m*3 10 C 0 km/h
373 01-05-2009 02:27:31 9.9 C 7.66 g/m*3 9.9 C 0 km/h
374 01-05-2009 02:39:31 9.8 C 7.7 g/m*3 9.8 C 0 km/h
375 01-05-2009 02:51:31 9.7 C 7.65 g/m*3 9.7 C 0 km/h
Sensor: Nr:Datum:Temp:Abs-Feuchte:Windchill:Wind:
Aussen-T/F 376 01-05-2009 03:03:31 9.5 C 7.65 g/m*3 9.5 C 0 km/h
377 01-05-2009 03:15:31 9.3 C 7.55 g/m*3 9.3 C 0 km/h
378 01-05-2009 03:27:31 9.3 C 7.64 g/m*3 9.3 C 0 km/h
379 01-05-2009 03:39:31 9.2 C 7.59 g/m*3 9.2 C 0 km/h
380 01-05-2009 03:51:31 9 C 7.49 g/m*3 9 C 0 km/h
381 01-05-2009 04:03:32 8.8 C 7.49 g/m*3 8.8 C 0 km/h
382 01-05-2009 04:15:32 8.7 C 7.44 g/m*3 8.7 C 0 km/h
383 01-05-2009 04:27:32 8.6 C 7.39 g/m*3 8.6 C 0 km/h
384 01-05-2009 04:39:32 8.4 C 7.3 g/m*3 8.4 C 0 km/h
385 01-05-2009 04:51:32 8.3 C 7.33 g/m*3 8.3 C 0 km/h
386 01-05-2009 05:03:32 8.1 C 7.24 g/m*3 8.1 C 0 km/h
387 01-05-2009 05:15:32 8.1 C 7.32 g/m*3 8.1 C 0 km/h
388 01-05-2009 05:27:32 8 C 7.36 g/m*3 8 C 0 km/h
389 01-05-2009 05:39:32 8.2 C 7.45 g/m*3 8.2 C 0 km/h
390 01-05-2009 05:51:32 8.3 C 7.59 g/m*3 8.3 C 0 km/h
391 01-05-2009 06:03:32 8.2 C 7.54 g/m*3 8.2 C 0 km/h
392 01-05-2009 06:15:32 8.2 C 7.54 g/m*3 8.2 C 0 km/h
393 01-05-2009 06:27:32 8 C 7.36 g/m*3 8 C 0 km/h
394 01-05-2009 06:39:32 8 C 7.44 g/m*3 8 C 0 km/h
395 01-05-2009 06:51:32 8 C 7.44 g/m*3 8 C 0 km/h
396 01-05-2009 07:03:32 8 C 7.44 g/m*3 8 C 0 km/h
397 01-05-2009 07:15:32 8 C 7.52 g/m*3 8 C 0 km/h
398 01-05-2009 07:27:32 8.2 C 7.62 g/m*3 8.2 C 0 km/h
399 01-05-2009 07:39:32 8.3 C 7.67 g/m*3 8.3 C 0 km/h
400 01-05-2009 07:51:36 8.5 C 7.77 g/m*3 8.5 C 0 km/h
Sensor: Nr:Datum:Temp:Abs-Feuchte:Windchill:Wind:
Aussen-T/F 401 01-05-2009 08:03:36 8.6 C 7.73 g/m*3 8.6 C 0 km/h
402 01-05-2009 08:15:36 9 C 7.85 g/m*3 9 C 0 km/h
403 01-05-2009 08:27:36 9 C 7.76 g/m*3 9 C 0 km/h
404 01-05-2009 08:39:36 9.3 C 8 g/m*3 9.3 C 0 km/h
405 01-05-2009 08:51:36 9.7 C 8.11 g/m*3 9.7 C 0 km/h
406 01-05-2009 09:03:36 9.7 C 8.02 g/m*3 9.7 C 0 km/h
407 01-05-2009 09:15:35 9.9 C 8.12 g/m*3 9.9 C 0 km/h
408 01-05-2009 09:27:35 10.9 C 8.45 g/m*3 10.9 C 0 km/h
409 01-05-2009 09:39:36 11.7 C 8.47 g/m*3 11.7 C 0 km/h
410 01-05-2009 09:51:35 11.6 C 8 g/m*3 11.6 C 0 km/h
411 01-05-2009 10:03:35 11.5 C 7.95 g/m*3 11.5 C 0 km/h
412 01-05-2009 10:15:35 11.6 C 8.11 g/m*3 11.6 C 0 km/h
413 01-05-2009 10:27:35 12.2 C 8.2 g/m*3 12.2 C 0 km/h
414 01-05-2009 10:39:35 13.2 C 8.5 g/m*3 13.2 C 0 km/h
415 01-05-2009 10:51:34 14 C 8.44 g/m*3 14 C 0 km/h
416 01-05-2009 11:03:35 14.9 C 8.79 g/m*3 14.9 C 0 km/h
417 01-05-2009 11:15:35 15.9 C 8.67 g/m*3 15.9 C 0 km/h
418 01-05-2009 11:27:35 16.6 C 8.76 g/m*3 16.6 C 0 km/h
419 01-05-2009 11:39:34 17.2 C 8.79 g/m*3 17.2 C 0 km/h
420 01-05-2009 11:51:35 18 C 8.75 g/m*3 18 C 0 km/h
421 01-05-2009 12:03:34 18.4 C 8.34 g/m*3 18.4 C 0 km/h
422 01-05-2009 12:15:34 19.2 C 8.57 g/m*3 19.2 C 0 km/h
423 01-05-2009 12:27:34 19.5 C 7.89 g/m*3 19.5 C 0 km/h
424 01-05-2009 12:39:33 19.3 C 7.46 g/m*3 19.3 C 0 km/h
425 01-05-2009 12:51:34 20.1 C 7.65 g/m*3 20.1 C 0 km/h
Sensor: Nr:Datum:Temp:Abs-Feuchte:Windchill:Wind:
Aussen-T/F 426 01-05-2009 13:03:33 21.6 C 7.21 g/m*3 21.6 C 0 km/h
427 01-05-2009 13:15:33 21.5 C 6.79 g/m*3 21.5 C 0 km/h
428 01-05-2009 13:27:33 22.7 C 6.87 g/m*3 22.7 C 0 km/h
429 01-05-2009 13:39:34 23.6 C 6.81 g/m*3 23.6 C 0 km/h
430 01-05-2009 13:51:33 23.3 C 6.27 g/m*3 23.3 C 0 km/h
431 01-05-2009 14:03:33 23.4 C 6.31 g/m*3 23.4 C 0 km/h
432 01-05-2009 14:15:33 23.7 C 6.2 g/m*3 23.7 C 0 km/h
433 01-05-2009 14:27:33 23.3 C 6.27 g/m*3 23.3 C 0 km/h
434 01-05-2009 14:39:33 24.9 C 6.41 g/m*3 24.9 C 0 km/h
435 01-05-2009 14:51:32 24.2 C 5.94 g/m*3 24.2 C 0 km/h
436 01-05-2009 15:03:33 25.8 C 6.02 g/m*3 25.8 C 0 km/h
437 01-05-2009 15:15:32 24.8 C 5.92 g/m*3 24.8 C 0 km/h
438 01-05-2009 15:27:32 25 C 5.75 g/m*3 25 C 0 km/h
439 01-05-2009 15:39:32 26.5 C 6.26 g/m*3 26.5 C 0 km/h
440 01-05-2009 15:51:31 25.3 C 5.85 g/m*3 25.3 C 0 km/h
441 01-05-2009 16:03:32 26.4 C 5.23 g/m*3 26.4 C 0 km/h
442 01-05-2009 16:15:32 27.1 C 5.43 g/m*3 27.1 C 0 km/h
443 01-05-2009 16:27:32 27.7 C 5.62 g/m*3 27.7 C 0 km/h
444 01-05-2009 16:39:31 26.4 C 5.23 g/m*3 26.4 C 0 km/h
445 01-05-2009 16:51:32 26.4 C 5.23 g/m*3 26.4 C 0 km/h
446 01-05-2009 17:03:31 26.9 C 5.37 g/m*3 26.9 C 0 km/h
447 01-05-2009 17:15:31 25.6 C 4.76 g/m*3 25.6 C 0 km/h
448 01-05-2009 17:27:32 26.8 C 5.09 g/m*3 26.8 C 0 km/h
449 01-05-2009 17:39:31 26 C 4.87 g/m*3 26 C 0 km/h
450 01-05-2009 17:51:31 25.5 C 5.21 g/m*3 25.5 C 0 km/h
Sensor: Nr:Datum:Temp:Abs-Feuchte:Windchill:Wind:
Aussen-T/F 451 01-05-2009 18:03:30 26.6 C 5.29 g/m*3 26.6 C 0 km/h
452 01-05-2009 18:15:30 26.9 C 5.37 g/m*3 26.9 C 0 km/h
453 01-05-2009 18:27:30 26.3 C 5.2 g/m*3 26.3 C 0 km/h
454 01-05-2009 18:39:31 25.4 C 5.18 g/m*3 25.4 C 0 km/h
455 01-05-2009 18:51:30 25.8 C 5.54 g/m*3 25.8 C 0 km/h
456 01-05-2009 19:03:30 25 C 5.29 g/m*3 25 C 0 km/h
457 01-05-2009 19:15:30 25.4 C 5.41 g/m*3 25.4 C 0 km/h
458 01-05-2009 19:27:30 24.9 C 5.49 g/m*3 24.9 C 0 km/h
459 01-05-2009 19:39:30 24.8 C 5.69 g/m*3 24.8 C 0 km/h
460 01-05-2009 19:51:29 23.9 C 5.84 g/m*3 23.9 C 0 km/h
461 01-05-2009 20:03:30 22.9 C 6.34 g/m*3 22.9 C 0 km/h
462 01-05-2009 20:15:29 22.6 C 7.23 g/m*3 22.6 C 0 km/h
463 01-05-2009 20:27:29 21.5 C 7.35 g/m*3 21.5 C 0 km/h
464 01-05-2009 20:39:29 20.7 C 7.56 g/m*3 20.7 C 0 km/h
465 01-05-2009 20:51:30 19.7 C 7.13 g/m*3 19.7 C 0 km/h
466 01-05-2009 21:03:29 19 C 7.01 g/m*3 19 C 0 km/h
467 01-05-2009 21:15:28 18.5 C 7.12 g/m*3 18.5 C 0 km/h
468 01-05-2009 21:27:28 18.2 C 7.15 g/m*3 18.2 C 0 km/h
469 01-05-2009 21:39:29 17.8 C 7.29 g/m*3 17.8 C 0 km/h
470 01-05-2009 21:51:28 17.6 C 7.2 g/m*3 17.6 C 0 km/h
471 01-05-2009 22:03:28 17.4 C 7.11 g/m*3 17.4 C 0 km/h
472 01-05-2009 22:15:29 17 C 7.38 g/m*3 17 C 0 km/h
473 01-05-2009 22:27:29 16.6 C 7.49 g/m*3 16.6 C 0 km/h
474 01-05-2009 22:40:28 16.8 C 7.43 g/m*3 16.8 C 0 km/h
475 01-05-2009 22:52:28 16.2 C 7.17 g/m*3 16.2 C 0 km/h
Sensor: Nr:Datum:Temp:Abs-Feuchte:Windchill:Wind:
Aussen-T/F 476 01-05-2009 23:04:29 15.8 C 7.4 g/m*3 15.8 C 0 km/h
477 01-05-2009 23:16:29 15.5 C 7.4 g/m*3 15.5 C 0 km/h
478 01-05-2009 23:28:29 15.1 C 7.48 g/m*3 15.1 C 0 km/h
479 01-05-2009 23:40:29 14.9 C 7.65 g/m*3 14.9 C 0 km/h
480 01-05-2009 23:52:29 14.6 C 7.76 g/m*3 14.6 C 0 km/h
481 02-05-2009 00:04:29 14.4 C 7.91 g/m*3 14.4 C 0 km/h
482 02-05-2009 00:16:29 14.2 C 7.94 g/m*3 14.2 C 0 km/h
483 02-05-2009 00:28:29 14.2 C 7.94 g/m*3 14.2 C 0 km/h
484 02-05-2009 00:40:29 13.9 C 8.15 g/m*3 13.9 C 0 km/h
485 02-05-2009 00:52:29 13.7 C 8.17 g/m*3 13.7 C 0 km/h
486 02-05-2009 01:04:29 13.3 C 8.09 g/m*3 13.3 C 0 km/h
487 02-05-2009 01:16:29 13.1 C 8.1 g/m*3 13.1 C 0 km/h
488 02-05-2009 01:28:29 12.9 C 8.23 g/m*3 12.9 C 0 km/h
489 02-05-2009 01:40:29 12.7 C 8.24 g/m*3 12.7 C 0 km/h
490 02-05-2009 01:52:29 12.5 C 8.14 g/m*3 12.5 C 0 km/h
491 02-05-2009 02:04:29 12.4 C 8.19 g/m*3 12.4 C 0 km/h
492 02-05-2009 02:16:29 12.2 C 8.09 g/m*3 12.2 C 0 km/h
493 02-05-2009 02:28:29 12.1 C 8.15 g/m*3 12.1 C 0 km/h
494 02-05-2009 02:40:29 12 C 8.1 g/m*3 12 C 0 km/h
495 02-05-2009 02:52:30 11.9 C 8.15 g/m*3 11.9 C 0 km/h
496 02-05-2009 03:04:30 11.8 C 8.1 g/m*3 11.8 C 0 km/h
497 02-05-2009 03:16:30 11.8 C 8.21 g/m*3 11.8 C 0 km/h
498 02-05-2009 03:28:30 11.3 C 8.06 g/m*3 11.3 C 0 km/h
499 02-05-2009 03:40:30 11.2 C 8.01 g/m*3 11.2 C 0 km/h
500 02-05-2009 03:52:30 11 C 8.01 g/m*3 11 C 0 km/h
Sensor: Nr:Datum:Temp:Abs-Feuchte:Windchill:Wind:
Aussen-T/F 501 02-05-2009 04:04:30 10.9 C 8.16 g/m*3 10.9 C 0 km/h
502 02-05-2009 04:16:30 10.7 C 8.05 g/m*3 10.7 C 0 km/h
503 02-05-2009 04:28:30 10.6 C 8 g/m*3 10.6 C 0 km/h
504 02-05-2009 04:40:30 10.6 C 8.1 g/m*3 10.6 C 0 km/h
505 02-05-2009 04:52:30 10.5 C 8.05 g/m*3 10.5 C 0 km/h
506 02-05-2009 05:04:30 10.4 C 8 g/m*3 10.4 C 0 km/h
507 02-05-2009 05:16:30 10.3 C 7.95 g/m*3 10.3 C 0 km/h
508 02-05-2009 05:28:30 10.2 C 7.99 g/m*3 10.2 C 0 km/h
509 02-05-2009 05:40:30 10.2 C 7.99 g/m*3 10.2 C 0 km/h
510 02-05-2009 05:52:30 10 C 7.89 g/m*3 10 C 0 km/h
511 02-05-2009 06:04:30 10 C 7.89 g/m*3 10 C 0 km/h
512 02-05-2009 06:16:30 10 C 7.99 g/m*3 10 C 0 km/h
513 02-05-2009 06:28:30 10 C 7.99 g/m*3 10 C 0 km/h
514 02-05-2009 06:40:31 10 C 7.99 g/m*3 10 C 0 km/h
515 02-05-2009 06:52:31 10.3 C 8.14 g/m*3 10.3 C 0 km/h
516 02-05-2009 07:04:31 10.6 C 8.2 g/m*3 10.6 C 0 km/h
517 02-05-2009 07:16:31 11.2 C 8.51 g/m*3 11.2 C 0 km/h
518 02-05-2009 07:28:31 11.5 C 8.47 g/m*3 11.5 C 0 km/h
519 02-05-2009 07:40:31 12.2 C 8.63 g/m*3 12.2 C 0 km/h
520 02-05-2009 07:52:31 12.7 C 8.46 g/m*3 12.7 C 0 km/h
521 02-05-2009 08:04:28 13.3 C 8.55 g/m*3 13.3 C 0 km/h
522 02-05-2009 08:16:28 13.5 C 8.19 g/m*3 13.5 C 0 km/h
523 02-05-2009 08:28:28 13.5 C 8.07 g/m*3 13.5 C 0 km/h
524 02-05-2009 08:40:27 13.6 C 8 g/m*3 13.6 C 0 km/h
525 02-05-2009 08:52:27 13.7 C 7.93 g/m*3 13.7 C 0 km/h
Sensor: Nr:Datum:Temp:Abs-Feuchte:Windchill:Wind:
Aussen-T/F 526 02-05-2009 09:04:27 14.1 C 7.89 g/m*3 14.1 C 0 km/h
527 02-05-2009 09:16:27 14.4 C 7.66 g/m*3 14.4 C 0 km/h
528 02-05-2009 09:28:27 14.8 C 7.6 g/m*3 14.8 C 0 km/h
529 02-05-2009 09:40:27 15.2 C 7.66 g/m*3 15.2 C 0 km/h
530 02-05-2009 09:52:27 15.6 C 7.85 g/m*3 15.6 C 0 km/h
531 02-05-2009 10:04:26 16.1 C 7.54 g/m*3 16.1 C 0 km/h
532 02-05-2009 10:16:27 16.1 C 7.68 g/m*3 16.1 C 0 km/h
533 02-05-2009 10:28:27 16.8 C 7.72 g/m*3 16.8 C 0 km/h
534 02-05-2009 10:40:26 17.5 C 7.6 g/m*3 17.5 C 0 km/h
535 02-05-2009 10:52:26 18.3 C 7.66 g/m*3 18.3 C 0 km/h
536 02-05-2009 11:04:26 18.1 C 7.42 g/m*3 18.1 C 0 km/h
537 02-05-2009 11:16:26 17.3 C 7.51 g/m*3 17.3 C 0 km/h
538 02-05-2009 11:28:26 18.1 C 7.57 g/m*3 18.1 C 0 km/h
539 02-05-2009 11:40:26 17.3 C 7.37 g/m*3 17.3 C 0 km/h
540 02-05-2009 11:52:26 18.5 C 7.91 g/m*3 18.5 C 0 km/h
541 02-05-2009 12:04:26 18.8 C 7.41 g/m*3 18.8 C 0 km/h
542 02-05-2009 12:16:25 18.9 C 7.78 g/m*3 18.9 C 0 km/h
543 02-05-2009 12:28:25 20 C 7.6 g/m*3 20 C 0 km/h
544 02-05-2009 12:40:25 20 C 7.6 g/m*3 20 C 0 km/h
545 02-05-2009 12:52:25 21.5 C 7.73 g/m*3 21.5 C 0 km/h
546 02-05-2009 13:04:25 21.9 C 7.72 g/m*3 21.9 C 0 km/h
547 02-05-2009 13:16:25 22.3 C 7.11 g/m*3 22.3 C 0 km/h
548 02-05-2009 13:28:25 23 C 6.78 g/m*3 23 C 0 km/h
549 02-05-2009 13:40:25 22.3 C 6.91 g/m*3 22.3 C 0 km/h
550 02-05-2009 13:52:25 22.8 C 6.5 g/m*3 22.8 C 0 km/h
Sensor: Nr:Datum:Temp:Abs-Feuchte:Windchill:Wind:
Aussen-T/F 551 02-05-2009 14:04:24 22.3 C 6.12 g/m*3 22.3 C 0 km/h
552 02-05-2009 14:16:25 22.8 C 6.5 g/m*3 22.8 C 0 km/h
553 02-05-2009 14:28:25 22.7 C 6.47 g/m*3 22.7 C 0 km/h
554 02-05-2009 14:40:24 23.1 C 6.61 g/m*3 23.1 C 0 km/h
555 02-05-2009 14:52:24 23.9 C 6.06 g/m*3 23.9 C 0 km/h
556 02-05-2009 15:04:24 24 C 5.87 g/m*3 24 C 0 km/h
557 02-05-2009 15:16:24 23.8 C 5.81 g/m*3 23.8 C 0 km/h
558 02-05-2009 15:28:24 24.7 C 5.66 g/m*3 24.7 C 0 km/h
559 02-05-2009 15:40:24 25.8 C 5.78 g/m*3 25.8 C 0 km/h
560 02-05-2009 15:52:24 24.3 C 5.31 g/m*3 24.3 C 0 km/h
561 02-05-2009 16:04:24 26.1 C 5.39 g/m*3 26.1 C 0 km/h
562 02-05-2009 16:16:23 26.7 C 5.06 g/m*3 26.7 C 0 km/h
563 02-05-2009 16:28:23 26.7 C 5.06 g/m*3 26.7 C 0 km/h
564 02-05-2009 16:40:23 25.9 C 4.84 g/m*3 25.9 C 0 km/h
565 02-05-2009 16:52:23 25.5 C 4.73 g/m*3 25.5 C 0 km/h
566 02-05-2009 17:04:23 26.1 C 4.9 g/m*3 26.1 C 0 km/h
567 02-05-2009 17:16:22 27.3 C 5.23 g/m*3 27.3 C 0 km/h
568 02-05-2009 17:28:22 27.6 C 5.32 g/m*3 27.6 C 0 km/h
569 02-05-2009 17:40:23 26.8 C 5.09 g/m*3 26.8 C 0 km/h
570 02-05-2009 17:52:22 26.6 C 5.03 g/m*3 26.6 C 0 km/h
571 02-05-2009 18:04:22 26.3 C 4.95 g/m*3 26.3 C 0 km/h
572 02-05-2009 18:16:23 27 C 5.15 g/m*3 27 C 0 km/h
573 02-05-2009 18:28:23 27.1 C 5.18 g/m*3 27.1 C 0 km/h
574 02-05-2009 18:40:22 25.9 C 4.84 g/m*3 25.9 C 0 km/h
575 02-05-2009 18:52:22 26.9 C 5.12 g/m*3 26.9 C 0 km/h
Sensor: Nr:Datum:Temp:Abs-Feuchte:Windchill:Wind:
Aussen-T/F 576 02-05-2009 19:04:22 26 C 4.87 g/m*3 26 C 0 km/h
577 02-05-2009 19:16:22 24.1 C 4.38 g/m*3 24.1 C 0 km/h
578 02-05-2009 19:28:22 24.5 C 4.7 g/m*3 24.5 C 0 km/h
579 02-05-2009 19:40:21 23.9 C 4.54 g/m*3 23.9 C 0 km/h
580 02-05-2009 19:52:22 23.2 C 4.99 g/m*3 23.2 C 0 km/h
581 02-05-2009 20:04:21 22.9 C 5.11 g/m*3 22.9 C 0 km/h
582 02-05-2009 20:16:21 22.5 C 5.59 g/m*3 22.5 C 0 km/h
583 02-05-2009 20:28:21 21.8 C 5.76 g/m*3 21.8 C 0 km/h
584 02-05-2009 20:40:21 21 C 5.5 g/m*3 21 C 0 km/h
585 02-05-2009 20:52:21 20.3 C 5.45 g/m*3 20.3 C 0 km/h
586 02-05-2009 21:04:21 19.6 C 5.57 g/m*3 19.6 C 0 km/h
587 02-05-2009 21:16:20 18.7 C 5.6 g/m*3 18.7 C 0 km/h
588 02-05-2009 21:28:20 17.9 C 5.5 g/m*3 17.9 C 0 km/h
589 02-05-2009 21:40:20 17.6 C 5.55 g/m*3 17.6 C 0 km/h
590 02-05-2009 21:52:20 17.2 C 5.71 g/m*3 17.2 C 0 km/h
591 02-05-2009 22:04:20 16.9 C 5.75 g/m*3 16.9 C 0 km/h
592 02-05-2009 22:16:20 16.7 C 5.83 g/m*3 16.7 C 0 km/h
593 02-05-2009 22:28:20 16.8 C 6 g/m*3 16.8 C 0 km/h
594 02-05-2009 22:41:22 16.5 C 6.18 g/m*3 16.5 C 0 km/h
595 02-05-2009 22:53:22 16.4 C 6.28 g/m*3 16.4 C 0 km/h
596 02-05-2009 23:05:22 16.1 C 6.44 g/m*3 16.1 C 0 km/h
597 02-05-2009 23:17:22 16 C 6.54 g/m*3 16 C 0 km/h
598 02-05-2009 23:29:22 16 C 6.4 g/m*3 16 C 0 km/h
599 02-05-2009 23:41:22 15.6 C 6.52 g/m*3 15.6 C 0 km/h
600 02-05-2009 23:53:22 15.3 C 6.66 g/m*3 15.3 C 0 km/h
Sensor: Nr:Datum:Temp:Abs-Feuchte:Windchill:Wind:
Aussen-T/F 601 03-05-2009 00:05:22 14.9 C 6.75 g/m*3 14.9 C 0 km/h
602 03-05-2009 00:17:22 14.6 C 6.88 g/m*3 14.6 C 0 km/h
603 03-05-2009 00:29:22 14.4 C 6.92 g/m*3 14.4 C 0 km/h
604 03-05-2009 00:41:22 13.9 C 7.07 g/m*3 13.9 C 0 km/h
605 03-05-2009 00:53:22 13.2 C 7 g/m*3 13.2 C 0 km/h
606 03-05-2009 01:05:22 13.2 C 7.12 g/m*3 13.2 C 0 km/h
607 03-05-2009 01:17:22 13.2 C 7.23 g/m*3 13.2 C 0 km/h
608 03-05-2009 01:29:22 12.9 C 7.33 g/m*3 12.9 C 0 km/h
609 03-05-2009 01:41:22 12.6 C 7.3 g/m*3 12.6 C 0 km/h
610 03-05-2009 01:53:23 12.4 C 7.32 g/m*3 12.4 C 0 km/h
611 03-05-2009 02:05:23 12.2 C 7.34 g/m*3 12.2 C 0 km/h
612 03-05-2009 02:17:23 12.2 C 7.34 g/m*3 12.2 C 0 km/h
613 03-05-2009 02:29:23 12 C 7.35 g/m*3 12 C 0 km/h
614 03-05-2009 02:41:23 11.8 C 7.37 g/m*3 11.8 C 0 km/h
615 03-05-2009 02:53:23 11.8 C 7.47 g/m*3 11.8 C 0 km/h
616 03-05-2009 03:05:23 11.4 C 7.39 g/m*3 11.4 C 0 km/h
617 03-05-2009 03:17:23 11.2 C 7.4 g/m*3 11.2 C 0 km/h
618 03-05-2009 03:29:23 10.9 C 7.36 g/m*3 10.9 C 0 km/h
619 03-05-2009 03:41:23 10.8 C 7.41 g/m*3 10.8 C 0 km/h
620 03-05-2009 03:53:23 10.6 C 7.42 g/m*3 10.6 C 0 km/h
621 03-05-2009 04:05:23 10.5 C 7.37 g/m*3 10.5 C 0 km/h
622 03-05-2009 04:17:23 10.2 C 7.33 g/m*3 10.2 C 0 km/h
623 03-05-2009 04:29:23 9.9 C 7.38 g/m*3 9.9 C 0 km/h
624 03-05-2009 04:41:23 9.9 C 7.38 g/m*3 9.9 C 0 km/h
625 03-05-2009 04:53:23 9.8 C 7.33 g/m*3 9.8 C 0 km/h
Sensor: Nr:Datum:Temp:Abs-Feuchte:Windchill:Wind:
Aussen-T/F 626 03-05-2009 05:05:23 9.7 C 7.38 g/m*3 9.7 C 0 km/h
627 03-05-2009 05:17:23 9.3 C 7.19 g/m*3 9.3 C 0 km/h
628 03-05-2009 05:29:23 9.1 C 7.19 g/m*3 9.1 C 0 km/h
629 03-05-2009 05:41:23 9.1 C 7.19 g/m*3 9.1 C 0 km/h
630 03-05-2009 05:53:24 9 C 7.23 g/m*3 9 C 0 km/h
631 03-05-2009 06:05:24 9.1 C 7.28 g/m*3 9.1 C 0 km/h
632 03-05-2009 06:17:24 9.5 C 7.46 g/m*3 9.5 C 0 km/h
633 03-05-2009 06:29:24 9.6 C 7.42 g/m*3 9.6 C 0 km/h
634 03-05-2009 06:41:24 9.5 C 7.28 g/m*3 9.5 C 0 km/h
635 03-05-2009 06:53:24 9.6 C 7.42 g/m*3 9.6 C 0 km/h
636 03-05-2009 07:05:24 9.8 C 7.42 g/m*3 9.8 C 0 km/h
637 03-05-2009 07:17:24 10.1 C 7.38 g/m*3 10.1 C 0 km/h
638 03-05-2009 07:29:24 9.9 C 7.38 g/m*3 9.9 C 0 km/h
639 03-05-2009 07:41:24 9.9 C 7.47 g/m*3 9.9 C 0 km/h
640 03-05-2009 07:53:24 10.3 C 7.47 g/m*3 10.3 C 0 km/h
641 03-05-2009 08:05:21 10.6 C 7.52 g/m*3 10.6 C 0 km/h
642 03-05-2009 08:17:20 11.1 C 7.55 g/m*3 11.1 C 0 km/h
643 03-05-2009 08:29:20 11.5 C 7.54 g/m*3 11.5 C 0 km/h
644 03-05-2009 08:41:20 11.6 C 7.59 g/m*3 11.6 C 0 km/h
645 03-05-2009 08:53:21 12 C 7.57 g/m*3 12 C 0 km/h
646 03-05-2009 09:05:20 12.2 C 7.66 g/m*3 12.2 C 0 km/h
647 03-05-2009 09:17:20 12.9 C 7.89 g/m*3 12.9 C 0 km/h
648 03-05-2009 09:29:20 13.1 C 7.76 g/m*3 13.1 C 0 km/h
649 03-05-2009 09:41:21 13.7 C 7.93 g/m*3 13.7 C 0 km/h
650 03-05-2009 09:53:20 14.1 C 8.01 g/m*3 14.1 C 0 km/h
Sensor: Nr:Datum:Temp:Abs-Feuchte:Windchill:Wind:
Aussen-T/F 651 03-05-2009 10:05:20 14.6 C 8.01 g/m*3 14.6 C 0 km/h
652 03-05-2009 10:17:20 14.9 C 8.03 g/m*3 14.9 C 0 km/h
653 03-05-2009 10:29:20 15.4 C 8.15 g/m*3 15.4 C 0 km/h
654 03-05-2009 10:41:20 16.8 C 8.44 g/m*3 16.8 C 0 km/h
655 03-05-2009 10:53:19 17.3 C 8.1 g/m*3 17.3 C 0 km/h
656 03-05-2009 11:05:20 17.5 C 8.05 g/m*3 17.5 C 0 km/h
657 03-05-2009 11:17:19 17.8 C 8.04 g/m*3 17.8 C 0 km/h
658 03-05-2009 11:29:19 18.4 C 8.02 g/m*3 18.4 C 0 km/h
659 03-05-2009 11:41:19 18.9 C 7.78 g/m*3 18.9 C 0 km/h
660 03-05-2009 11:53:18 19 C 7.99 g/m*3 19 C 0 km/h
661 03-05-2009 12:05:19 19.4 C 7.67 g/m*3 19.4 C 0 km/h
662 03-05-2009 12:17:19 19.9 C 7.56 g/m*3 19.9 C 0 km/h
663 03-05-2009 12:29:19 20.2 C 7.52 g/m*3 20.2 C 0 km/h
664 03-05-2009 12:41:18 20.7 C 7.56 g/m*3 20.7 C 0 km/h
665 03-05-2009 12:53:19 21.4 C 7.5 g/m*3 21.4 C 0 km/h
666 03-05-2009 13:05:18 22.5 C 7.59 g/m*3 22.5 C 0 km/h
667 03-05-2009 13:17:18 23.3 C 7.32 g/m*3 23.3 C 0 km/h
668 03-05-2009 13:29:18 21.7 C 7.44 g/m*3 21.7 C 0 km/h
669 03-05-2009 13:41:18 22.2 C 7.66 g/m*3 22.2 C 0 km/h
670 03-05-2009 13:53:18 21.1 C 7.74 g/m*3 21.1 C 0 km/h
671 03-05-2009 14:05:18 20.6 C 8.23 g/m*3 20.6 C 0 km/h
672 03-05-2009 14:17:17 19.8 C 8.03 g/m*3 19.8 C 0 km/h
673 03-05-2009 14:29:17 16.8 C 9.44 g/m*3 16.8 C 0 km/h
674 03-05-2009 14:41:18 17.3 C 9.72 g/m*3 17.3 C 0 km/h
675 03-05-2009 14:53:17 18.3 C 8.29 g/m*3 18.3 C 0 km/h
Sensor: Nr:Datum:Temp:Abs-Feuchte:Windchill:Wind:
Aussen-T/F 676 03-05-2009 15:05:17 19 C 8.15 g/m*3 19 C 0 km/h
677 03-05-2009 15:17:17 18.8 C 7.57 g/m*3 18.8 C 0 km/h
678 03-05-2009 15:29:17 20.6 C 7.87 g/m*3 20.6 C 0 km/h
679 03-05-2009 15:41:17 20.9 C 7.47 g/m*3 20.9 C 0 km/h
680 03-05-2009 15:53:17 20.4 C 7.25 g/m*3 20.4 C 0 km/h
681 03-05-2009 16:05:02 21.5 C 7.35 g/m*3 21.5 C 0 km/h
682 03-05-2009 16:17:02 19.9 C 6.53 g/m*3 19.9 C 0 km/h
683 03-05-2009 16:29:02 17.1 C 5.68 g/m*3 17.1 C 0 km/h
684 03-05-2009 16:41:02 16.9 C 5.9 g/m*3 16.9 C 0 km/h
685 03-05-2009 16:53:02 16.1 C 5.76 g/m*3 16.1 C 0 km/h
686 03-05-2009 17:05:01 16.2 C 5.79 g/m*3 16.2 C 0 km/h
687 03-05-2009 17:17:02 16.1 C 5.76 g/m*3 16.1 C 0 km/h
688 03-05-2009 17:29:02 16.4 C 6.28 g/m*3 16.4 C 0 km/h
689 03-05-2009 17:41:01 16.4 C 6.28 g/m*3 16.4 C 0 km/h
690 03-05-2009 17:53:01 16.3 C 5.83 g/m*3 16.3 C 0 km/h
691 03-05-2009 18:05:01 16.6 C 5.93 g/m*3 16.6 C 0 km/h
692 03-05-2009 18:17:01 16.6 C 5.51 g/m*3 16.6 C 0 km/h
693 03-05-2009 18:29:01 17.1 C 5.24 g/m*3 17.1 C 0 km/h
694 03-05-2009 18:41:01 16.5 C 5.34 g/m*3 16.5 C 0 km/h
695 03-05-2009 18:53:01 16.5 C 5.34 g/m*3 16.5 C 0 km/h
696 03-05-2009 19:05:01 17.3 C 5.45 g/m*3 17.3 C 0 km/h
697 03-05-2009 19:17:00 16.4 C 5.44 g/m*3 16.4 C 0 km/h
698 03-05-2009 19:29:00 16.1 C 5.62 g/m*3 16.1 C 0 km/h
699 03-05-2009 19:41:00 16.8 C 5.72 g/m*3 16.8 C 0 km/h
700 03-05-2009 19:53:00 16.8 C 5.72 g/m*3 16.8 C 0 km/h
Sensor: Nr:Datum:Temp:Abs-Feuchte:Windchill:Wind:
Aussen-T/F 701 03-05-2009 20:05:00 16.1 C 5.35 g/m*3 16.1 C 0 km/h
702 03-05-2009 20:17:59 15.4 C 5.39 g/m*3 15.4 C 0 km/h
703 03-05-2009 20:29:59 14.8 C 5.7 g/m*3 14.8 C 0 km/h
704 03-05-2009 20:41:00 14.5 C 5.72 g/m*3 14.5 C 0 km/h
705 03-05-2009 20:53:59 14.5 C 5.85 g/m*3 14.5 C 0 km/h
706 03-05-2009 21:05:59 14.4 C 5.93 g/m*3 14.4 C 0 km/h
707 03-05-2009 21:17:59 14.2 C 5.74 g/m*3 14.2 C 0 km/h
708 03-05-2009 21:29:59 14 C 5.79 g/m*3 14 C 0 km/h
709 03-05-2009 21:41:59 13.6 C 5.77 g/m*3 13.6 C 0 km/h
710 03-05-2009 21:53:58 13.5 C 5.61 g/m*3 13.5 C 0 km/h
711 03-05-2009 22:05:59 13.1 C 5.36 g/m*3 13.1 C 0 km/h
712 03-05-2009 22:17:59 12.9 C 5.3 g/m*3 12.9 C 0 km/h
713 03-05-2009 22:29:59 12.7 C 5.12 g/m*3 12.7 C 0 km/h
714 03-05-2009 22:41:58 12.5 C 5.06 g/m*3 12.5 C 0 km/h
715 03-05-2009 22:53:59 12.3 C 5.1 g/m*3 12.3 C 0 km/h
716 03-05-2009 23:05:58 12.2 C 5.07 g/m*3 12.2 C 0 km/h
717 03-05-2009 23:17:58 12.1 C 5.15 g/m*3 12.1 C 0 km/h
718 03-05-2009 23:29:58 11.8 C 5.16 g/m*3 11.8 C 0 km/h
719 03-05-2009 23:41:58 11.7 C 5.23 g/m*3 11.7 C 0 km/h
720 03-05-2009 23:53:58 11.8 C 5.37 g/m*3 11.8 C 0 km/h
721 04-05-2009 00:06:59 11.8 C 5.47 g/m*3 11.8 C 0 km/h
722 04-05-2009 00:18:59 11.5 C 5.47 g/m*3 11.5 C 0 km/h
723 04-05-2009 00:30:59 11.5 C 5.47 g/m*3 11.5 C 0 km/h
724 04-05-2009 00:42:59 11.2 C 5.37 g/m*3 11.2 C 0 km/h
725 04-05-2009 00:54:59 11 C 5.1 g/m*3 11 C 0 km/h
Sensor: Nr:Datum:Temp:Abs-Feuchte:Windchill:Wind:
Aussen-T/F 726 04-05-2009 01:06:59 10.7 C 5.11 g/m*3 10.7 C 0 km/h
727 04-05-2009 01:18:59 10.6 C 5.17 g/m*3 10.6 C 0 km/h
728 04-05-2009 01:30:59 10.5 C 4.95 g/m*3 10.5 C 0 km/h
729 04-05-2009 01:42:59 10.4 C 4.72 g/m*3 10.4 C 0 km/h
730 04-05-2009 01:54:59 10.2 C 4.66 g/m*3 10.2 C 0 km/h
731 04-05-2009 02:06:59 10 C 4.51 g/m*3 10 C 0 km/h
732 04-05-2009 02:18:59 9.8 C 4.55 g/m*3 9.8 C 0 km/h
733 04-05-2009 02:30:59 9.7 C 4.61 g/m*3 9.7 C 0 km/h
734 04-05-2009 02:42:59 9.3 C 4.49 g/m*3 9.3 C 0 km/h
735 04-05-2009 03:05:59 8.9 C 4.56 g/m*3 8.9 C 0 km/h
736 04-05-2009 03:17:59 8.6 C 4.55 g/m*3 8.6 C 0 km/h
737 04-05-2009 03:30:00 8.5 C 4.61 g/m*3 8.5 C 0 km/h
738 04-05-2009 03:42:00 8.3 C 4.64 g/m*3 8.3 C 0 km/h
739 04-05-2009 03:54:00 8.2 C 4.69 g/m*3 8.2 C 0 km/h
740 04-05-2009 04:06:00 8.2 C 4.69 g/m*3 8.2 C 0 km/h
741 04-05-2009 04:18:00 7.9 C 4.68 g/m*3 7.9 C 0 km/h
742 04-05-2009 04:30:00 7.8 C 4.82 g/m*3 7.8 C 0 km/h
743 04-05-2009 04:42:00 7.5 C 4.8 g/m*3 7.5 C 0 km/h
744 04-05-2009 04:54:00 7.2 C 4.79 g/m*3 7.2 C 0 km/h
745 04-05-2009 05:06:00 7 C 4.88 g/m*3 7 C 0 km/h
746 04-05-2009 05:18:00 6.9 C 4.93 g/m*3 6.9 C 0 km/h
747 04-05-2009 05:30:00 6.8 C 5.05 g/m*3 6.8 C 0 km/h
748 04-05-2009 05:42:00 7 C 4.96 g/m*3 7 C 0 km/h
749 04-05-2009 05:54:00 7.3 C 5.06 g/m*3 7.3 C 0 km/h
750 04-05-2009 06:06:00 7.4 C 5.01 g/m*3 7.4 C 0 km/h
Sensor: Nr:Datum:Temp:Abs-Feuchte:Windchill:Wind:
Aussen-T/F 751 04-05-2009 06:18:00 7.1 C 4.99 g/m*3 7.1 C 0 km/h
752 04-05-2009 06:30:00 6.9 C 5.16 g/m*3 6.9 C 0 km/h
753 04-05-2009 06:42:00 6.7 C 5.17 g/m*3 6.7 C 0 km/h
754 04-05-2009 06:54:00 6.5 C 5.17 g/m*3 6.5 C 0 km/h
755 04-05-2009 07:06:00 6.4 C 5.22 g/m*3 6.4 C 0 km/h
756 04-05-2009 07:18:00 7.1 C 5.46 g/m*3 7.1 C 0 km/h
757 04-05-2009 07:30:00 7.1 C 5.38 g/m*3 7.1 C 0 km/h
758 04-05-2009 07:30:58 7 C 5.27 g/m*3 7 C 0 km/h
759 04-05-2009 07:42:58 7.1 C 5.3 g/m*3 7.1 C 0 km/h
760 04-05-2009 07:54:58 8.1 C 5.41 g/m*3 8.1 C 0 km/h
761 04-05-2009 08:06:57 7.9 C 5.42 g/m*3 7.9 C 0 km/h
762 04-05-2009 08:18:58 7.8 C 5.47 g/m*3 7.8 C 0 km/h
763 04-05-2009 08:30:58 7.9 C 5.5 g/m*3 7.9 C 0 km/h
764 04-05-2009 08:42:58 8 C 5.37 g/m*3 8 C 0 km/h
765 04-05-2009 08:54:57 8.1 C 5.41 g/m*3 8.1 C 0 km/h
766 04-05-2009 09:06:57 8.3 C 5.31 g/m*3 8.3 C 0 km/h
767 04-05-2009 09:18:58 8.6 C 5.07 g/m*3 8.6 C 0 km/h
768 04-05-2009 09:30:57 9 C 5.2 g/m*3 9 C 0 km/h
769 04-05-2009 09:42:57 9.6 C 5.04 g/m*3 9.6 C 0 km/h
770 04-05-2009 09:54:57 9.3 C 4.76 g/m*3 9.3 C 0 km/h
771 04-05-2009 10:06:57 9.7 C 4.98 g/m*3 9.7 C 0 km/h
772 04-05-2009 10:18:57 10.8 C 4.65 g/m*3 10.8 C 0 km/h
773 04-05-2009 10:30:56 10.9 C 4.48 g/m*3 10.9 C 0 km/h
774 04-05-2009 10:42:56 10.8 C 4.55 g/m*3 10.8 C 0 km/h
775 04-05-2009 10:54:56 10.3 C 4.12 g/m*3 10.3 C 0 km/h
Sensor: Nr:Datum:Temp:Abs-Feuchte:Windchill:Wind:
Aussen-T/F 776 04-05-2009 11:06:56 11.3 C 4.49 g/m*3 11.3 C 0 km/h
777 04-05-2009 11:18:56 11.9 C 4.45 g/m*3 11.9 C 0 km/h
778 04-05-2009 11:30:56 13.4 C 4.42 g/m*3 13.4 C 0 km/h
779 04-05-2009 11:42:56 11.7 C 3.97 g/m*3 11.7 C 0 km/h
780 04-05-2009 11:54:56 12.4 C 3.93 g/m*3 12.4 C 0 km/h
781 04-05-2009 12:06:56 12.6 C 3.98 g/m*3 12.6 C 0 km/h
782 04-05-2009 12:18:55 13.2 C 4.02 g/m*3 13.2 C 0 km/h
783 04-05-2009 12:30:55 13.8 C 4.05 g/m*3 13.8 C 0 km/h
784 04-05-2009 12:42:55 14 C 3.62 g/m*3 14 C 0 km/h
785 04-05-2009 12:54:55 14 C 3.74 g/m*3 14 C 0 km/h
786 04-05-2009 13:06:55 14.6 C 3.5 g/m*3 14.6 C 0 km/h
787 04-05-2009 13:18:54 15.4 C 3.28 g/m*3 15.4 C 0 km/h
788 04-05-2009 13:30:55 15.6 C 3.46 g/m*3 15.6 C 0 km/h
789 04-05-2009 13:42:55 15.4 C 3.28 g/m*3 15.4 C 0 km/h
790 04-05-2009 13:54:54 16.2 C 2.9 g/m*3 16.2 C 0 km/h
791 04-05-2009 14:06:54 15.5 C 2.64 g/m*3 15.5 C 0 km/h
792 04-05-2009 14:18:55 15.9 C 3.25 g/m*3 15.9 C 0 km/h
793 04-05-2009 14:30:54 15.6 C 2.66 g/m*3 15.6 C 0 km/h
794 04-05-2009 14:42:54 16.8 C 3 g/m*3 16.8 C 0 km/h
795 04-05-2009 14:54:54 16.8 C 2.86 g/m*3 16.8 C 0 km/h
796 04-05-2009 15:06:54 15 C 2.56 g/m*3 15 C 0 km/h
797 04-05-2009 15:18:54 14.6 C 3.25 g/m*3 14.6 C 0 km/h
798 04-05-2009 15:30:54 16.2 C 3.31 g/m*3 16.2 C 0 km/h
799 04-05-2009 15:42:54 17.1 C 2.91 g/m*3 17.1 C 0 km/h
800 04-05-2009 15:54:54 15.2 C 2.86 g/m*3 15.2 C 0 km/h
Sensor: Nr:Datum:Temp:Abs-Feuchte:Windchill:Wind:
Aussen-T/F 801 04-05-2009 16:06:54 15.8 C 2.96 g/m*3 15.8 C 0 km/h
802 04-05-2009 16:18:53 16.8 C 3.15 g/m*3 16.8 C 0 km/h
803 04-05-2009 16:30:53 16.6 C 2.83 g/m*3 16.6 C 0 km/h
804 04-05-2009 16:42:53 15.8 C 2.96 g/m*3 15.8 C 0 km/h
805 04-05-2009 16:54:53 16.2 C 3.17 g/m*3 16.2 C 0 km/h
806 04-05-2009 17:06:53 15 C 3.08 g/m*3 15 C 0 km/h
807 04-05-2009 17:18:52 17 C 2.89 g/m*3 17 C 0 km/h
808 04-05-2009 17:30:53 16 C 2.72 g/m*3 16 C 0 km/h
809 04-05-2009 17:42:53 15.4 C 3.02 g/m*3 15.4 C 0 km/h
810 04-05-2009 17:54:53 16 C 3.13 g/m*3 16 C 0 km/h
811 04-05-2009 18:06:52 16.4 C 3.07 g/m*3 16.4 C 0 km/h
812 04-05-2009 18:18:52 17.3 C 2.95 g/m*3 17.3 C 0 km/h
813 04-05-2009 18:30:51 17.5 C 2.98 g/m*3 17.5 C 0 km/h
814 04-05-2009 18:42:51 18.7 C 3.2 g/m*3 18.7 C 0 km/h
815 04-05-2009 18:54:52 18 C 3.07 g/m*3 18 C 0 km/h
816 04-05-2009 19:06:51 18.1 C 3.09 g/m*3 18.1 C 0 km/h
817 04-05-2009 19:18:51 18.9 C 3.24 g/m*3 18.9 C 0 km/h
818 04-05-2009 19:30:52 17.9 C 3.05 g/m*3 17.9 C 0 km/h
819 04-05-2009 19:42:52 17.7 C 3.02 g/m*3 17.7 C 0 km/h
820 04-05-2009 19:54:51 16.1 C 3.56 g/m*3 16.1 C 0 km/h
821 04-05-2009 20:06:51 14.8 C 3.8 g/m*3 14.8 C 0 km/h
822 04-05-2009 20:18:51 13.8 C 3.93 g/m*3 13.8 C 0 km/h
823 04-05-2009 20:30:51 12.8 C 3.92 g/m*3 12.8 C 0 km/h
824 04-05-2009 20:42:52 12.6 C 3.98 g/m*3 12.6 C 0 km/h
825 04-05-2009 20:54:50 12.7 C 4.01 g/m*3 12.7 C 0 km/h
Sensor: Nr:Datum:Temp:Abs-Feuchte:Windchill:Wind:
Aussen-T/F 826 04-05-2009 21:06:51 12.8 C 4.03 g/m*3 12.8 C 0 km/h
827 04-05-2009 21:18:50 12.8 C 4.03 g/m*3 12.8 C 0 km/h
828 04-05-2009 21:30:50 12.8 C 4.14 g/m*3 12.8 C 0 km/h
829 04-05-2009 21:42:50 12.7 C 4.34 g/m*3 12.7 C 0 km/h
830 04-05-2009 21:54:50 12.3 C 4.34 g/m*3 12.3 C 0 km/h
831 04-05-2009 22:07:51 12.1 C 4.61 g/m*3 12.1 C 0 km/h
832 04-05-2009 22:19:51 11.9 C 4.77 g/m*3 11.9 C 0 km/h
833 04-05-2009 22:31:51 11.7 C 4.71 g/m*3 11.7 C 0 km/h
834 04-05-2009 22:43:51 11.8 C 4.74 g/m*3 11.8 C 0 km/h
835 04-05-2009 22:55:52 11.8 C 4.63 g/m*3 11.8 C 0 km/h
836 04-05-2009 23:07:52 11.7 C 4.81 g/m*3 11.7 C 0 km/h
837 04-05-2009 23:19:52 11.5 C 4.85 g/m*3 11.5 C 0 km/h
838 04-05-2009 23:31:52 11.4 C 4.72 g/m*3 11.4 C 0 km/h
839 04-05-2009 23:43:52 11.1 C 4.73 g/m*3 11.1 C 0 km/h
840 04-05-2009 23:55:52 10.8 C 4.74 g/m*3 10.8 C 0 km/h
841 05-05-2009 00:07:52 10.5 C 4.66 g/m*3 10.5 C 0 km/h
842 05-05-2009 00:19:52 10 C 4.6 g/m*3 10 C 0 km/h
843 05-05-2009 00:31:52 9.6 C 4.67 g/m*3 9.6 C 0 km/h
844 05-05-2009 00:43:52 9.3 C 4.67 g/m*3 9.3 C 0 km/h
845 05-05-2009 00:55:52 9.1 C 4.79 g/m*3 9.1 C 0 km/h
846 05-05-2009 01:07:52 8.9 C 4.73 g/m*3 8.9 C 0 km/h
847 05-05-2009 01:19:52 8.7 C 4.93 g/m*3 8.7 C 0 km/h
848 05-05-2009 01:31:52 8.4 C 5.01 g/m*3 8.4 C 0 km/h
849 05-05-2009 01:43:52 8.1 C 4.99 g/m*3 8.1 C 0 km/h
850 05-05-2009 01:55:52 8 C 4.96 g/m*3 8 C 0 km/h
Sensor: Nr:Datum:Temp:Abs-Feuchte:Windchill:Wind:
Aussen-T/F 851 05-05-2009 02:07:52 8.2 C 5.19 g/m*3 8.2 C 0 km/h
852 05-05-2009 02:19:52 8.2 C 5.28 g/m*3 8.2 C 0 km/h
853 05-05-2009 02:31:52 8.2 C 5.28 g/m*3 8.2 C 0 km/h
854 05-05-2009 02:43:52 8.2 C 5.28 g/m*3 8.2 C 0 km/h
855 05-05-2009 02:55:53 8.2 C 5.28 g/m*3 8.2 C 0 km/h
856 05-05-2009 03:07:53 7.9 C 5.42 g/m*3 7.9 C 0 km/h
857 05-05-2009 03:19:53 7.9 C 5.42 g/m*3 7.9 C 0 km/h
858 05-05-2009 03:31:53 7.8 C 5.39 g/m*3 7.8 C 0 km/h
859 05-05-2009 03:43:53 7.9 C 5.26 g/m*3 7.9 C 0 km/h
860 05-05-2009 03:55:53 7.9 C 5.17 g/m*3 7.9 C 0 km/h
861 05-05-2009 04:07:53 8 C 4.96 g/m*3 8 C 0 km/h
862 05-05-2009 04:19:53 7.9 C 5.09 g/m*3 7.9 C 0 km/h
863 05-05-2009 04:31:53 7.8 C 5.22 g/m*3 7.8 C 0 km/h
864 05-05-2009 04:43:53 7.9 C 5.17 g/m*3 7.9 C 0 km/h
865 05-05-2009 04:55:53 7.9 C 5.17 g/m*3 7.9 C 0 km/h
866 05-05-2009 05:07:53 7.9 C 5.34 g/m*3 7.9 C 0 km/h
867 05-05-2009 05:19:53 7.8 C 5.39 g/m*3 7.8 C 0 km/h
868 05-05-2009 05:31:53 7.8 C 5.47 g/m*3 7.8 C 0 km/h
869 05-05-2009 05:43:53 7.7 C 5.43 g/m*3 7.7 C 0 km/h
870 05-05-2009 05:55:53 7.9 C 5.42 g/m*3 7.9 C 0 km/h
871 05-05-2009 06:07:53 8 C 5.29 g/m*3 8 C 0 km/h
872 05-05-2009 06:19:53 8 C 5.29 g/m*3 8 C 0 km/h
873 05-05-2009 06:31:53 8.1 C 5.33 g/m*3 8.1 C 0 km/h
874 05-05-2009 06:43:53 8.2 C 5.36 g/m*3 8.2 C 0 km/h
875 05-05-2009 06:55:54 8.3 C 5.39 g/m*3 8.3 C 0 km/h
Sensor: Nr:Datum:Temp:Abs-Feuchte:Windchill:Wind:
Aussen-T/F 876 05-05-2009 07:07:54 8.5 C 5.46 g/m*3 8.5 C 0 km/h
877 05-05-2009 07:19:54 8.6 C 5.41 g/m*3 8.6 C 0 km/h
878 05-05-2009 07:31:54 8.9 C 5.43 g/m*3 8.9 C 0 km/h
879 05-05-2009 07:43:54 9.2 C 5.36 g/m*3 9.2 C 0 km/h
880 05-05-2009 07:55:54 9.4 C 5.43 g/m*3 9.4 C 0 km/h
881 05-05-2009 08:07:54 9.5 C 5.28 g/m*3 9.5 C 0 km/h
882 05-05-2009 08:19:54 9.6 C 5.13 g/m*3 9.6 C 0 km/h
883 05-05-2009 08:31:54 9.8 C 5.1 g/m*3 9.8 C 0 km/h
884 05-05-2009 08:43:54 9.9 C 5.14 g/m*3 9.9 C 0 km/h
885 05-05-2009 08:55:50 10.4 C 5.3 g/m*3 10.4 C 0 km/h
886 05-05-2009 09:07:50 10.5 C 5.14 g/m*3 10.5 C 0 km/h
887 05-05-2009 09:19:50 10.4 C 5.3 g/m*3 10.4 C 0 km/h
888 05-05-2009 09:31:50 10.6 C 5.56 g/m*3 10.6 C 0 km/h
889 05-05-2009 09:43:50 10.8 C 5.54 g/m*3 10.8 C 0 km/h
890 05-05-2009 09:55:49 11 C 5.51 g/m*3 11 C 0 km/h
891 05-05-2009 10:07:50 11.2 C 5.57 g/m*3 11.2 C 0 km/h
892 05-05-2009 10:19:50 11.3 C 5.51 g/m*3 11.3 C 0 km/h
893 05-05-2009 10:31:49 11.4 C 5.44 g/m*3 11.4 C 0 km/h
894 05-05-2009 10:43:49 12 C 5.44 g/m*3 12 C 0 km/h
895 05-05-2009 10:55:50 12 C 5.44 g/m*3 12 C 0 km/h
896 05-05-2009 11:07:49 12.4 C 5.57 g/m*3 12.4 C 0 km/h
897 05-05-2009 11:19:49 12.6 C 5.64 g/m*3 12.6 C 0 km/h
898 05-05-2009 11:31:48 12.7 C 5.9 g/m*3 12.7 C 0 km/h
899 05-05-2009 11:43:48 12.7 C 6.01 g/m*3 12.7 C 0 km/h
900 05-05-2009 11:55:49 12.8 C 6.27 g/m*3 12.8 C 0 km/h
Sensor: Nr:Datum:Temp:Abs-Feuchte:Windchill:Wind:
Aussen-T/F 901 05-05-2009 12:07:48 12.7 C 6.12 g/m*3 12.7 C 0 km/h
902 05-05-2009 12:19:48 12.9 C 6.42 g/m*3 12.9 C 0 km/h
903 05-05-2009 12:31:49 12.5 C 6.49 g/m*3 12.5 C 0 km/h
904 05-05-2009 12:43:49 12.4 C 6.66 g/m*3 12.4 C 0 km/h
905 05-05-2009 12:55:48 11.8 C 6.84 g/m*3 11.8 C 0 km/h
906 05-05-2009 13:07:48 11.8 C 6.95 g/m*3 11.8 C 0 km/h
907 05-05-2009 13:19:48 11.8 C 6.74 g/m*3 11.8 C 0 km/h
908 05-05-2009 13:31:48 12 C 6.5 g/m*3 12 C 0 km/h
909 05-05-2009 13:43:48 12.1 C 6.54 g/m*3 12.1 C 0 km/h
910 05-05-2009 13:55:47 12.6 C 6.64 g/m*3 12.6 C 0 km/h
911 05-05-2009 14:07:48 12.8 C 6.61 g/m*3 12.8 C 0 km/h
912 05-05-2009 14:19:47 12.5 C 6.6 g/m*3 12.5 C 0 km/h
913 05-05-2009 14:31:47 12.3 C 6.62 g/m*3 12.3 C 0 km/h
914 05-05-2009 14:43:47 12.4 C 6.77 g/m*3 12.4 C 0 km/h
915 05-05-2009 14:55:47 13.1 C 6.73 g/m*3 13.1 C 0 km/h
916 05-05-2009 15:07:47 13.4 C 6.74 g/m*3 13.4 C 0 km/h
917 05-05-2009 15:19:47 13.4 C 6.74 g/m*3 13.4 C 0 km/h
918 05-05-2009 15:31:46 13.1 C 6.85 g/m*3 13.1 C 0 km/h
919 05-05-2009 15:43:46 12.2 C 7.34 g/m*3 12.2 C 0 km/h
920 05-05-2009 15:55:47 11.6 C 7.8 g/m*3 11.6 C 0 km/h
921 05-05-2009 16:07:46 11.2 C 7.91 g/m*3 11.2 C 0 km/h
922 05-05-2009 16:19:46 11.2 C 8.11 g/m*3 11.2 C 0 km/h
923 05-05-2009 16:31:46 11.5 C 8.37 g/m*3 11.5 C 0 km/h
924 05-05-2009 16:43:46 11.7 C 8.26 g/m*3 11.7 C 0 km/h
925 05-05-2009 16:55:46 11.8 C 8.31 g/m*3 11.8 C 0 km/h
Sensor: Nr:Datum:Temp:Abs-Feuchte:Windchill:Wind:
Aussen-T/F 926 05-05-2009 17:07:45 11.6 C 8.21 g/m*3 11.6 C 0 km/h
927 05-05-2009 17:19:46 11.7 C 8.37 g/m*3 11.7 C 0 km/h
928 05-05-2009 17:31:46 11.8 C 8.31 g/m*3 11.8 C 0 km/h
929 05-05-2009 17:43:46 12 C 8.42 g/m*3 12 C 0 km/h
930 05-05-2009 17:55:45 11.8 C 8.42 g/m*3 11.8 C 0 km/h
931 05-05-2009 18:07:44 11.6 C 8.52 g/m*3 11.6 C 0 km/h
932 05-05-2009 18:19:45 11.5 C 8.57 g/m*3 11.5 C 0 km/h
933 05-05-2009 18:31:45 11.3 C 8.57 g/m*3 11.3 C 0 km/h
934 05-05-2009 18:43:45 11.2 C 8.72 g/m*3 11.2 C 0 km/h
935 05-05-2009 18:55:45 11.2 C 8.72 g/m*3 11.2 C 0 km/h
936 05-05-2009 19:07:45 11.2 C 8.82 g/m*3 11.2 C 0 km/h
937 05-05-2009 19:19:44 11.2 C 8.92 g/m*3 11.2 C 0 km/h
938 05-05-2009 19:31:44 11.2 C 8.92 g/m*3 11.2 C 0 km/h
939 05-05-2009 19:43:44 11.1 C 8.96 g/m*3 11.1 C 0 km/h
940 05-05-2009 19:55:44 11.1 C 8.96 g/m*3 11.1 C 0 km/h
941 05-05-2009 20:07:44 11.1 C 9.07 g/m*3 11.1 C 0 km/h
942 05-05-2009 20:19:43 11 C 9.01 g/m*3 11 C 0 km/h
943 05-05-2009 20:31:44 11.1 C 9.07 g/m*3 11.1 C 0 km/h
944 05-05-2009 20:43:44 11.1 C 9.17 g/m*3 11.1 C 0 km/h
945 05-05-2009 20:55:43 11 C 9.11 g/m*3 11 C 0 km/h
946 05-05-2009 21:07:43 11.1 C 9.17 g/m*3 11.1 C 0 km/h
947 05-05-2009 21:19:43 11.1 C 9.27 g/m*3 11.1 C 0 km/h
948 05-05-2009 21:31:43 11.2 C 9.33 g/m*3 11.2 C 0 km/h
949 05-05-2009 21:43:43 11.2 C 9.33 g/m*3 11.2 C 0 km/h
950 05-05-2009 21:55:43 11.2 C 9.33 g/m*3 11.2 C 0 km/h
Sensor: Nr:Datum:Temp:Abs-Feuchte:Windchill:Wind:
Aussen-T/F 951 05-05-2009 22:07:42 11.2 C 9.33 g/m*3 11.2 C 0 km/h
952 05-05-2009 22:19:43 11.2 C 9.33 g/m*3 11.2 C 0 km/h
953 05-05-2009 22:31:43 11.3 C 9.38 g/m*3 11.3 C 0 km/h
954 05-05-2009 22:43:43 11.4 C 9.44 g/m*3 11.4 C 0 km/h
955 05-05-2009 22:55:42 11.3 C 9.38 g/m*3 11.3 C 0 km/h
956 05-05-2009 23:07:43 11.4 C 9.44 g/m*3 11.4 C 0 km/h
957 05-05-2009 23:19:42 11.4 C 9.44 g/m*3 11.4 C 0 km/h
958 05-05-2009 23:32:43 11.4 C 9.44 g/m*3 11.4 C 0 km/h
959 05-05-2009 23:44:43 11.3 C 9.38 g/m*3 11.3 C 0 km/h
960 05-05-2009 23:56:43 11.4 C 9.44 g/m*3 11.4 C 0 km/h
961 06-05-2009 00:08:43 11.8 C 9.58 g/m*3 11.8 C 0 km/h
962 06-05-2009 00:20:43 11.9 C 9.43 g/m*3 11.9 C 0 km/h
963 06-05-2009 00:32:43 12 C 9.27 g/m*3 12 C 0 km/h
964 06-05-2009 00:44:43 12 C 9.06 g/m*3 12 C 0 km/h
965 06-05-2009 00:56:43 12.1 C 9.01 g/m*3 12.1 C 0 km/h
966 06-05-2009 01:08:43 12.2 C 8.96 g/m*3 12.2 C 0 km/h
967 06-05-2009 01:20:43 12.2 C 8.85 g/m*3 12.2 C 0 km/h
968 06-05-2009 01:32:44 12.1 C 8.79 g/m*3 12.1 C 0 km/h
969 06-05-2009 01:44:44 12.1 C 8.79 g/m*3 12.1 C 0 km/h
970 06-05-2009 01:56:44 12.1 C 8.79 g/m*3 12.1 C 0 km/h
971 06-05-2009 02:08:44 12.3 C 8.8 g/m*3 12.3 C 0 km/h
972 06-05-2009 02:20:44 12.4 C 8.74 g/m*3 12.4 C 0 km/h
973 06-05-2009 02:32:44 12.4 C 8.74 g/m*3 12.4 C 0 km/h
974 06-05-2009 02:44:44 12.4 C 8.63 g/m*3 12.4 C 0 km/h
975 06-05-2009 02:56:44 12.4 C 8.63 g/m*3 12.4 C 0 km/h
Sensor: Nr:Datum:Temp:Abs-Feuchte:Windchill:Wind:
Aussen-T/F 976 06-05-2009 03:08:44 12.2 C 8.63 g/m*3 12.2 C 0 km/h
977 06-05-2009 03:20:44 12.2 C 8.52 g/m*3 12.2 C 0 km/h
978 06-05-2009 03:32:44 12.4 C 8.3 g/m*3 12.4 C 0 km/h
979 06-05-2009 03:44:44 12.4 C 8.3 g/m*3 12.4 C 0 km/h
980 06-05-2009 03:56:44 12.4 C 8.3 g/m*3 12.4 C 0 km/h
981 06-05-2009 04:08:44 12.4 C 8.09 g/m*3 12.4 C 0 km/h
982 06-05-2009 04:20:44 12.4 C 7.98 g/m*3 12.4 C 0 km/h
983 06-05-2009 04:32:44 12.2 C 7.99 g/m*3 12.2 C 0 km/h
984 06-05-2009 04:44:44 12 C 7.99 g/m*3 12 C 0 km/h
985 06-05-2009 04:56:44 12 C 7.99 g/m*3 12 C 0 km/h
986 06-05-2009 05:08:44 12 C 7.78 g/m*3 12 C 0 km/h
987 06-05-2009 05:20:44 12 C 7.57 g/m*3 12 C 0 km/h
988 06-05-2009 05:32:45 11.9 C 7.41 g/m*3 11.9 C 0 km/h
989 06-05-2009 05:44:45 11.8 C 7.26 g/m*3 11.8 C 0 km/h
990 06-05-2009 05:56:45 11.8 C 7.05 g/m*3 11.8 C 0 km/h
991 06-05-2009 06:08:45 11.8 C 6.95 g/m*3 11.8 C 0 km/h
992 06-05-2009 06:20:45 11.8 C 7.05 g/m*3 11.8 C 0 km/h
993 06-05-2009 06:32:45 11.8 C 7.05 g/m*3 11.8 C 0 km/h
994 06-05-2009 06:44:45 11.8 C 7.16 g/m*3 11.8 C 0 km/h
995 06-05-2009 06:56:45 11.8 C 7.16 g/m*3 11.8 C 0 km/h
996 06-05-2009 07:08:45 11.8 C 6.95 g/m*3 11.8 C 0 km/h
997 06-05-2009 07:20:45 11.9 C 6.99 g/m*3 11.9 C 0 km/h
998 06-05-2009 07:32:45 12 C 6.71 g/m*3 12 C 0 km/h
999 06-05-2009 07:44:45 12.2 C 6.91 g/m*3 12.2 C 0 km/h
1000 06-05-2009 07:56:45 12.3 C 6.84 g/m*3 12.3 C 0 km/h
Sensor: Nr:Datum:Temp:Abs-Feuchte:Windchill:Wind:
Aussen-T/F 1001 06-05-2009 08:08:43 12.3 C 6.73 g/m*3 12.3 C 0 km/h
1002 06-05-2009 08:20:43 12.3 C 6.73 g/m*3 12.3 C 0 km/h
1003 06-05-2009 08:32:43 12.2 C 6.69 g/m*3 12.2 C 0 km/h
1004 06-05-2009 08:44:43 12.2 C 6.69 g/m*3 12.2 C 0 km/h
1005 06-05-2009 08:56:43 12.4 C 6.88 g/m*3 12.4 C 0 km/h
1006 06-05-2009 09:08:42 12.3 C 6.41 g/m*3 12.3 C 0 km/h
1007 06-05-2009 09:20:43 12.5 C 6.38 g/m*3 12.5 C 0 km/h
1008 06-05-2009 09:32:42 13.1 C 6.73 g/m*3 13.1 C 0 km/h
1009 06-05-2009 09:44:42 13.2 C 6.54 g/m*3 13.2 C 0 km/h
1010 06-05-2009 09:56:43 13.7 C 6.16 g/m*3 13.7 C 0 km/h
1011 06-05-2009 10:08:42 14.1 C 6.31 g/m*3 14.1 C 0 km/h
1012 06-05-2009 10:20:42 14 C 6.03 g/m*3 14 C 0 km/h
1013 06-05-2009 10:32:42 14.4 C 6.18 g/m*3 14.4 C 0 km/h
1014 06-05-2009 10:44:41 14.1 C 5.95 g/m*3 14.1 C 0 km/h
1015 06-05-2009 10:56:41 14.4 C 5.93 g/m*3 14.4 C 0 km/h
1016 06-05-2009 11:08:42 14.7 C 5.92 g/m*3 14.7 C 0 km/h
1017 06-05-2009 11:20:41 14.7 C 5.79 g/m*3 14.7 C 0 km/h
1018 06-05-2009 11:32:41 15.2 C 5.84 g/m*3 15.2 C 0 km/h
1019 06-05-2009 11:44:41 15.4 C 5.78 g/m*3 15.4 C 0 km/h
1020 06-05-2009 11:56:41 15.5 C 5.82 g/m*3 15.5 C 0 km/h
1021 06-05-2009 12:08:41 15.8 C 5.79 g/m*3 15.8 C 0 km/h
1022 06-05-2009 12:20:40 16.2 C 5.79 g/m*3 16.2 C 0 km/h
1023 06-05-2009 12:32:41 16.2 C 5.65 g/m*3 16.2 C 0 km/h
1024 06-05-2009 12:44:40 16.2 C 5.93 g/m*3 16.2 C 0 km/h
1025 06-05-2009 12:56:40 15.4 C 5.91 g/m*3 15.4 C 0 km/h
Sensor: Nr:Datum:Temp:Abs-Feuchte:Windchill:Wind:
Aussen-T/F 1026 06-05-2009 13:08:40 15.4 C 5.91 g/m*3 15.4 C 0 km/h
1027 06-05-2009 13:20:41 15.3 C 6.14 g/m*3 15.3 C 0 km/h
1028 06-05-2009 13:32:40 15.4 C 6.18 g/m*3 15.4 C 0 km/h
1029 06-05-2009 13:44:40 15.6 C 6.25 g/m*3 15.6 C 0 km/h
1030 06-05-2009 13:56:40 15.9 C 6.23 g/m*3 15.9 C 0 km/h
1031 06-05-2009 14:08:40 16 C 6.4 g/m*3 16 C 0 km/h
1032 06-05-2009 14:20:40 16 C 6.13 g/m*3 16 C 0 km/h
1033 06-05-2009 14:32:39 15.8 C 6.33 g/m*3 15.8 C 0 km/h
1034 06-05-2009 14:44:40 15.6 C 6.38 g/m*3 15.6 C 0 km/h
1035 06-05-2009 14:56:40 15.5 C 6.48 g/m*3 15.5 C 0 km/h
1036 06-05-2009 15:08:39 15.4 C 6.57 g/m*3 15.4 C 0 km/h
1037 06-05-2009 15:20:39 15.5 C 6.61 g/m*3 15.5 C 0 km/h
1038 06-05-2009 15:32:39 15.4 C 6.57 g/m*3 15.4 C 0 km/h
1039 06-05-2009 15:44:39 15.6 C 6.78 g/m*3 15.6 C 0 km/h
1040 06-05-2009 15:56:39 15.7 C 6.69 g/m*3 15.7 C 0 km/h
1041 06-05-2009 16:02:38 15.7 C 6.82 g/m*3 15.7 C 0 km/h
1042 06-05-2009 16:17:39 15.6 C 6.78 g/m*3 15.6 C 0 km/h
1043 06-05-2009 16:32:38 15.6 C 6.78 g/m*3 15.6 C 0 km/h
1044 06-05-2009 16:47:38 15.7 C 6.96 g/m*3 15.7 C 0 km/h
1045 06-05-2009 17:02:38 15.9 C 7.04 g/m*3 15.9 C 0 km/h
1046 06-05-2009 17:17:38 15.8 C 7 g/m*3 15.8 C 0 km/h
1047 06-05-2009 17:32:38 15.7 C 7.09 g/m*3 15.7 C 0 km/h
1048 06-05-2009 17:47:38 15.8 C 7.13 g/m*3 15.8 C 0 km/h
1049 06-05-2009 18:02:38 16 C 6.81 g/m*3 16 C 0 km/h
1050 06-05-2009 18:17:37 16 C 6.81 g/m*3 16 C 0 km/h
Sensor: Nr:Datum:Temp:Abs-Feuchte:Windchill:Wind:
Aussen-T/F 1051 06-05-2009 18:32:37 15.8 C 7 g/m*3 15.8 C 0 km/h
1052 06-05-2009 18:47:37 15.7 C 7.09 g/m*3 15.7 C 0 km/h
1053 06-05-2009 19:02:37 15.7 C 7.09 g/m*3 15.7 C 0 km/h
1054 06-05-2009 19:17:36 15.6 C 7.31 g/m*3 15.6 C 0 km/h
1055 06-05-2009 19:32:36 15.5 C 7.27 g/m*3 15.5 C 0 km/h
1056 06-05-2009 19:47:36 15.3 C 7.18 g/m*3 15.3 C 0 km/h
1057 06-05-2009 20:02:36 15.2 C 7.14 g/m*3 15.2 C 0 km/h
1058 06-05-2009 20:17:36 15.1 C 7.22 g/m*3 15.1 C 0 km/h
1059 06-05-2009 20:32:36 15 C 7.31 g/m*3 15 C 0 km/h
1060 06-05-2009 20:47:36 14.8 C 7.35 g/m*3 14.8 C 0 km/h
1061 06-05-2009 21:02:36 14.7 C 7.3 g/m*3 14.7 C 0 km/h
1062 06-05-2009 21:17:01 14.6 C 7.26 g/m*3 14.6 C 0 km/h
1063 06-05-2009 21:33:36 14.5 C 7.21 g/m*3 14.5 C 0 km/h
1064 06-05-2009 21:48:36 14.4 C 7.17 g/m*3 14.4 C 0 km/h
1065 06-05-2009 22:03:36 14.2 C 7.2 g/m*3 14.2 C 0 km/h
1066 06-05-2009 22:18:36 14.3 C 7.25 g/m*3 14.3 C 0 km/h
1067 06-05-2009 22:33:36 14.1 C 7.16 g/m*3 14.1 C 0 km/h
1068 06-05-2009 22:48:36 14.1 C 7.16 g/m*3 14.1 C 0 km/h
1069 06-05-2009 23:03:36 14 C 7.12 g/m*3 14 C 0 km/h
1070 06-05-2009 23:18:36 13.9 C 7.19 g/m*3 13.9 C 0 km/h
1071 06-05-2009 23:33:36 13.7 C 7.1 g/m*3 13.7 C 0 km/h
1072 06-05-2009 23:48:37 13.6 C 7.06 g/m*3 13.6 C 0 km/h
1073 07-05-2009 00:03:37 13.5 C 7.13 g/m*3 13.5 C 0 km/h
1074 07-05-2009 00:18:37 13.4 C 7.09 g/m*3 13.4 C 0 km/h
1075 07-05-2009 00:33:37 13.1 C 7.19 g/m*3 13.1 C 0 km/h
Sensor: Nr:Datum:Temp:Abs-Feuchte:Windchill:Wind:
Aussen-T/F 1076 07-05-2009 00:48:37 12.8 C 7.28 g/m*3 12.8 C 0 km/h
1077 07-05-2009 01:03:37 12.4 C 7.21 g/m*3 12.4 C 0 km/h
1078 07-05-2009 01:18:37 12.1 C 7.29 g/m*3 12.1 C 0 km/h
1079 07-05-2009 01:33:37 11.8 C 7.37 g/m*3 11.8 C 0 km/h
1080 07-05-2009 01:48:37 11.6 C 7.38 g/m*3 11.6 C 0 km/h
1081 07-05-2009 02:03:37 11.3 C 7.34 g/m*3 11.3 C 0 km/h
1082 07-05-2009 02:18:37 11 C 7.31 g/m*3 11 C 0 km/h
1083 07-05-2009 02:33:37 11 C 7.41 g/m*3 11 C 0 km/h
1084 07-05-2009 02:48:37 10.9 C 7.46 g/m*3 10.9 C 0 km/h
1085 07-05-2009 03:03:37 10.8 C 7.41 g/m*3 10.8 C 0 km/h
1086 07-05-2009 03:18:37 10.7 C 7.37 g/m*3 10.7 C 0 km/h
1087 07-05-2009 03:33:37 10.5 C 7.37 g/m*3 10.5 C 0 km/h
1088 07-05-2009 03:48:37 10.3 C 7.28 g/m*3 10.3 C 0 km/h
1089 07-05-2009 04:03:37 10.2 C 7.23 g/m*3 10.2 C 0 km/h
1090 07-05-2009 04:18:37 10.2 C 7.33 g/m*3 10.2 C 0 km/h
1091 07-05-2009 04:33:38 9.7 C 7.19 g/m*3 9.7 C 0 km/h
1092 07-05-2009 04:48:38 9.3 C 7.1 g/m*3 9.3 C 0 km/h
1093 07-05-2009 05:03:38 8.9 C 7.01 g/m*3 8.9 C 0 km/h
1094 07-05-2009 05:18:38 8.7 C 7.01 g/m*3 8.7 C 0 km/h
1095 07-05-2009 05:33:38 8.5 C 7 g/m*3 8.5 C 0 km/h
1096 07-05-2009 05:48:38 8.4 C 7.04 g/m*3 8.4 C 0 km/h
1097 07-05-2009 06:03:38 8.3 C 7.08 g/m*3 8.3 C 0 km/h
1098 07-05-2009 06:18:38 8.2 C 7.03 g/m*3 8.2 C 0 km/h
1099 07-05-2009 06:33:38 8.2 C 7.03 g/m*3 8.2 C 0 km/h
1100 07-05-2009 06:48:38 8.3 C 7.16 g/m*3 8.3 C 0 km/h
Sensor: Nr:Datum:Temp:Abs-Feuchte:Windchill:Wind:
Aussen-T/F 1101 07-05-2009 07:03:36 8.5 C 7.26 g/m*3 8.5 C 0 km/h
1102 07-05-2009 07:18:36 8.6 C 7.39 g/m*3 8.6 C 0 km/h
1103 07-05-2009 07:33:35 9.2 C 7.59 g/m*3 9.2 C 0 km/h
1104 07-05-2009 07:48:36 9.9 C 7.84 g/m*3 9.9 C 0 km/h
1105 07-05-2009 08:03:35 10.1 C 7.47 g/m*3 10.1 C 0 km/h
1106 07-05-2009 08:18:35 10.2 C 7.52 g/m*3 10.2 C 0 km/h
1107 07-05-2009 08:33:35 10.7 C 7.66 g/m*3 10.7 C 0 km/h
1108 07-05-2009 08:56:02 11.4 C 7.6 g/m*3 11.4 C 0 km/h
1109 07-05-2009 09:11:02 11.9 C 7.63 g/m*3 11.9 C 0 km/h
1110 07-05-2009 09:26:02 12.5 C 7.48 g/m*3 12.5 C 0 km/h
1111 07-05-2009 09:41:02 13 C 7.37 g/m*3 13 C 0 km/h
1112 07-05-2009 09:56:02 13.5 C 7.49 g/m*3 13.5 C 0 km/h
1113 07-05-2009 10:11:02 13.8 C 7.51 g/m*3 13.8 C 0 km/h
1114 07-05-2009 10:26:02 14.6 C 7.38 g/m*3 14.6 C 0 km/h
1115 07-05-2009 10:41:02 15 C 7.05 g/m*3 15 C 0 km/h
1116 07-05-2009 10:56:02 15.4 C 7.36 g/m*3 15.4 C 0 km/h
1117 07-05-2009 11:11:03 16.1 C 6.99 g/m*3 16.1 C 0 km/h
1118 07-05-2009 11:26:03 16.4 C 6.98 g/m*3 16.4 C 0 km/h
1119 07-05-2009 11:41:03 16.7 C 7.11 g/m*3 16.7 C 0 km/h
1120 07-05-2009 11:56:03 17 C 6.66 g/m*3 17 C 0 km/h
1121 07-05-2009 12:11:03 17.6 C 6.45 g/m*3 17.6 C 0 km/h
1122 07-05-2009 12:26:03 17.7 C 6.49 g/m*3 17.7 C 0 km/h
1123 07-05-2009 12:41:03 17.2 C 6.3 g/m*3 17.2 C 0 km/h
1124 07-05-2009 12:56:03 18.5 C 6.65 g/m*3 18.5 C 0 km/h
1125 07-05-2009 13:11:03 19.3 C 6.47 g/m*3 19.3 C 0 km/h
Sensor: Nr:Datum:Temp:Abs-Feuchte:Windchill:Wind:
Aussen-T/F 1126 07-05-2009 13:26:03 19.7 C 6.28 g/m*3 19.7 C 0 km/h
1127 07-05-2009 13:41:03 20.5 C 5.69 g/m*3 20.5 C 0 km/h
1128 07-05-2009 13:56:03 20.5 C 5.69 g/m*3 20.5 C 0 km/h
1129 07-05-2009 14:11:03 20.5 C 5.52 g/m*3 20.5 C 0 km/h
1130 07-05-2009 14:26:03 20.3 C 5.45 g/m*3 20.3 C 0 km/h
1131 07-05-2009 14:41:03 20.9 C 5.83 g/m*3 20.9 C 0 km/h
1132 07-05-2009 14:56:03 21.5 C 5.85 g/m*3 21.5 C 0 km/h
1133 07-05-2009 15:11:03 21.9 C 5.79 g/m*3 21.9 C 0 km/h
1134 07-05-2009 15:26:03 22.7 C 5.66 g/m*3 22.7 C 0 km/h
1135 07-05-2009 15:41:03 23.1 C 5.17 g/m*3 23.1 C 0 km/h
1136 07-05-2009 15:56:04 24.1 C 5.47 g/m*3 24.1 C 0 km/h
1137 07-05-2009 16:11:04 23.6 C 5.1 g/m*3 23.6 C 0 km/h
1138 07-05-2009 16:26:04 24.5 C 5.6 g/m*3 24.5 C 0 km/h
1139 07-05-2009 16:41:04 24.5 C 5.6 g/m*3 24.5 C 0 km/h
1140 07-05-2009 16:56:04 24.1 C 5.47 g/m*3 24.1 C 0 km/h
1141 07-05-2009 17:11:04 25.1 C 5.56 g/m*3 25.1 C 0 km/h
1142 07-05-2009 17:26:04 25.4 C 5.41 g/m*3 25.4 C 0 km/h
1143 07-05-2009 17:41:04 24.9 C 5.72 g/m*3 24.9 C 0 km/h
1144 07-05-2009 17:56:04 26.4 C 5.73 g/m*3 26.4 C 0 km/h
1145 07-05-2009 18:11:04 26 C 5.11 g/m*3 26 C 0 km/h
1146 07-05-2009 18:26:04 25.5 C 4.97 g/m*3 25.5 C 0 km/h
1147 07-05-2009 18:41:04 25.1 C 5.09 g/m*3 25.1 C 0 km/h
1148 07-05-2009 18:56:04 25 C 5.29 g/m*3 25 C 0 km/h
1149 07-05-2009 19:11:04 25.7 C 5.99 g/m*3 25.7 C 0 km/h
1150 07-05-2009 19:26:04 26.4 C 5.73 g/m*3 26.4 C 0 km/h
Sensor: Nr:Datum:Temp:Abs-Feuchte:Windchill:Wind:
Aussen-T/F 1151 07-05-2009 19:41:04 25.9 C 5.57 g/m*3 25.9 C 0 km/h
1152 07-05-2009 19:56:04 25.5 C 5.92 g/m*3 25.5 C 0 km/h
1153 07-05-2009 20:11:04 25.1 C 6.48 g/m*3 25.1 C 0 km/h
1154 07-05-2009 20:26:04 24.1 C 6.56 g/m*3 24.1 C 0 km/h
1155 07-05-2009 20:41:04 22.4 C 6.55 g/m*3 22.4 C 0 km/h
1156 07-05-2009 20:56:04 20.8 C 6.88 g/m*3 20.8 C 0 km/h
1157 07-05-2009 21:11:05 19.9 C 7.39 g/m*3 19.9 C 0 km/h
1158 07-05-2009 21:26:05 19.3 C 7.3 g/m*3 19.3 C 0 km/h
1159 07-05-2009 21:41:05 18.9 C 7.29 g/m*3 18.9 C 0 km/h
1160 07-05-2009 21:56:05 18.6 C 7.32 g/m*3 18.6 C 0 km/h
1161 07-05-2009 22:11:05 18.1 C 7.26 g/m*3 18.1 C 0 km/h
1162 07-05-2009 22:26:05 17.7 C 7.39 g/m*3 17.7 C 0 km/h
1163 07-05-2009 22:41:05 17.2 C 7.47 g/m*3 17.2 C 0 km/h
1164 07-05-2009 22:56:05 16.8 C 7.43 g/m*3 16.8 C 0 km/h
1165 07-05-2009 23:11:05 16.6 C 7.49 g/m*3 16.6 C 0 km/h
1166 07-05-2009 23:26:05 16.4 C 7.68 g/m*3 16.4 C 0 km/h
1167 07-05-2009 23:41:05 16 C 7.49 g/m*3 16 C 0 km/h
1168 07-05-2009 23:56:05 15.7 C 7.63 g/m*3 15.7 C 0 km/h
1169 08-05-2009 00:11:05 15.4 C 7.75 g/m*3 15.4 C 0 km/h
1170 08-05-2009 00:26:05 14.8 C 7.85 g/m*3 14.8 C 0 km/h
1171 08-05-2009 00:41:05 14.6 C 7.88 g/m*3 14.6 C 0 km/h
1172 08-05-2009 00:56:05 14.4 C 7.79 g/m*3 14.4 C 0 km/h
1173 08-05-2009 01:11:05 14.2 C 7.94 g/m*3 14.2 C 0 km/h
1174 08-05-2009 01:26:05 13.9 C 8.15 g/m*3 13.9 C 0 km/h
1175 08-05-2009 01:41:05 14 C 7.96 g/m*3 14 C 0 km/h
Sensor: Nr:Datum:Temp:Abs-Feuchte:Windchill:Wind:
Aussen-T/F 1176 08-05-2009 01:56:05 13.6 C 8 g/m*3 13.6 C 0 km/h
1177 08-05-2009 02:11:06 13.2 C 7.92 g/m*3 13.2 C 0 km/h
1178 08-05-2009 02:26:06 13.1 C 7.99 g/m*3 13.1 C 0 km/h
1179 08-05-2009 02:41:06 12.8 C 8.06 g/m*3 12.8 C 0 km/h
1180 08-05-2009 02:56:06 12.7 C 8.01 g/m*3 12.7 C 0 km/h
1181 08-05-2009 03:11:06 12.5 C 8.03 g/m*3 12.5 C 0 km/h
1182 08-05-2009 03:26:06 12.4 C 8.09 g/m*3 12.4 C 0 km/h
1183 08-05-2009 03:41:06 12.2 C 8.09 g/m*3 12.2 C 0 km/h
1184 08-05-2009 03:56:06 12.4 C 8.09 g/m*3 12.4 C 0 km/h
1185 08-05-2009 04:11:06 12.1 C 8.04 g/m*3 12.1 C 0 km/h
1186 08-05-2009 04:26:06 12.1 C 8.04 g/m*3 12.1 C 0 km/h
1187 08-05-2009 04:41:06 12.4 C 8.19 g/m*3 12.4 C 0 km/h
1188 08-05-2009 04:56:06 12.2 C 8.2 g/m*3 12.2 C 0 km/h
1189 08-05-2009 05:11:06 11.5 C 8.57 g/m*3 11.5 C 0 km/h
1190 08-05-2009 05:26:06 11.7 C 9.2 g/m*3 11.7 C 0 km/h
1191 08-05-2009 05:41:06 12 C 9.48 g/m*3 12 C 0 km/h
1192 08-05-2009 05:56:06 12.6 C 10.07 g/m*3 12.6 C 0 km/h
1193 08-05-2009 06:11:06 13.3 C 10.4 g/m*3 13.3 C 0 km/h
1194 08-05-2009 06:26:06 13.5 C 10.18 g/m*3 13.5 C 0 km/h
1195 08-05-2009 06:41:06 13.3 C 9.94 g/m*3 13.3 C 0 km/h
1196 08-05-2009 06:56:06 13.2 C 9.99 g/m*3 13.2 C 0 km/h
1197 08-05-2009 07:11:06 13 C 9.98 g/m*3 13 C 0 km/h
1198 08-05-2009 07:26:07 13.1 C 10.16 g/m*3 13.1 C 0 km/h
1199 08-05-2009 07:41:07 12.6 C 10.07 g/m*3 12.6 C 0 km/h
1200 08-05-2009 07:56:07 13.4 C 10.58 g/m*3 13.4 C 0 km/h
Sensor: Nr:Datum:Temp:Abs-Feuchte:Windchill:Wind:
Aussen-T/F 1201 08-05-2009 08:11:07 13.9 C 10.91 g/m*3 13.9 C 0 km/h
1202 08-05-2009 08:26:07 14.4 C 11.13 g/m*3 14.4 C 0 km/h
1203 08-05-2009 08:41:07 15 C 11.28 g/m*3 15 C 0 km/h
1204 08-05-2009 08:56:07 15.5 C 11.24 g/m*3 15.5 C 0 km/h
1205 08-05-2009 09:11:07 16.2 C 11.17 g/m*3 16.2 C 0 km/h
1206 08-05-2009 09:26:07 16.6 C 11.3 g/m*3 16.6 C 0 km/h
1207 08-05-2009 09:41:07 15.2 C 10.12 g/m*3 15.2 C 0 km/h
1208 08-05-2009 09:56:07 15.1 C 10.45 g/m*3 15.1 C 0 km/h
1209 08-05-2009 10:11:07 16 C 10.63 g/m*3 16 C 0 km/h
1210 08-05-2009 10:26:07 16.3 C 10.41 g/m*3 16.3 C 0 km/h
1211 08-05-2009 10:41:07 17 C 10.56 g/m*3 17 C 0 km/h
1212 08-05-2009 10:56:07 18.1 C 10.35 g/m*3 18.1 C 0 km/h
1213 08-05-2009 11:11:07 18.4 C 10.38 g/m*3 18.4 C 0 km/h
1214 08-05-2009 11:26:07 18.9 C 10.04 g/m*3 18.9 C 0 km/h
1215 08-05-2009 11:41:07 19.4 C 9.51 g/m*3 19.4 C 0 km/h
1216 08-05-2009 11:56:07 19.5 C 9.4 g/m*3 19.5 C 0 km/h
1217 08-05-2009 12:11:07 19.9 C 9.45 g/m*3 19.9 C 0 km/h
1218 08-05-2009 12:26:08 20.5 C 9.25 g/m*3 20.5 C 0 km/h
1219 08-05-2009 12:41:08 20 C 9.16 g/m*3 20 C 0 km/h
1220 08-05-2009 12:56:08 20.1 C 9.04 g/m*3 20.1 C 0 km/h
1221 08-05-2009 13:11:08 20 C 8.99 g/m*3 20 C 0 km/h
1222 08-05-2009 13:26:08 20.2 C 8.92 g/m*3 20.2 C 0 km/h
1223 08-05-2009 13:41:08 19.9 C 9.11 g/m*3 19.9 C 0 km/h
1224 08-05-2009 13:56:08 21 C 8.98 g/m*3 21 C 0 km/h
1225 08-05-2009 14:11:08 21 C 8.79 g/m*3 21 C 0 km/h
Sensor: Nr:Datum:Temp:Abs-Feuchte:Windchill:Wind:
Aussen-T/F 1226 08-05-2009 14:26:08 21.2 C 8.52 g/m*3 21.2 C 0 km/h
1227 08-05-2009 14:41:08 22.3 C 8.49 g/m*3 22.3 C 0 km/h
1228 08-05-2009 14:56:08 22 C 8.15 g/m*3 22 C 0 km/h
1229 08-05-2009 15:11:08 21.9 C 8.1 g/m*3 21.9 C 0 km/h
1230 08-05-2009 15:26:08 22 C 7.96 g/m*3 22 C 0 km/h
1231 08-05-2009 15:41:08 21.9 C 7.72 g/m*3 21.9 C 0 km/h
1232 08-05-2009 15:56:08 21.1 C 7 g/m*3 21.1 C 0 km/h
1233 08-05-2009 16:11:08 21.8 C 7.1 g/m*3 21.8 C 0 km/h
1234 08-05-2009 16:26:08 21.3 C 6.71 g/m*3 21.3 C 0 km/h
1235 08-05-2009 16:41:08 22.4 C 6.36 g/m*3 22.4 C 0 km/h
1236 08-05-2009 16:56:08 22.2 C 6.48 g/m*3 22.2 C 0 km/h
1237 08-05-2009 17:11:08 21.5 C 6.03 g/m*3 21.5 C 0 km/h
1238 08-05-2009 17:26:08 20.9 C 6.37 g/m*3 20.9 C 0 km/h
1239 08-05-2009 17:41:09 20.8 C 6.52 g/m*3 20.8 C 0 km/h
1240 08-05-2009 17:56:09 21.1 C 6.45 g/m*3 21.1 C 0 km/h
1241 08-05-2009 18:11:09 21.7 C 6.29 g/m*3 21.7 C 0 km/h
1242 08-05-2009 18:26:09 21.4 C 6.37 g/m*3 21.4 C 0 km/h
1243 08-05-2009 18:41:09 20.7 C 6.3 g/m*3 20.7 C 0 km/h
1244 08-05-2009 18:56:09 19.6 C 6.42 g/m*3 19.6 C 0 km/h
1245 08-05-2009 19:11:09 20.2 C 6.47 g/m*3 20.2 C 0 km/h
1246 08-05-2009 19:26:09 20 C 6.39 g/m*3 20 C 0 km/h
1247 08-05-2009 19:41:09 19.1 C 6.23 g/m*3 19.1 C 0 km/h
1248 08-05-2009 19:56:09 18.3 C 5.79 g/m*3 18.3 C 0 km/h
1249 08-05-2009 20:11:09 17.8 C 5.01 g/m*3 17.8 C 0 km/h
1250 08-05-2009 20:26:09 17.7 C 5.28 g/m*3 17.7 C 0 km/h
Sensor: Nr:Datum:Temp:Abs-Feuchte:Windchill:Wind:
Aussen-T/F 1251 08-05-2009 20:41:09 17.3 C 5.6 g/m*3 17.3 C 0 km/h
1252 08-05-2009 20:56:09 16.9 C 5.75 g/m*3 16.9 C 0 km/h
1253 08-05-2009 21:11:09 16.3 C 5.83 g/m*3 16.3 C 0 km/h
1254 08-05-2009 21:26:09 15.8 C 6.19 g/m*3 15.8 C 0 km/h
1255 08-05-2009 21:41:09 15.4 C 6.44 g/m*3 15.4 C 0 km/h
1256 08-05-2009 21:56:09 14.7 C 6.55 g/m*3 14.7 C 0 km/h
1257 08-05-2009 22:11:09 14.3 C 6.76 g/m*3 14.3 C 0 km/h
1258 08-05-2009 22:26:10 14.1 C 6.67 g/m*3 14.1 C 0 km/h
1259 08-05-2009 22:41:10 14.2 C 6.47 g/m*3 14.2 C 0 km/h
1260 08-05-2009 22:56:10 13.9 C 6.23 g/m*3 13.9 C 0 km/h
1261 08-05-2009 23:11:10 13.5 C 6.55 g/m*3 13.5 C 0 km/h
1262 08-05-2009 23:26:10 13 C 6.24 g/m*3 13 C 0 km/h
1263 08-05-2009 23:41:10 12.7 C 6.23 g/m*3 12.7 C 0 km/h
1264 08-05-2009 23:56:10 12.4 C 6.12 g/m*3 12.4 C 0 km/h
1265 09-05-2009 00:11:10 12.1 C 6.11 g/m*3 12.1 C 0 km/h
1266 09-05-2009 00:26:10 11.7 C 6.38 g/m*3 11.7 C 0 km/h
1267 09-05-2009 00:41:10 11.4 C 6.57 g/m*3 11.4 C 0 km/h
1268 09-05-2009 00:56:10 11 C 6.71 g/m*3 11 C 0 km/h
1269 09-05-2009 01:11:10 10.8 C 6.72 g/m*3 10.8 C 0 km/h
1270 09-05-2009 01:26:10 10.5 C 6.6 g/m*3 10.5 C 0 km/h
1271 09-05-2009 01:41:10 10.2 C 6.66 g/m*3 10.2 C 0 km/h
1272 09-05-2009 01:56:10 9.9 C 6.82 g/m*3 9.9 C 0 km/h
1273 09-05-2009 02:11:10 9.7 C 6.82 g/m*3 9.7 C 0 km/h
1274 09-05-2009 02:26:10 9.5 C 6.83 g/m*3 9.5 C 0 km/h
1275 09-05-2009 02:41:10 9.3 C 6.74 g/m*3 9.3 C 0 km/h
Sensor: Nr:Datum:Temp:Abs-Feuchte:Windchill:Wind:
Aussen-T/F 1276 09-05-2009 02:56:10 9.1 C 6.65 g/m*3 9.1 C 0 km/h
1277 09-05-2009 03:11:11 8.9 C 6.75 g/m*3 8.9 C 0 km/h
1278 09-05-2009 03:26:11 8.6 C 6.7 g/m*3 8.6 C 0 km/h
1279 09-05-2009 03:41:11 8.4 C 6.7 g/m*3 8.4 C 0 km/h
1280 09-05-2009 03:56:11 8.1 C 6.57 g/m*3 8.1 C 0 km/h
1281 09-05-2009 04:11:11 8 C 6.53 g/m*3 8 C 0 km/h
1282 09-05-2009 04:26:11 7.9 C 6.65 g/m*3 7.9 C 0 km/h
1283 09-05-2009 04:41:11 7.8 C 6.61 g/m*3 7.8 C 0 km/h
1284 09-05-2009 04:56:11 7.5 C 6.64 g/m*3 7.5 C 0 km/h
1285 09-05-2009 05:11:11 7.4 C 6.6 g/m*3 7.4 C 0 km/h
1286 09-05-2009 05:26:11 7.5 C 6.64 g/m*3 7.5 C 0 km/h
1287 09-05-2009 05:41:11 7.4 C 6.68 g/m*3 7.4 C 0 km/h
1288 09-05-2009 05:56:11 7.2 C 6.59 g/m*3 7.2 C 0 km/h
1289 09-05-2009 06:11:11 7.1 C 6.55 g/m*3 7.1 C 0 km/h
1290 09-05-2009 06:26:11 7.2 C 6.59 g/m*3 7.2 C 0 km/h
1291 09-05-2009 06:41:11 7.3 C 6.64 g/m*3 7.3 C 0 km/h
1292 09-05-2009 06:56:11 7.7 C 6.81 g/m*3 7.7 C 0 km/h
1293 09-05-2009 07:11:11 7.8 C 6.77 g/m*3 7.8 C 0 km/h
1294 09-05-2009 07:26:11 8 C 6.78 g/m*3 8 C 0 km/h
1295 09-05-2009 07:41:11 7.8 C 6.77 g/m*3 7.8 C 0 km/h
1296 09-05-2009 07:56:12 8.3 C 6.91 g/m*3 8.3 C 0 km/h
1297 09-05-2009 08:11:12 9 C 6.96 g/m*3 9 C 0 km/h
1298 09-05-2009 08:26:12 9.5 C 6.92 g/m*3 9.5 C 0 km/h
1299 09-05-2009 08:41:12 10.2 C 6.95 g/m*3 10.2 C 0 km/h
1300 09-05-2009 08:56:12 10.7 C 6.97 g/m*3 10.7 C 0 km/h
Sensor: Nr:Datum:Temp:Abs-Feuchte:Windchill:Wind:
Aussen-T/F 1301 09-05-2009 09:11:12 11.4 C 7.19 g/m*3 11.4 C 0 km/h
1302 09-05-2009 09:26:12 12.1 C 7.18 g/m*3 12.1 C 0 km/h
1303 09-05-2009 09:41:12 11.9 C 7.1 g/m*3 11.9 C 0 km/h
1304 09-05-2009 09:56:12 12.6 C 7.3 g/m*3 12.6 C 0 km/h
1305 09-05-2009 10:11:12 13.5 C 7.25 g/m*3 13.5 C 0 km/h
1306 09-05-2009 10:26:12 14.3 C 7.25 g/m*3 14.3 C 0 km/h
1307 09-05-2009 10:41:12 15 C 7.31 g/m*3 15 C 0 km/h
1308 09-05-2009 10:56:12 16.1 C 7.26 g/m*3 16.1 C 0 km/h
1309 09-05-2009 11:11:12 16.4 C 6.98 g/m*3 16.4 C 0 km/h
1310 09-05-2009 11:26:12 17.3 C 6.78 g/m*3 17.3 C 0 km/h
1311 09-05-2009 11:41:12 18 C 6.6 g/m*3 18 C 0 km/h
1312 09-05-2009 11:56:12 18.6 C 6.53 g/m*3 18.6 C 0 km/h
1313 09-05-2009 12:11:12 18.4 C 6.76 g/m*3 18.4 C 0 km/h
1314 09-05-2009 12:26:12 18.7 C 6.72 g/m*3 18.7 C 0 km/h
1315 09-05-2009 12:41:12 19.5 C 7.05 g/m*3 19.5 C 0 km/h
1316 09-05-2009 12:56:13 19.3 C 6.47 g/m*3 19.3 C 0 km/h
1317 09-05-2009 13:11:13 19.5 C 6.71 g/m*3 19.5 C 0 km/h
1318 09-05-2009 13:26:13 20.1 C 6.43 g/m*3 20.1 C 0 km/h
1319 09-05-2009 13:41:13 20.4 C 6.55 g/m*3 20.4 C 0 km/h
1320 09-05-2009 13:56:13 21.1 C 6.45 g/m*3 21.1 C 0 km/h
1321 09-05-2009 14:11:13 20.1 C 6.43 g/m*3 20.1 C 0 km/h
1322 09-05-2009 14:26:13 19.8 C 7 g/m*3 19.8 C 0 km/h
1323 09-05-2009 14:41:13 20.6 C 6.62 g/m*3 20.6 C 0 km/h
1324 09-05-2009 14:56:13 21.1 C 6.63 g/m*3 21.1 C 0 km/h
1325 09-05-2009 15:11:13 20.8 C 6.7 g/m*3 20.8 C 0 km/h
Sensor: Nr:Datum:Temp:Abs-Feuchte:Windchill:Wind:
Aussen-T/F 1326 09-05-2009 15:26:13 20.4 C 6.9 g/m*3 20.4 C 0 km/h
1327 09-05-2009 15:41:13 20.1 C 6.95 g/m*3 20.1 C 0 km/h
1328 09-05-2009 15:56:13 20.8 C 7.06 g/m*3 20.8 C 0 km/h
1329 09-05-2009 16:11:13 22.6 C 7.23 g/m*3 22.6 C 0 km/h
1330 09-05-2009 16:26:13 22.7 C 7.07 g/m*3 22.7 C 0 km/h
1331 09-05-2009 16:41:13 22.7 C 7.07 g/m*3 22.7 C 0 km/h
1332 09-05-2009 16:56:13 22.6 C 7.63 g/m*3 22.6 C 0 km/h
1333 09-05-2009 17:11:13 23.4 C 7.36 g/m*3 23.4 C 0 km/h
1334 09-05-2009 17:26:13 23.5 C 6.98 g/m*3 23.5 C 0 km/h
1335 09-05-2009 17:41:13 23.2 C 7.28 g/m*3 23.2 C 0 km/h
1336 09-05-2009 17:56:14 22.4 C 7.35 g/m*3 22.4 C 0 km/h
1337 09-05-2009 18:11:14 21.2 C 7.78 g/m*3 21.2 C 0 km/h
1338 09-05-2009 18:26:14 21.3 C 8.2 g/m*3 21.3 C 0 km/h
1339 09-05-2009 18:41:14 21.8 C 7.87 g/m*3 21.8 C 0 km/h
1340 09-05-2009 18:56:14 20.9 C 8.2 g/m*3 20.9 C 0 km/h
1341 09-05-2009 19:11:14 20.1 C 8.69 g/m*3 20.1 C 0 km/h
1342 09-05-2009 19:26:14 17.8 C 10.47 g/m*3 17.8 C 0 km/h
1343 09-05-2009 19:41:14 17 C 10.56 g/m*3 17 C 0 km/h
1344 09-05-2009 19:56:14 17 C 10.56 g/m*3 17 C 0 km/h
1345 09-05-2009 20:11:14 16.8 C 10.72 g/m*3 16.8 C 0 km/h
1346 09-05-2009 20:26:14 15.6 C 10.91 g/m*3 15.6 C 0 km/h
1347 09-05-2009 20:41:14 15.3 C 11.1 g/m*3 15.3 C 0 km/h
1348 09-05-2009 20:56:14 14.9 C 11.22 g/m*3 14.9 C 0 km/h
1349 09-05-2009 21:11:14 13.9 C 10.67 g/m*3 13.9 C 0 km/h
1350 09-05-2009 21:26:14 13.4 C 10.46 g/m*3 13.4 C 0 km/h
Sensor: Nr:Datum:Temp:Abs-Feuchte:Windchill:Wind:
Aussen-T/F 1351 09-05-2009 21:41:14 13.4 C 10.69 g/m*3 13.4 C 0 km/h
1352 09-05-2009 21:56:14 13.4 C 10.81 g/m*3 13.4 C 0 km/h
1353 09-05-2009 22:11:14 13.5 C 10.88 g/m*3 13.5 C 0 km/h
1354 09-05-2009 22:26:14 13.5 C 10.88 g/m*3 13.5 C 0 km/h
1355 09-05-2009 22:41:14 13 C 10.55 g/m*3 13 C 0 km/h
1356 09-05-2009 22:56:15 13.3 C 10.86 g/m*3 13.3 C 0 km/h
1357 09-05-2009 23:11:15 13.2 C 10.79 g/m*3 13.2 C 0 km/h
1358 09-05-2009 23:26:15 13.1 C 10.73 g/m*3 13.1 C 0 km/h
1359 09-05-2009 23:41:15 13.1 C 10.73 g/m*3 13.1 C 0 km/h
1360 09-05-2009 23:56:15 13.2 C 10.79 g/m*3 13.2 C 0 km/h
1361 10-05-2009 00:11:15 13.1 C 10.73 g/m*3 13.1 C 0 km/h
1362 10-05-2009 00:26:15 13 C 10.66 g/m*3 13 C 0 km/h
1363 10-05-2009 00:41:15 13 C 10.66 g/m*3 13 C 0 km/h
1364 10-05-2009 00:56:15 13 C 10.66 g/m*3 13 C 0 km/h
1365 10-05-2009 01:11:15 13 C 10.66 g/m*3 13 C 0 km/h
1366 10-05-2009 01:26:15 12.9 C 10.71 g/m*3 12.9 C 0 km/h
1367 10-05-2009 01:41:15 12.9 C 10.71 g/m*3 12.9 C 0 km/h
1368 10-05-2009 01:56:15 12.9 C 10.71 g/m*3 12.9 C 0 km/h
1369 10-05-2009 02:11:15 12.8 C 10.64 g/m*3 12.8 C 0 km/h
1370 10-05-2009 02:26:15 12.6 C 10.51 g/m*3 12.6 C 0 km/h
1371 10-05-2009 02:41:15 12.6 C 10.51 g/m*3 12.6 C 0 km/h
1372 10-05-2009 02:56:15 12.5 C 10.44 g/m*3 12.5 C 0 km/h
1373 10-05-2009 03:11:15 12.5 C 10.44 g/m*3 12.5 C 0 km/h
1374 10-05-2009 03:26:15 12.5 C 10.44 g/m*3 12.5 C 0 km/h
1375 10-05-2009 03:41:15 12.3 C 10.32 g/m*3 12.3 C 0 km/h
Sensor: Nr:Datum:Temp:Abs-Feuchte:Windchill:Wind:
Aussen-T/F 1376 10-05-2009 03:56:16 12.2 C 10.25 g/m*3 12.2 C 0 km/h
1377 10-05-2009 04:11:16 12.2 C 10.25 g/m*3 12.2 C 0 km/h
1378 10-05-2009 04:26:16 12.3 C 10.32 g/m*3 12.3 C 0 km/h
1379 10-05-2009 04:41:16 12.2 C 10.25 g/m*3 12.2 C 0 km/h
1380 10-05-2009 04:56:16 12.2 C 10.25 g/m*3 12.2 C 0 km/h
1381 10-05-2009 05:11:16 12.2 C 10.25 g/m*3 12.2 C 0 km/h
1382 10-05-2009 05:26:16 12 C 10.12 g/m*3 12 C 0 km/h
1383 10-05-2009 05:41:16 11.8 C 10 g/m*3 11.8 C 0 km/h
1384 10-05-2009 05:56:16 12 C 10.12 g/m*3 12 C 0 km/h
1385 10-05-2009 06:11:16 12 C 10.12 g/m*3 12 C 0 km/h
1386 10-05-2009 06:26:16 12.2 C 10.25 g/m*3 12.2 C 0 km/h
1387 10-05-2009 06:41:16 12.4 C 10.38 g/m*3 12.4 C 0 km/h
1388 10-05-2009 06:56:16 12.7 C 10.58 g/m*3 12.7 C 0 km/h
1389 10-05-2009 07:11:16 12.9 C 10.71 g/m*3 12.9 C 0 km/h
1390 10-05-2009 07:26:16 13.1 C 10.84 g/m*3 13.1 C 0 km/h
1391 10-05-2009 07:41:16 13.1 C 10.84 g/m*3 13.1 C 0 km/h
1392 10-05-2009 07:56:16 13.1 C 10.84 g/m*3 13.1 C 0 km/h
1393 10-05-2009 08:11:16 13.3 C 10.98 g/m*3 13.3 C 0 km/h
1394 10-05-2009 08:26:16 13.3 C 10.86 g/m*3 13.3 C 0 km/h
1395 10-05-2009 08:41:16 13.4 C 10.81 g/m*3 13.4 C 0 km/h
1396 10-05-2009 08:56:17 13.8 C 10.84 g/m*3 13.8 C 0 km/h
1397 10-05-2009 09:11:17 14.4 C 10.38 g/m*3 14.4 C 0 km/h
1398 10-05-2009 09:26:17 14.5 C 9.83 g/m*3 14.5 C 0 km/h
1399 10-05-2009 09:41:17 15.4 C 9.99 g/m*3 15.4 C 0 km/h
1400 10-05-2009 09:56:17 15.5 C 9.78 g/m*3 15.5 C 0 km/h
Sensor: Nr:Datum:Temp:Abs-Feuchte:Windchill:Wind:
Aussen-T/F 1401 10-05-2009 10:11:17 15.5 C 9.78 g/m*3 15.5 C 0 km/h
1402 10-05-2009 10:26:17 15.8 C 9.83 g/m*3 15.8 C 0 km/h
1403 10-05-2009 10:41:17 16.3 C 9.99 g/m*3 16.3 C 0 km/h
1404 10-05-2009 10:56:17 16.8 C 9.58 g/m*3 16.8 C 0 km/h
1405 10-05-2009 11:11:17 17.5 C 9.69 g/m*3 17.5 C 0 km/h
1406 10-05-2009 11:26:17 17.7 C 8.75 g/m*3 17.7 C 0 km/h
1407 10-05-2009 11:41:17 18.5 C 7.28 g/m*3 18.5 C 0 km/h
1408 10-05-2009 11:56:17 18.9 C 6.32 g/m*3 18.9 C 0 km/h
1409 10-05-2009 12:11:17 19.3 C 5.97 g/m*3 19.3 C 0 km/h
1410 10-05-2009 12:26:17 19.9 C 6.01 g/m*3 19.9 C 0 km/h
1411 10-05-2009 12:41:17 20.8 C 5.79 g/m*3 20.8 C 0 km/h
1412 10-05-2009 12:56:17 21.6 C 5.5 g/m*3 21.6 C 0 km/h
1413 10-05-2009 13:11:17 22.2 C 4.91 g/m*3 22.2 C 0 km/h
1414 10-05-2009 13:26:17 22.6 C 5.22 g/m*3 22.6 C 0 km/h
1415 10-05-2009 13:41:17 22.5 C 5.19 g/m*3 22.5 C 0 km/h
1416 10-05-2009 13:56:18 21.8 C 5.76 g/m*3 21.8 C 0 km/h
1417 10-05-2009 14:11:18 22.4 C 5.76 g/m*3 22.4 C 0 km/h
1418 10-05-2009 14:26:18 23.4 C 5.89 g/m*3 23.4 C 0 km/h
1419 10-05-2009 14:41:18 23.5 C 5.5 g/m*3 23.5 C 0 km/h
1420 10-05-2009 14:56:18 23.9 C 5.62 g/m*3 23.9 C 0 km/h
1421 10-05-2009 15:11:18 24.9 C 5.72 g/m*3 24.9 C 0 km/h
1422 10-05-2009 15:26:18 25.3 C 5.15 g/m*3 25.3 C 0 km/h
1423 10-05-2009 15:41:18 25.4 C 5.41 g/m*3 25.4 C 0 km/h
1424 10-05-2009 15:56:18 26.3 C 5.2 g/m*3 26.3 C 0 km/h
1425 10-05-2009 16:11:18 25.8 C 4.82 g/m*3 25.8 C 0 km/h
Sensor: Nr:Datum:Temp:Abs-Feuchte:Windchill:Wind:
Aussen-T/F 1426 10-05-2009 16:26:18 26.8 C 5.09 g/m*3 26.8 C 0 km/h
1427 10-05-2009 16:41:18 27.9 C 5.41 g/m*3 27.9 C 0 km/h
1428 10-05-2009 16:56:18 28.1 C 5.47 g/m*3 28.1 C 0 km/h
1429 10-05-2009 17:11:18 28.3 C 5.53 g/m*3 28.3 C 0 km/h
1430 10-05-2009 17:26:18 27.7 C 5.35 g/m*3 27.7 C 0 km/h
1431 10-05-2009 17:41:18 27.4 C 5.26 g/m*3 27.4 C 0 km/h
1432 10-05-2009 17:56:18 27.5 C 5.29 g/m*3 27.5 C 0 km/h
1433 10-05-2009 18:11:18 26.6 C 5.03 g/m*3 26.6 C 0 km/h
1434 10-05-2009 18:26:18 25.5 C 5.92 g/m*3 25.5 C 0 km/h
1435 10-05-2009 18:41:19 24.6 C 6.98 g/m*3 24.6 C 0 km/h
1436 10-05-2009 18:56:19 24.5 C 6.71 g/m*3 24.5 C 0 km/h
1437 10-05-2009 19:11:19 23.4 C 6.94 g/m*3 23.4 C 0 km/h
1438 10-05-2009 19:26:19 22.5 C 7.39 g/m*3 22.5 C 0 km/h
1439 10-05-2009 19:41:19 21.5 C 7.73 g/m*3 21.5 C 0 km/h
1440 10-05-2009 19:56:19 20.8 C 7.79 g/m*3 20.8 C 0 km/h
1441 10-05-2009 20:11:19 20.1 C 7.65 g/m*3 20.1 C 0 km/h
1442 10-05-2009 20:26:19 19.6 C 7.6 g/m*3 19.6 C 0 km/h
1443 10-05-2009 20:41:19 19.2 C 7.75 g/m*3 19.2 C 0 km/h
1444 10-05-2009 20:56:19 19.1 C 7.7 g/m*3 19.1 C 0 km/h
1445 10-05-2009 21:11:19 18.9 C 7.78 g/m*3 18.9 C 0 km/h
1446 10-05-2009 21:26:19 18.1 C 8.03 g/m*3 18.1 C 0 km/h
1447 10-05-2009 21:41:19 18.3 C 8.29 g/m*3 18.3 C 0 km/h
1448 10-05-2009 21:56:19 16.7 C 9.81 g/m*3 16.7 C 0 km/h
1449 10-05-2009 22:11:19 15.7 C 10.44 g/m*3 15.7 C 0 km/h
1450 10-05-2009 22:26:19 15.7 C 11.24 g/m*3 15.7 C 0 km/h
Sensor: Nr:Datum:Temp:Abs-Feuchte:Windchill:Wind:
Aussen-T/F 1451 10-05-2009 22:41:19 15.6 C 11.57 g/m*3 15.6 C 0 km/h
1452 10-05-2009 22:56:19 15.6 C 11.84 g/m*3 15.6 C 0 km/h
1453 10-05-2009 23:11:19 15.4 C 11.82 g/m*3 15.4 C 0 km/h
1454 10-05-2009 23:26:20 15.4 C 11.96 g/m*3 15.4 C 0 km/h
1455 10-05-2009 23:41:20 15.2 C 11.81 g/m*3 15.2 C 0 km/h
1456 10-05-2009 23:56:20 15.1 C 11.74 g/m*3 15.1 C 0 km/h
1457 11-05-2009 00:11:20 15.1 C 11.87 g/m*3 15.1 C 0 km/h
1458 11-05-2009 00:26:20 15.2 C 11.94 g/m*3 15.2 C 0 km/h
1459 11-05-2009 00:41:20 14.8 C 11.78 g/m*3 14.8 C 0 km/h
1460 11-05-2009 00:56:20 14.7 C 11.71 g/m*3 14.7 C 0 km/h
1461 11-05-2009 01:11:20 14.5 C 11.57 g/m*3 14.5 C 0 km/h
1462 11-05-2009 01:26:20 14.6 C 11.64 g/m*3 14.6 C 0 km/h
1463 11-05-2009 01:41:20 14.6 C 11.64 g/m*3 14.6 C 0 km/h
1464 11-05-2009 01:56:20 14.6 C 11.64 g/m*3 14.6 C 0 km/h
1465 11-05-2009 02:11:20 14.5 C 11.57 g/m*3 14.5 C 0 km/h
1466 11-05-2009 02:26:20 14.5 C 11.57 g/m*3 14.5 C 0 km/h
1467 11-05-2009 02:41:20 14.4 C 11.5 g/m*3 14.4 C 0 km/h
1468 11-05-2009 02:56:20 14.3 C 11.43 g/m*3 14.3 C 0 km/h
1469 11-05-2009 03:11:20 14.4 C 11.5 g/m*3 14.4 C 0 km/h
1470 11-05-2009 03:26:20 14.4 C 11.5 g/m*3 14.4 C 0 km/h
1471 11-05-2009 03:41:20 14.4 C 11.62 g/m*3 14.4 C 0 km/h
1472 11-05-2009 03:56:20 14 C 11.22 g/m*3 14 C 0 km/h
1473 11-05-2009 04:11:20 13.7 C 11.13 g/m*3 13.7 C 0 km/h
1474 11-05-2009 04:26:21 13.5 C 10.99 g/m*3 13.5 C 0 km/h
1475 11-05-2009 04:41:21 13.5 C 10.99 g/m*3 13.5 C 0 km/h
Sensor: Nr:Datum:Temp:Abs-Feuchte:Windchill:Wind:
Aussen-T/F 1476 11-05-2009 04:56:21 13.4 C 10.93 g/m*3 13.4 C 0 km/h
1477 11-05-2009 05:11:21 13.5 C 10.99 g/m*3 13.5 C 0 km/h
1478 11-05-2009 05:26:21 13.7 C 11.25 g/m*3 13.7 C 0 km/h
1479 11-05-2009 05:41:21 13.6 C 11.18 g/m*3 13.6 C 0 km/h
1480 11-05-2009 05:56:21 13.2 C 10.79 g/m*3 13.2 C 0 km/h
1481 11-05-2009 06:11:21 13.1 C 10.73 g/m*3 13.1 C 0 km/h
1482 11-05-2009 06:26:21 13.4 C 11.04 g/m*3 13.4 C 0 km/h
1483 11-05-2009 06:41:21 13.3 C 10.98 g/m*3 13.3 C 0 km/h
1484 11-05-2009 06:56:21 13.4 C 11.04 g/m*3 13.4 C 0 km/h
1485 11-05-2009 07:11:21 13.4 C 11.04 g/m*3 13.4 C 0 km/h
1486 11-05-2009 07:26:21 13.5 C 11.11 g/m*3 13.5 C 0 km/h
1487 11-05-2009 07:41:21 13.7 C 11.25 g/m*3 13.7 C 0 km/h
1488 11-05-2009 07:56:21 13.6 C 11.18 g/m*3 13.6 C 0 km/h
1489 11-05-2009 08:11:21 13.6 C 11.18 g/m*3 13.6 C 0 km/h
1490 11-05-2009 08:26:21 13.7 C 11.25 g/m*3 13.7 C 0 km/h
1491 11-05-2009 08:41:21 13.6 C 11.18 g/m*3 13.6 C 0 km/h
1492 11-05-2009 08:56:21 13.5 C 11.11 g/m*3 13.5 C 0 km/h
1493 11-05-2009 09:11:21 13.7 C 11.25 g/m*3 13.7 C 0 km/h
1494 11-05-2009 09:26:21 14 C 11.46 g/m*3 14 C 0 km/h
1495 11-05-2009 09:41:22 14.1 C 11.53 g/m*3 14.1 C 0 km/h
1496 11-05-2009 09:56:22 14.1 C 11.53 g/m*3 14.1 C 0 km/h
1497 11-05-2009 10:11:22 14.2 C 11.6 g/m*3 14.2 C 0 km/h
1498 11-05-2009 10:26:22 14.5 C 11.82 g/m*3 14.5 C 0 km/h
1499 11-05-2009 10:41:22 14.1 C 11.53 g/m*3 14.1 C 0 km/h
1500 11-05-2009 10:56:22 14 C 11.46 g/m*3 14 C 0 km/h
Sensor: Nr:Datum:Temp:Abs-Feuchte:Windchill:Wind:
Aussen-T/F 1501 11-05-2009 11:11:22 14.4 C 11.74 g/m*3 14.4 C 0 km/h
1502 11-05-2009 11:26:22 14.4 C 11.74 g/m*3 14.4 C 0 km/h
1503 11-05-2009 11:41:22 14.5 C 11.82 g/m*3 14.5 C 0 km/h
1504 11-05-2009 11:56:22 14.6 C 11.89 g/m*3 14.6 C 0 km/h
1505 11-05-2009 12:11:22 14.6 C 11.76 g/m*3 14.6 C 0 km/h
1506 11-05-2009 12:26:22 14.5 C 11.69 g/m*3 14.5 C 0 km/h
1507 11-05-2009 12:41:22 14.5 C 11.69 g/m*3 14.5 C 0 km/h
1508 11-05-2009 12:56:22 14.3 C 11.43 g/m*3 14.3 C 0 km/h
1509 11-05-2009 13:11:22 14.1 C 11.41 g/m*3 14.1 C 0 km/h
1510 11-05-2009 13:26:22 13.7 C 11.13 g/m*3 13.7 C 0 km/h
1511 11-05-2009 13:41:22 13.8 C 11.2 g/m*3 13.8 C 0 km/h
1512 11-05-2009 13:56:22 13.8 C 11.2 g/m*3 13.8 C 0 km/h
1513 11-05-2009 14:11:22 14 C 11.34 g/m*3 14 C 0 km/h
1514 11-05-2009 14:26:22 13.8 C 11.2 g/m*3 13.8 C 0 km/h
1515 11-05-2009 14:41:23 13.9 C 11.27 g/m*3 13.9 C 0 km/h
1516 11-05-2009 14:56:23 13.7 C 11.13 g/m*3 13.7 C 0 km/h
1517 11-05-2009 15:11:23 13.5 C 10.99 g/m*3 13.5 C 0 km/h
1518 11-05-2009 15:26:23 13.3 C 10.74 g/m*3 13.3 C 0 km/h
1519 11-05-2009 15:41:23 13.3 C 10.74 g/m*3 13.3 C 0 km/h
1520 11-05-2009 15:56:23 13.2 C 10.68 g/m*3 13.2 C 0 km/h
1521 11-05-2009 16:11:23 13.4 C 10.81 g/m*3 13.4 C 0 km/h
1522 11-05-2009 16:26:23 13.6 C 10.95 g/m*3 13.6 C 0 km/h
1523 11-05-2009 16:41:23 13.7 C 11.01 g/m*3 13.7 C 0 km/h
1524 11-05-2009 16:56:23 13.6 C 10.95 g/m*3 13.6 C 0 km/h
1525 11-05-2009 17:11:23 13.5 C 10.88 g/m*3 13.5 C 0 km/h
Sensor: Nr:Datum:Temp:Abs-Feuchte:Windchill:Wind:
Aussen-T/F 1526 11-05-2009 17:26:23 13.5 C 10.88 g/m*3 13.5 C 0 km/h
1527 11-05-2009 17:41:23 13.4 C 10.93 g/m*3 13.4 C 0 km/h
1528 11-05-2009 17:56:23 13.1 C 10.73 g/m*3 13.1 C 0 km/h
1529 11-05-2009 18:11:23 13.2 C 10.79 g/m*3 13.2 C 0 km/h
1530 11-05-2009 18:26:23 13.2 C 10.79 g/m*3 13.2 C 0 km/h
1531 11-05-2009 18:41:23 13.2 C 10.79 g/m*3 13.2 C 0 km/h
1532 11-05-2009 18:56:23 13 C 10.66 g/m*3 13 C 0 km/h
1533 11-05-2009 19:11:23 13 C 10.66 g/m*3 13 C 0 km/h
1534 11-05-2009 19:26:23 13 C 10.66 g/m*3 13 C 0 km/h
1535 11-05-2009 19:41:24 12.8 C 10.64 g/m*3 12.8 C 0 km/h
1536 11-05-2009 19:56:24 12.7 C 10.58 g/m*3 12.7 C 0 km/h
1537 11-05-2009 20:11:24 12.3 C 10.32 g/m*3 12.3 C 0 km/h
1538 11-05-2009 20:26:24 12.3 C 10.32 g/m*3 12.3 C 0 km/h
1539 11-05-2009 20:41:24 12.4 C 10.38 g/m*3 12.4 C 0 km/h
1540 11-05-2009 20:56:24 12.5 C 10.44 g/m*3 12.5 C 0 km/h
1541 11-05-2009 21:11:24 12.6 C 10.51 g/m*3 12.6 C 0 km/h
1542 11-05-2009 21:26:24 12.6 C 10.51 g/m*3 12.6 C 0 km/h
1543 11-05-2009 21:41:24 12.4 C 10.38 g/m*3 12.4 C 0 km/h
1544 11-05-2009 21:56:24 12.3 C 10.32 g/m*3 12.3 C 0 km/h
1545 11-05-2009 22:11:24 12.1 C 10.19 g/m*3 12.1 C 0 km/h
1546 11-05-2009 22:26:24 12.1 C 10.19 g/m*3 12.1 C 0 km/h
1547 11-05-2009 22:41:24 12 C 10.12 g/m*3 12 C 0 km/h
1548 11-05-2009 22:56:24 11.9 C 10.06 g/m*3 11.9 C 0 km/h
1549 11-05-2009 23:11:24 12 C 10.12 g/m*3 12 C 0 km/h
1550 11-05-2009 23:26:24 12 C 10.12 g/m*3 12 C 0 km/h
Sensor: Nr:Datum:Temp:Abs-Feuchte:Windchill:Wind:
Aussen-T/F 1551 11-05-2009 23:41:24 12 C 10.12 g/m*3 12 C 0 km/h
1552 11-05-2009 23:56:24 12 C 10.12 g/m*3 12 C 0 km/h
1553 12-05-2009 00:11:24 11.8 C 10 g/m*3 11.8 C 0 km/h
1554 12-05-2009 00:26:24 11.8 C 10 g/m*3 11.8 C 0 km/h
1555 12-05-2009 00:41:25 11.8 C 10 g/m*3 11.8 C 0 km/h
1556 12-05-2009 00:56:25 11.8 C 10 g/m*3 11.8 C 0 km/h
1557 12-05-2009 01:11:25 11.7 C 9.94 g/m*3 11.7 C 0 km/h
1558 12-05-2009 01:26:25 11.8 C 10 g/m*3 11.8 C 0 km/h
1559 12-05-2009 01:41:25 11.7 C 9.94 g/m*3 11.7 C 0 km/h
1560 12-05-2009 01:56:25 11.7 C 9.83 g/m*3 11.7 C 0 km/h
1561 12-05-2009 02:11:25 11.7 C 9.83 g/m*3 11.7 C 0 km/h
1562 12-05-2009 02:26:25 11.6 C 9.67 g/m*3 11.6 C 0 km/h
1563 12-05-2009 02:41:25 11.6 C 9.56 g/m*3 11.6 C 0 km/h
1564 12-05-2009 02:56:25 11.5 C 9.5 g/m*3 11.5 C 0 km/h
1565 12-05-2009 03:11:25 11.5 C 9.4 g/m*3 11.5 C 0 km/h
1566 12-05-2009 03:26:25 11.4 C 9.34 g/m*3 11.4 C 0 km/h
1567 12-05-2009 03:41:25 11.4 C 9.14 g/m*3 11.4 C 0 km/h
1568 12-05-2009 03:56:25 11.3 C 8.98 g/m*3 11.3 C 0 km/h
1569 12-05-2009 04:11:25 11.2 C 8.82 g/m*3 11.2 C 0 km/h
1570 12-05-2009 04:26:25 11.1 C 8.66 g/m*3 11.1 C 0 km/h
1571 12-05-2009 04:41:25 11.1 C 8.56 g/m*3 11.1 C 0 km/h
1572 12-05-2009 04:56:25 11 C 8.41 g/m*3 11 C 0 km/h
1573 12-05-2009 05:11:25 11 C 8.31 g/m*3 11 C 0 km/h
1574 12-05-2009 05:26:26 10.9 C 8.16 g/m*3 10.9 C 0 km/h
1575 12-05-2009 05:41:26 10.8 C 8.01 g/m*3 10.8 C 0 km/h
Sensor: Nr:Datum:Temp:Abs-Feuchte:Windchill:Wind:
Aussen-T/F 1576 12-05-2009 05:56:26 10.6 C 8 g/m*3 10.6 C 0 km/h
1577 12-05-2009 06:11:26 10.6 C 8 g/m*3 10.6 C 0 km/h
1578 12-05-2009 06:26:26 10.7 C 8.05 g/m*3 10.7 C 0 km/h
1579 12-05-2009 06:41:26 10.9 C 8.06 g/m*3 10.9 C 0 km/h
1580 12-05-2009 06:56:26 11.1 C 8.06 g/m*3 11.1 C 0 km/h
1581 12-05-2009 07:11:26 11.4 C 8.11 g/m*3 11.4 C 0 km/h
1582 12-05-2009 07:26:26 11.5 C 8.06 g/m*3 11.5 C 0 km/h
1583 12-05-2009 07:41:26 11.7 C 8.05 g/m*3 11.7 C 0 km/h
1584 12-05-2009 07:56:26 12.1 C 8.04 g/m*3 12.1 C 0 km/h
1585 12-05-2009 08:11:26 12.2 C 7.99 g/m*3 12.2 C 0 km/h
1586 12-05-2009 08:26:26 12.3 C 7.93 g/m*3 12.3 C 0 km/h
1587 12-05-2009 08:41:26 12.6 C 7.97 g/m*3 12.6 C 0 km/h
1588 12-05-2009 08:56:26 12.7 C 8.01 g/m*3 12.7 C 0 km/h
1589 12-05-2009 09:11:26 12.9 C 8 g/m*3 12.9 C 0 km/h
1590 12-05-2009 09:26:26 13.5 C 7.95 g/m*3 13.5 C 0 km/h
1591 12-05-2009 09:41:26 14.1 C 7.77 g/m*3 14.1 C 0 km/h
1592 12-05-2009 09:56:26 13.6 C 7.77 g/m*3 13.6 C 0 km/h
1593 12-05-2009 10:11:27 13.5 C 7.95 g/m*3 13.5 C 0 km/h
1594 12-05-2009 10:26:27 13.2 C 7.92 g/m*3 13.2 C 0 km/h
1595 12-05-2009 10:41:27 12.5 C 8.36 g/m*3 12.5 C 0 km/h
1596 12-05-2009 10:56:27 12 C 8.53 g/m*3 12 C 0 km/h
1597 12-05-2009 11:11:27 11.4 C 8.93 g/m*3 11.4 C 0 km/h
1598 12-05-2009 11:26:27 11.4 C 9.24 g/m*3 11.4 C 0 km/h
1599 12-05-2009 11:41:27 11.6 C 9.46 g/m*3 11.6 C 0 km/h
1600 12-05-2009 11:56:27 11.7 C 9.52 g/m*3 11.7 C 0 km/h
Sensor: Nr:Datum:Temp:Abs-Feuchte:Windchill:Wind:
Aussen-T/F 1601 12-05-2009 12:11:27 11.8 C 9.68 g/m*3 11.8 C 0 km/h
1602 12-05-2009 12:26:27 11.9 C 9.74 g/m*3 11.9 C 0 km/h
1603 12-05-2009 12:41:27 11.7 C 9.62 g/m*3 11.7 C 0 km/h
1604 12-05-2009 12:56:27 11.8 C 9.68 g/m*3 11.8 C 0 km/h
1605 12-05-2009 13:11:27 12.1 C 9.87 g/m*3 12.1 C 0 km/h
1606 12-05-2009 13:26:27 12 C 9.8 g/m*3 12 C 0 km/h
1607 12-05-2009 13:41:27 11.8 C 9.79 g/m*3 11.8 C 0 km/h
1608 12-05-2009 13:56:27 12.1 C 9.97 g/m*3 12.1 C 0 km/h
1609 12-05-2009 14:11:27 12.3 C 10.1 g/m*3 12.3 C 0 km/h
1610 12-05-2009 14:26:27 12 C 9.91 g/m*3 12 C 0 km/h
1611 12-05-2009 14:41:27 11.8 C 9.79 g/m*3 11.8 C 0 km/h
1612 12-05-2009 14:56:28 12.2 C 10.04 g/m*3 12.2 C 0 km/h
1613 12-05-2009 15:11:28 12.3 C 9.99 g/m*3 12.3 C 0 km/h
1614 12-05-2009 15:26:28 12.5 C 9.89 g/m*3 12.5 C 0 km/h
1615 12-05-2009 15:41:28 12.6 C 9.51 g/m*3 12.6 C 0 km/h
1616 12-05-2009 15:56:28 12.5 C 9.35 g/m*3 12.5 C 0 km/h
1617 12-05-2009 16:11:28 12.4 C 9.18 g/m*3 12.4 C 0 km/h
1618 12-05-2009 16:26:28 12.2 C 9.17 g/m*3 12.2 C 0 km/h
1619 12-05-2009 16:41:28 12 C 9.17 g/m*3 12 C 0 km/h
1620 12-05-2009 16:56:28 12 C 9.38 g/m*3 12 C 0 km/h
1621 12-05-2009 17:11:28 11.9 C 9.43 g/m*3 11.9 C 0 km/h
1622 12-05-2009 17:26:28 11.8 C 9.47 g/m*3 11.8 C 0 km/h
1623 12-05-2009 17:41:28 12.1 C 9.54 g/m*3 12.1 C 0 km/h
1624 12-05-2009 17:56:28 12.4 C 9.72 g/m*3 12.4 C 0 km/h
1625 12-05-2009 18:11:28 12.4 C 9.51 g/m*3 12.4 C 0 km/h
Sensor: Nr:Datum:Temp:Abs-Feuchte:Windchill:Wind:
Aussen-T/F 1626 12-05-2009 18:26:28 11.8 C 9.16 g/m*3 11.8 C 0 km/h
1627 12-05-2009 18:41:28 11.7 C 9.31 g/m*3 11.7 C 0 km/h
1628 12-05-2009 18:56:28 11.6 C 9.46 g/m*3 11.6 C 0 km/h
1629 12-05-2009 19:11:28 11.7 C 9.62 g/m*3 11.7 C 0 km/h
1630 12-05-2009 19:26:29 12 C 9.8 g/m*3 12 C 0 km/h
1631 12-05-2009 19:41:29 12.2 C 9.82 g/m*3 12.2 C 0 km/h
1632 12-05-2009 19:56:29 12.3 C 9.88 g/m*3 12.3 C 0 km/h
1633 12-05-2009 20:11:29 12.2 C 9.82 g/m*3 12.2 C 0 km/h
1634 12-05-2009 20:26:29 12.1 C 9.76 g/m*3 12.1 C 0 km/h
1635 12-05-2009 20:41:29 12.1 C 9.65 g/m*3 12.1 C 0 km/h
1636 12-05-2009 20:56:29 11.9 C 9.64 g/m*3 11.9 C 0 km/h
1637 12-05-2009 21:11:29 12 C 9.59 g/m*3 12 C 0 km/h
1638 12-05-2009 21:26:29 11.7 C 9.52 g/m*3 11.7 C 0 km/h
1639 12-05-2009 21:41:29 11.6 C 9.46 g/m*3 11.6 C 0 km/h
1640 12-05-2009 21:56:29 11.6 C 9.46 g/m*3 11.6 C 0 km/h
1641 12-05-2009 22:11:29 11.4 C 9.34 g/m*3 11.4 C 0 km/h
1642 12-05-2009 22:26:29 11.4 C 9.44 g/m*3 11.4 C 0 km/h
1643 12-05-2009 22:41:29 11.4 C 9.44 g/m*3 11.4 C 0 km/h
1644 12-05-2009 22:56:29 11.3 C 9.38 g/m*3 11.3 C 0 km/h
1645 12-05-2009 23:11:29 11.2 C 9.33 g/m*3 11.2 C 0 km/h
1646 12-05-2009 23:26:29 11.1 C 9.27 g/m*3 11.1 C 0 km/h
1647 12-05-2009 23:41:29 11.1 C 9.27 g/m*3 11.1 C 0 km/h
1648 12-05-2009 23:56:29 11 C 9.21 g/m*3 11 C 0 km/h
1649 13-05-2009 00:11:30 11 C 9.21 g/m*3 11 C 0 km/h
1650 13-05-2009 00:26:30 11 C 9.21 g/m*3 11 C 0 km/h
Sensor: Nr:Datum:Temp:Abs-Feuchte:Windchill:Wind:
Aussen-T/F 1651 13-05-2009 00:41:30 10.9 C 9.15 g/m*3 10.9 C 0 km/h
1652 13-05-2009 00:56:30 10.9 C 9.15 g/m*3 10.9 C 0 km/h
1653 13-05-2009 01:11:30 10.8 C 8.99 g/m*3 10.8 C 0 km/h
1654 13-05-2009 01:26:30 10.8 C 8.9 g/m*3 10.8 C 0 km/h
1655 13-05-2009 01:41:30 10.7 C 8.84 g/m*3 10.7 C 0 km/h
1656 13-05-2009 01:56:30 10.7 C 8.84 g/m*3 10.7 C 0 km/h
1657 13-05-2009 02:11:30 10.6 C 8.59 g/m*3 10.6 C 0 km/h
1658 13-05-2009 02:26:30 10.5 C 8.53 g/m*3 10.5 C 0 km/h
1659 13-05-2009 02:41:30 10.5 C 8.53 g/m*3 10.5 C 0 km/h
1660 13-05-2009 02:56:30 10.4 C 8.48 g/m*3 10.4 C 0 km/h
1661 13-05-2009 03:11:30 10.2 C 8.37 g/m*3 10.2 C 0 km/h
1662 13-05-2009 03:26:30 10.2 C 8.28 g/m*3 10.2 C 0 km/h
1663 13-05-2009 03:41:30 10.1 C 8.23 g/m*3 10.1 C 0 km/h
1664 13-05-2009 03:56:30 10.1 C 8.13 g/m*3 10.1 C 0 km/h
1665 13-05-2009 04:11:30 10.2 C 8.18 g/m*3 10.2 C 0 km/h
1666 13-05-2009 04:26:30 10.2 C 8.18 g/m*3 10.2 C 0 km/h
1667 13-05-2009 04:41:30 10.1 C 8.13 g/m*3 10.1 C 0 km/h
1668 13-05-2009 04:56:31 10.1 C 8.13 g/m*3 10.1 C 0 km/h
1669 13-05-2009 05:11:31 10.1 C 8.13 g/m*3 10.1 C 0 km/h
1670 13-05-2009 05:26:31 10.2 C 8.18 g/m*3 10.2 C 0 km/h
1671 13-05-2009 05:41:31 10.1 C 8.13 g/m*3 10.1 C 0 km/h
1672 13-05-2009 05:56:31 10.2 C 8.18 g/m*3 10.2 C 0 km/h
1673 13-05-2009 06:11:31 10.2 C 8.18 g/m*3 10.2 C 0 km/h
1674 13-05-2009 06:26:31 10.3 C 8.24 g/m*3 10.3 C 0 km/h
1675 13-05-2009 06:41:31 10.5 C 8.34 g/m*3 10.5 C 0 km/h
Sensor: Nr:Datum:Temp:Abs-Feuchte:Windchill:Wind:
Aussen-T/F 1676 13-05-2009 06:56:31 10.7 C 8.45 g/m*3 10.7 C 0 km/h
1677 13-05-2009 07:11:31 11 C 8.51 g/m*3 11 C 0 km/h
1678 13-05-2009 07:26:31 11.2 C 8.51 g/m*3 11.2 C 0 km/h
1679 13-05-2009 07:41:31 11.8 C 8.53 g/m*3 11.8 C 0 km/h
1680 13-05-2009 07:56:31 12.4 C 7.65 g/m*3 12.4 C 0 km/h
1681 13-05-2009 08:11:31 12.9 C 7.66 g/m*3 12.9 C 0 km/h
1682 13-05-2009 08:26:31 13 C 7.48 g/m*3 13 C 0 km/h
1683 13-05-2009 08:41:31 13.4 C 7.79 g/m*3 13.4 C 0 km/h
1684 13-05-2009 08:56:31 13.3 C 7.51 g/m*3 13.3 C 0 km/h
1685 13-05-2009 09:11:31 13.4 C 7.56 g/m*3 13.4 C 0 km/h
1686 13-05-2009 09:26:31 13.6 C 7.65 g/m*3 13.6 C 0 km/h
1687 13-05-2009 09:41:32 13.8 C 7.51 g/m*3 13.8 C 0 km/h
1688 13-05-2009 09:56:32 14.1 C 7.4 g/m*3 14.1 C 0 km/h
1689 13-05-2009 10:11:32 15.3 C 7.44 g/m*3 15.3 C 0 km/h
1690 13-05-2009 10:26:32 15.8 C 7.54 g/m*3 15.8 C 0 km/h
1691 13-05-2009 10:41:32 15.9 C 7.31 g/m*3 15.9 C 0 km/h
1692 13-05-2009 10:56:32 16.7 C 7.53 g/m*3 16.7 C 0 km/h
1693 13-05-2009 11:11:32 17.4 C 7.56 g/m*3 17.4 C 0 km/h
1694 13-05-2009 11:26:32 18.8 C 7.73 g/m*3 18.8 C 0 km/h
1695 13-05-2009 11:41:32 19.3 C 7.46 g/m*3 19.3 C 0 km/h
1696 13-05-2009 11:56:32 19.1 C 7.87 g/m*3 19.1 C 0 km/h
1697 13-05-2009 12:11:32 19.5 C 7.72 g/m*3 19.5 C 0 km/h
1698 13-05-2009 12:26:32 20.1 C 7.82 g/m*3 20.1 C 0 km/h
1699 13-05-2009 12:41:32 20.5 C 7.83 g/m*3 20.5 C 0 km/h
1700 13-05-2009 12:56:32 21.1 C 7.55 g/m*3 21.1 C 0 km/h
Sensor: Nr:Datum:Temp:Abs-Feuchte:Windchill:Wind:
Aussen-T/F 1701 13-05-2009 13:11:32 21.3 C 7.83 g/m*3 21.3 C 0 km/h
1702 13-05-2009 13:26:32 21.1 C 7.55 g/m*3 21.1 C 0 km/h
1703 13-05-2009 13:41:32 21.4 C 7.87 g/m*3 21.4 C 0 km/h
1704 13-05-2009 13:56:32 22 C 7.38 g/m*3 22 C 0 km/h
1705 13-05-2009 14:11:32 22.2 C 7.85 g/m*3 22.2 C 0 km/h
1706 13-05-2009 14:26:33 22.4 C 7.94 g/m*3 22.4 C 0 km/h
1707 13-05-2009 14:41:33 22.9 C 7.97 g/m*3 22.9 C 0 km/h
1708 13-05-2009 14:56:33 22.7 C 8.28 g/m*3 22.7 C 0 km/h
1709 13-05-2009 15:11:33 23.3 C 7.74 g/m*3 23.3 C 0 km/h
1710 13-05-2009 15:26:33 22.7 C 8.08 g/m*3 22.7 C 0 km/h
1711 13-05-2009 15:41:33 22.7 C 8.28 g/m*3 22.7 C 0 km/h
1712 13-05-2009 15:56:33 21.7 C 8.2 g/m*3 21.7 C 0 km/h
1713 13-05-2009 16:11:33 22 C 7.96 g/m*3 22 C 0 km/h
1714 13-05-2009 16:26:33 21.1 C 8.48 g/m*3 21.1 C 0 km/h
1715 13-05-2009 16:41:33 20.7 C 9.36 g/m*3 20.7 C 0 km/h
1716 13-05-2009 16:56:33 20.4 C 9.91 g/m*3 20.4 C 0 km/h
1717 13-05-2009 17:11:33 20.2 C 8.74 g/m*3 20.2 C 0 km/h
1718 13-05-2009 17:26:33 19.7 C 9.68 g/m*3 19.7 C 0 km/h
1719 13-05-2009 17:41:33 19.3 C 9.62 g/m*3 19.3 C 0 km/h
1720 13-05-2009 17:56:33 19.1 C 9.18 g/m*3 19.1 C 0 km/h
1721 13-05-2009 18:11:33 19.1 C 9.34 g/m*3 19.1 C 0 km/h
1722 13-05-2009 18:26:33 18.7 C 9.29 g/m*3 18.7 C 0 km/h
1723 13-05-2009 18:41:33 18.3 C 9.22 g/m*3 18.3 C 0 km/h
1724 13-05-2009 18:56:33 18.3 C 9.54 g/m*3 18.3 C 0 km/h
1725 13-05-2009 19:11:34 18.3 C 9.54 g/m*3 18.3 C 0 km/h
Sensor: Nr:Datum:Temp:Abs-Feuchte:Windchill:Wind:
Aussen-T/F 1726 13-05-2009 19:26:34 18.4 C 9.91 g/m*3 18.4 C 0 km/h
1727 13-05-2009 19:41:34 18.5 C 9.97 g/m*3 18.5 C 0 km/h
1728 13-05-2009 19:56:34 18.4 C 10.22 g/m*3 18.4 C 0 km/h
1729 13-05-2009 20:11:34 17.9 C 10.38 g/m*3 17.9 C 0 km/h
1730 13-05-2009 20:26:34 17.5 C 10.29 g/m*3 17.5 C 0 km/h
1731 13-05-2009 20:41:34 17.1 C 10.34 g/m*3 17.1 C 0 km/h
1732 13-05-2009 20:56:34 16.8 C 10.29 g/m*3 16.8 C 0 km/h
1733 13-05-2009 21:11:34 16.2 C 10.07 g/m*3 16.2 C 0 km/h
1734 13-05-2009 21:26:34 15.9 C 10.16 g/m*3 15.9 C 0 km/h
1735 13-05-2009 21:41:34 15.6 C 10.11 g/m*3 15.6 C 0 km/h
1736 13-05-2009 21:56:34 15.1 C 9.93 g/m*3 15.1 C 0 km/h
1737 13-05-2009 22:11:34 14.8 C 10.01 g/m*3 14.8 C 0 km/h
1738 13-05-2009 22:26:34 14.6 C 10.01 g/m*3 14.6 C 0 km/h
1739 13-05-2009 22:41:34 14.5 C 9.95 g/m*3 14.5 C 0 km/h
1740 13-05-2009 22:56:34 14.4 C 10.01 g/m*3 14.4 C 0 km/h
1741 13-05-2009 23:11:34 14.4 C 10.01 g/m*3 14.4 C 0 km/h
1742 13-05-2009 23:26:34 14.2 C 9.89 g/m*3 14.2 C 0 km/h
1743 13-05-2009 23:41:34 14 C 9.89 g/m*3 14 C 0 km/h
1744 13-05-2009 23:56:34 14.1 C 9.95 g/m*3 14.1 C 0 km/h
1745 14-05-2009 00:11:35 14 C 10.01 g/m*3 14 C 0 km/h
1746 14-05-2009 00:26:35 14 C 10.01 g/m*3 14 C 0 km/h
1747 14-05-2009 00:41:35 13.8 C 9.89 g/m*3 13.8 C 0 km/h
1748 14-05-2009 00:56:35 13.8 C 9.89 g/m*3 13.8 C 0 km/h
1749 14-05-2009 01:11:35 13.7 C 9.83 g/m*3 13.7 C 0 km/h
1750 14-05-2009 01:26:35 13.5 C 9.71 g/m*3 13.5 C 0 km/h
Sensor: Nr:Datum:Temp:Abs-Feuchte:Windchill:Wind:
Aussen-T/F 1751 14-05-2009 01:41:35 13.4 C 9.65 g/m*3 13.4 C 0 km/h
1752 14-05-2009 01:56:35 13.2 C 9.53 g/m*3 13.2 C 0 km/h
1753 14-05-2009 02:11:35 13.1 C 9.59 g/m*3 13.1 C 0 km/h
1754 14-05-2009 02:26:35 13 C 9.53 g/m*3 13 C 0 km/h
1755 14-05-2009 02:41:35 12.9 C 9.58 g/m*3 12.9 C 0 km/h
1756 14-05-2009 02:56:35 13 C 9.53 g/m*3 13 C 0 km/h
1757 14-05-2009 03:11:35 13.3 C 9.7 g/m*3 13.3 C 0 km/h
1758 14-05-2009 03:26:35 13.4 C 9.65 g/m*3 13.4 C 0 km/h
1759 14-05-2009 03:41:35 13.2 C 9.42 g/m*3 13.2 C 0 km/h
1760 14-05-2009 03:56:35 13.1 C 9.36 g/m*3 13.1 C 0 km/h
1761 14-05-2009 04:11:35 13.1 C 9.13 g/m*3 13.1 C 0 km/h
1762 14-05-2009 04:26:35 13.2 C 8.84 g/m*3 13.2 C 0 km/h
1763 14-05-2009 04:41:35 13.4 C 8.6 g/m*3 13.4 C 0 km/h
1764 14-05-2009 04:56:36 13.4 C 8.49 g/m*3 13.4 C 0 km/h
1765 14-05-2009 05:11:36 13.5 C 8.66 g/m*3 13.5 C 0 km/h
1766 14-05-2009 05:26:36 13.5 C 8.54 g/m*3 13.5 C 0 km/h
1767 14-05-2009 05:41:36 13.4 C 8.72 g/m*3 13.4 C 0 km/h
1768 14-05-2009 05:56:36 13.3 C 8.66 g/m*3 13.3 C 0 km/h
1769 14-05-2009 06:11:36 13.2 C 8.73 g/m*3 13.2 C 0 km/h
1770 14-05-2009 06:26:36 13.3 C 8.66 g/m*3 13.3 C 0 km/h
1771 14-05-2009 06:41:36 13.4 C 8.6 g/m*3 13.4 C 0 km/h
1772 14-05-2009 06:56:36 13.6 C 8.36 g/m*3 13.6 C 0 km/h
1773 14-05-2009 07:11:36 13.7 C 8.64 g/m*3 13.7 C 0 km/h
1774 14-05-2009 07:26:36 13.8 C 8.82 g/m*3 13.8 C 0 km/h
1775 14-05-2009 07:41:36 13.8 C 8.82 g/m*3 13.8 C 0 km/h
Sensor: Nr:Datum:Temp:Abs-Feuchte:Windchill:Wind:
Aussen-T/F 1776 14-05-2009 07:56:36 13.7 C 8.76 g/m*3 13.7 C 0 km/h
1777 14-05-2009 08:11:36 13.7 C 8.76 g/m*3 13.7 C 0 km/h
1778 14-05-2009 08:26:36 13.9 C 8.75 g/m*3 13.9 C 0 km/h
1779 14-05-2009 08:41:36 14.4 C 8.53 g/m*3 14.4 C 0 km/h
1780 14-05-2009 08:56:36 14.5 C 8.71 g/m*3 14.5 C 0 km/h
1781 14-05-2009 09:11:36 14.7 C 8.81 g/m*3 14.7 C 0 km/h
1782 14-05-2009 09:26:36 15 C 8.59 g/m*3 15 C 0 km/h
1783 14-05-2009 09:41:37 15.1 C 7.74 g/m*3 15.1 C 0 km/h
1784 14-05-2009 09:56:37 15.5 C 8.06 g/m*3 15.5 C 0 km/h
1785 14-05-2009 10:11:37 15.5 C 8.06 g/m*3 15.5 C 0 km/h
1786 14-05-2009 10:26:37 15.5 C 8.46 g/m*3 15.5 C 0 km/h
1787 14-05-2009 10:41:37 15.6 C 8.11 g/m*3 15.6 C 0 km/h
1788 14-05-2009 10:56:37 15.6 C 7.98 g/m*3 15.6 C 0 km/h
1789 14-05-2009 11:11:37 15.8 C 7.94 g/m*3 15.8 C 0 km/h
1790 14-05-2009 11:26:37 16.3 C 8.19 g/m*3 16.3 C 0 km/h
1791 14-05-2009 11:41:37 16.9 C 8.2 g/m*3 16.9 C 0 km/h
1792 14-05-2009 11:56:37 17.2 C 8.2 g/m*3 17.2 C 0 km/h
1793 14-05-2009 12:11:37 17 C 8.39 g/m*3 17 C 0 km/h
1794 14-05-2009 12:26:37 17 C 8.54 g/m*3 17 C 0 km/h
1795 14-05-2009 12:41:37 17.4 C 8.45 g/m*3 17.4 C 0 km/h
1796 14-05-2009 12:56:37 17.5 C 8.8 g/m*3 17.5 C 0 km/h
1797 14-05-2009 13:11:37 17.5 C 8.65 g/m*3 17.5 C 0 km/h
1798 14-05-2009 13:26:37 17.9 C 8.7 g/m*3 17.9 C 0 km/h
1799 14-05-2009 13:41:37 18.4 C 8.65 g/m*3 18.4 C 0 km/h
1800 14-05-2009 13:56:37 18.9 C 8.59 g/m*3 18.9 C 0 km/h
Sensor: Nr:Datum:Temp:Abs-Feuchte:Windchill:Wind:
Aussen-T/F 1801 14-05-2009 14:11:37 19.9 C 8.42 g/m*3 19.9 C 0 km/h
1802 14-05-2009 14:26:38 21.1 C 8.29 g/m*3 21.1 C 0 km/h
1803 14-05-2009 14:41:38 21.5 C 8.11 g/m*3 21.5 C 0 km/h
1804 14-05-2009 14:56:38 22.3 C 7.9 g/m*3 22.3 C 0 km/h
1805 14-05-2009 15:11:38 21.2 C 8.34 g/m*3 21.2 C 0 km/h
1806 14-05-2009 15:26:38 21.1 C 8.29 g/m*3 21.1 C 0 km/h
1807 14-05-2009 15:41:38 22 C 8.54 g/m*3 22 C 0 km/h
1808 14-05-2009 15:56:38 24.9 C 8.01 g/m*3 24.9 C 0 km/h
1809 14-05-2009 16:11:38 25.4 C 7.53 g/m*3 25.4 C 0 km/h
1810 14-05-2009 16:26:38 23 C 7.81 g/m*3 23 C 0 km/h
1811 14-05-2009 16:41:38 21.8 C 8.44 g/m*3 21.8 C 0 km/h
1812 14-05-2009 16:56:38 20.5 C 8.54 g/m*3 20.5 C 0 km/h
1813 14-05-2009 17:11:38 20.2 C 8.57 g/m*3 20.2 C 0 km/h
1814 14-05-2009 17:26:38 19.6 C 8.95 g/m*3 19.6 C 0 km/h
1815 14-05-2009 17:41:38 19.6 C 8.95 g/m*3 19.6 C 0 km/h
1816 14-05-2009 17:56:38 19.3 C 9.29 g/m*3 19.3 C 0 km/h
1817 14-05-2009 18:11:38 19.1 C 9.51 g/m*3 19.1 C 0 km/h
1818 14-05-2009 18:26:38 19 C 9.13 g/m*3 19 C 0 km/h
1819 14-05-2009 18:41:38 18.9 C 9.56 g/m*3 18.9 C 0 km/h
1820 14-05-2009 18:56:38 18.7 C 9.77 g/m*3 18.7 C 0 km/h
1821 14-05-2009 19:11:39 18.3 C 9.38 g/m*3 18.3 C 0 km/h
1822 14-05-2009 19:26:39 18 C 9.52 g/m*3 18 C 0 km/h
1823 14-05-2009 19:41:39 17.4 C 9.93 g/m*3 17.4 C 0 km/h
1824 14-05-2009 19:56:39 16.4 C 10.61 g/m*3 16.4 C 0 km/h
1825 14-05-2009 20:11:39 16 C 11.04 g/m*3 16 C 0 km/h
Sensor: Nr:Datum:Temp:Abs-Feuchte:Windchill:Wind:
Aussen-T/F 1826 14-05-2009 20:26:39 15.6 C 11.3 g/m*3 15.6 C 0 km/h
1827 14-05-2009 20:41:39 15.6 C 11.44 g/m*3 15.6 C 0 km/h
1828 14-05-2009 20:56:39 15.3 C 11.36 g/m*3 15.3 C 0 km/h
1829 14-05-2009 21:11:39 15.3 C 11.49 g/m*3 15.3 C 0 km/h
1830 14-05-2009 21:26:39 15.1 C 11.35 g/m*3 15.1 C 0 km/h
1831 14-05-2009 21:41:39 15 C 11.41 g/m*3 15 C 0 km/h
1832 14-05-2009 21:56:39 14.5 C 11.19 g/m*3 14.5 C 0 km/h
1833 14-05-2009 22:11:39 14.1 C 10.92 g/m*3 14.1 C 0 km/h
1834 14-05-2009 22:26:39 14 C 10.98 g/m*3 14 C 0 km/h
1835 14-05-2009 22:41:39 13.6 C 10.83 g/m*3 13.6 C 0 km/h
1836 14-05-2009 22:56:39 13.6 C 10.83 g/m*3 13.6 C 0 km/h
1837 14-05-2009 23:11:39 13.3 C 10.74 g/m*3 13.3 C 0 km/h
1838 14-05-2009 23:26:39 13.2 C 10.68 g/m*3 13.2 C 0 km/h
1839 14-05-2009 23:41:39 13.2 C 10.68 g/m*3 13.2 C 0 km/h
1840 14-05-2009 23:56:40 13 C 10.55 g/m*3 13 C 0 km/h
1841 15-05-2009 00:11:40 12.9 C 10.59 g/m*3 12.9 C 0 km/h
1842 15-05-2009 00:26:40 12.9 C 10.59 g/m*3 12.9 C 0 km/h
1843 15-05-2009 00:41:40 12.7 C 10.46 g/m*3 12.7 C 0 km/h
1844 15-05-2009 00:56:40 12.8 C 10.53 g/m*3 12.8 C 0 km/h
1845 15-05-2009 01:11:40 12.9 C 10.59 g/m*3 12.9 C 0 km/h
1846 15-05-2009 01:26:40 13 C 10.43 g/m*3 13 C 0 km/h
1847 15-05-2009 01:41:40 13.1 C 10.5 g/m*3 13.1 C 0 km/h
1848 15-05-2009 01:56:40 13 C 10.43 g/m*3 13 C 0 km/h
1849 15-05-2009 02:11:40 13.1 C 10.38 g/m*3 13.1 C 0 km/h
1850 15-05-2009 02:26:40 13.1 C 10.38 g/m*3 13.1 C 0 km/h
Sensor: Nr:Datum:Temp:Abs-Feuchte:Windchill:Wind:
Aussen-T/F 1851 15-05-2009 02:41:40 13.1 C 10.38 g/m*3 13.1 C 0 km/h
1852 15-05-2009 02:56:40 13.1 C 10.38 g/m*3 13.1 C 0 km/h
1853 15-05-2009 03:11:40 13.1 C 10.38 g/m*3 13.1 C 0 km/h
1854 15-05-2009 03:26:40 13.2 C 10.45 g/m*3 13.2 C 0 km/h
1855 15-05-2009 03:41:40 13.3 C 10.51 g/m*3 13.3 C 0 km/h
1856 15-05-2009 03:56:40 13.2 C 10.45 g/m*3 13.2 C 0 km/h
1857 15-05-2009 04:11:40 13.4 C 10.69 g/m*3 13.4 C 0 km/h
1858 15-05-2009 04:26:40 13.4 C 10.58 g/m*3 13.4 C 0 km/h
1859 15-05-2009 04:41:41 13.4 C 10.58 g/m*3 13.4 C 0 km/h
1860 15-05-2009 04:56:41 13.4 C 10.69 g/m*3 13.4 C 0 km/h
1861 15-05-2009 05:11:41 13.5 C 10.76 g/m*3 13.5 C 0 km/h
1862 15-05-2009 05:26:41 13.6 C 10.83 g/m*3 13.6 C 0 km/h
1863 15-05-2009 05:41:41 13.7 C 10.89 g/m*3 13.7 C 0 km/h
1864 15-05-2009 05:56:41 13.8 C 10.96 g/m*3 13.8 C 0 km/h
1865 15-05-2009 06:11:41 13.7 C 10.78 g/m*3 13.7 C 0 km/h
1866 15-05-2009 06:26:41 13.8 C 10.84 g/m*3 13.8 C 0 km/h
1867 15-05-2009 06:41:41 14.1 C 11.04 g/m*3 14.1 C 0 km/h
1868 15-05-2009 06:56:41 14.4 C 11.13 g/m*3 14.4 C 0 km/h
1869 15-05-2009 07:11:41 14.6 C 11.26 g/m*3 14.6 C 0 km/h
1870 15-05-2009 07:26:41 14.6 C 11.14 g/m*3 14.6 C 0 km/h
1871 15-05-2009 07:41:41 14.7 C 11.21 g/m*3 14.7 C 0 km/h
1872 15-05-2009 07:56:41 15 C 11.41 g/m*3 15 C 0 km/h
1873 15-05-2009 08:11:41 15.8 C 12.11 g/m*3 15.8 C 0 km/h
1874 15-05-2009 08:26:41 16.3 C 11.93 g/m*3 16.3 C 0 km/h
1875 15-05-2009 08:41:41 16.4 C 11.17 g/m*3 16.4 C 0 km/h
Sensor: Nr:Datum:Temp:Abs-Feuchte:Windchill:Wind:
Aussen-T/F 1876 15-05-2009 08:56:41 16.5 C 10.67 g/m*3 16.5 C 0 km/h
1877 15-05-2009 09:11:41 16.7 C 10.8 g/m*3 16.7 C 0 km/h
1878 15-05-2009 09:26:41 16.7 C 10.23 g/m*3 16.7 C 0 km/h
1879 15-05-2009 09:41:42 16.8 C 10.29 g/m*3 16.8 C 0 km/h
1880 15-05-2009 09:56:02 17.2 C 9.96 g/m*3 17.2 C 0 km/h
1881 15-05-2009 10:11:01 17.1 C 9.9 g/m*3 17.1 C 0 km/h
1882 15-05-2009 10:26:02 17.9 C 9.77 g/m*3 17.9 C 0 km/h
1883 15-05-2009 10:41:02 18.4 C 9.59 g/m*3 18.4 C 0 km/h
1884 15-05-2009 10:56:01 18.6 C 9.71 g/m*3 18.6 C 0 km/h
1885 15-05-2009 11:11:02 19.3 C 9.29 g/m*3 19.3 C 0 km/h
1886 15-05-2009 11:26:02 20.1 C 9.04 g/m*3 20.1 C 0 km/h
1887 15-05-2009 11:41:01 20.6 C 9.31 g/m*3 20.6 C 0 km/h
1888 15-05-2009 11:56:01 20.6 C 8.95 g/m*3 20.6 C 0 km/h
1889 15-05-2009 12:11:01 19.9 C 8.59 g/m*3 19.9 C 0 km/h
1890 15-05-2009 12:26:00 20 C 8.64 g/m*3 20 C 0 km/h
1891 15-05-2009 12:41:00 20.4 C 8.49 g/m*3 20.4 C 0 km/h
1892 15-05-2009 12:56:00 19.2 C 8.9 g/m*3 19.2 C 0 km/h
1893 15-05-2009 13:11:00 17.5 C 9.84 g/m*3 17.5 C 0 km/h
1894 15-05-2009 13:26:00 17 C 10.42 g/m*3 17 C 0 km/h
1895 15-05-2009 13:41:00 17.5 C 10.59 g/m*3 17.5 C 0 km/h
1896 15-05-2009 13:56:59 18.2 C 10.26 g/m*3 18.2 C 0 km/h
1897 15-05-2009 14:10:59 17.8 C 9.71 g/m*3 17.8 C 0 km/h
1898 15-05-2009 14:26:00 17.9 C 10.08 g/m*3 17.9 C 0 km/h
1899 15-05-2009 14:41:59 17.3 C 9.87 g/m*3 17.3 C 0 km/h
1900 15-05-2009 14:56:59 16.9 C 9.49 g/m*3 16.9 C 0 km/h
Sensor: Nr:Datum:Temp:Abs-Feuchte:Windchill:Wind:
Aussen-T/F 1901 15-05-2009 15:11:59 16.5 C 9.97 g/m*3 16.5 C 0 km/h
1902 15-05-2009 15:26:59 15.9 C 10.43 g/m*3 15.9 C 0 km/h
1903 15-05-2009 15:41:58 16.7 C 11.23 g/m*3 16.7 C 0 km/h
1904 15-05-2009 15:56:59 17.6 C 11.4 g/m*3 17.6 C 0 km/h
1905 15-05-2009 16:11:59 18.3 C 10.94 g/m*3 18.3 C 0 km/h
1906 15-05-2009 16:26:58 18.4 C 10.7 g/m*3 18.4 C 0 km/h
1907 15-05-2009 16:41:58 18.2 C 10.72 g/m*3 18.2 C 0 km/h
1908 15-05-2009 16:56:58 18.3 C 10.79 g/m*3 18.3 C 0 km/h
1909 15-05-2009 17:11:58 18 C 10.75 g/m*3 18 C 0 km/h
1910 15-05-2009 17:26:57 16.3 C 9.43 g/m*3 16.3 C 0 km/h
1911 15-05-2009 17:41:57 16.4 C 10.05 g/m*3 16.4 C 0 km/h
1912 15-05-2009 17:49:57 16.2 C 10.2 g/m*3 16.2 C 0 km/h
1913 15-05-2009 18:01:57 15.9 C 10.16 g/m*3 15.9 C 0 km/h
1914 15-05-2009 18:13:57 15.7 C 10.17 g/m*3 15.7 C 0 km/h
1915 15-05-2009 18:25:57 15.5 C 9.91 g/m*3 15.5 C 0 km/h
1916 15-05-2009 18:37:56 15.3 C 9.92 g/m*3 15.3 C 0 km/h
1917 15-05-2009 18:49:57 14.5 C 9.33 g/m*3 14.5 C 0 km/h
1918 15-05-2009 19:01:56 14.1 C 9.22 g/m*3 14.1 C 0 km/h
1919 15-05-2009 19:13:56 13.8 C 9.41 g/m*3 13.8 C 0 km/h
1920 15-05-2009 19:25:56 13.7 C 9.59 g/m*3 13.7 C 0 km/h
1921 15-05-2009 19:37:57 13.5 C 9.71 g/m*3 13.5 C 0 km/h
1922 15-05-2009 19:49:56 13.5 C 9.83 g/m*3 13.5 C 0 km/h
1923 15-05-2009 20:01:56 13.5 C 9.83 g/m*3 13.5 C 0 km/h
1924 15-05-2009 20:13:56 13.3 C 9.82 g/m*3 13.3 C 0 km/h
1925 15-05-2009 20:25:56 13.2 C 9.76 g/m*3 13.2 C 0 km/h
Sensor: Nr:Datum:Temp:Abs-Feuchte:Windchill:Wind:
Aussen-T/F 1926 15-05-2009 20:37:56 13.2 C 9.76 g/m*3 13.2 C 0 km/h
1927 15-05-2009 20:49:55 13.1 C 9.81 g/m*3 13.1 C 0 km/h
1928 15-05-2009 21:01:56 12.8 C 9.74 g/m*3 12.8 C 0 km/h
1929 15-05-2009 21:13:56 12.7 C 9.8 g/m*3 12.7 C 0 km/h
1930 15-05-2009 21:25:55 12.5 C 9.68 g/m*3 12.5 C 0 km/h
1931 15-05-2009 21:37:55 12.5 C 9.78 g/m*3 12.5 C 0 km/h
1932 15-05-2009 21:49:55 12.5 C 9.78 g/m*3 12.5 C 0 km/h
1933 15-05-2009 22:01:55 12.5 C 9.89 g/m*3 12.5 C 0 km/h
1934 15-05-2009 22:13:55 12.5 C 9.89 g/m*3 12.5 C 0 km/h
1935 15-05-2009 22:25:55 12.5 C 10 g/m*3 12.5 C 0 km/h
1936 15-05-2009 22:37:54 12.5 C 10 g/m*3 12.5 C 0 km/h
1937 15-05-2009 22:49:55 12.6 C 10.07 g/m*3 12.6 C 0 km/h
1938 15-05-2009 23:01:54 12.6 C 10.07 g/m*3 12.6 C 0 km/h
1939 15-05-2009 23:13:54 12.5 C 10 g/m*3 12.5 C 0 km/h
1940 15-05-2009 23:25:54 12.4 C 9.94 g/m*3 12.4 C 0 km/h
1941 15-05-2009 23:37:54 12.2 C 9.71 g/m*3 12.2 C 0 km/h
1942 15-05-2009 23:49:54 12.4 C 9.4 g/m*3 12.4 C 0 km/h
1943 16-05-2009 00:01:53 12.4 C 8.96 g/m*3 12.4 C 0 km/h
1944 16-05-2009 00:13:53 12.3 C 8.8 g/m*3 12.3 C 0 km/h
1945 16-05-2009 00:25:54 12.3 C 8.9 g/m*3 12.3 C 0 km/h
1946 16-05-2009 00:37:53 12.3 C 8.9 g/m*3 12.3 C 0 km/h
1947 16-05-2009 00:49:54 12.2 C 8.74 g/m*3 12.2 C 0 km/h
1948 16-05-2009 01:01:53 12.1 C 8.58 g/m*3 12.1 C 0 km/h
1949 16-05-2009 01:13:53 12 C 8.63 g/m*3 12 C 0 km/h
1950 16-05-2009 01:25:53 11.4 C 8.52 g/m*3 11.4 C 0 km/h
Sensor: Nr:Datum:Temp:Abs-Feuchte:Windchill:Wind:
Aussen-T/F 1951 16-05-2009 01:37:52 11.1 C 8.46 g/m*3 11.1 C 0 km/h
1952 16-05-2009 01:49:53 10.8 C 8.3 g/m*3 10.8 C 0 km/h
1953 16-05-2009 02:01:53 10.5 C 8.05 g/m*3 10.5 C 0 km/h
1954 16-05-2009 02:13:53 10.3 C 8.04 g/m*3 10.3 C 0 km/h
1955 16-05-2009 02:25:52 10 C 7.89 g/m*3 10 C 0 km/h
1956 16-05-2009 02:37:53 9.7 C 8.02 g/m*3 9.7 C 0 km/h
1957 16-05-2009 02:50:53 9.6 C 8.06 g/m*3 9.6 C 0 km/h
1958 16-05-2009 03:02:53 9.6 C 8.15 g/m*3 9.6 C 0 km/h
1959 16-05-2009 03:14:54 9.4 C 8.05 g/m*3 9.4 C 0 km/h
1960 16-05-2009 03:26:54 9.3 C 8 g/m*3 9.3 C 0 km/h
1961 16-05-2009 03:38:53 9.3 C 8.09 g/m*3 9.3 C 0 km/h
1962 16-05-2009 03:50:53 9.2 C 8.04 g/m*3 9.2 C 0 km/h
1963 16-05-2009 04:02:53 9.1 C 7.99 g/m*3 9.1 C 0 km/h
1964 16-05-2009 04:14:53 9.1 C 7.99 g/m*3 9.1 C 0 km/h
1965 16-05-2009 04:26:53 9.4 C 8.05 g/m*3 9.4 C 0 km/h
1966 16-05-2009 04:38:53 9.4 C 7.96 g/m*3 9.4 C 0 km/h
1967 16-05-2009 04:50:53 8.9 C 7.8 g/m*3 8.9 C 0 km/h
1968 16-05-2009 05:02:52 8.7 C 7.7 g/m*3 8.7 C 0 km/h
1969 16-05-2009 05:14:52 8.4 C 7.55 g/m*3 8.4 C 0 km/h
1970 16-05-2009 05:26:52 8.3 C 7.5 g/m*3 8.3 C 0 km/h
1971 16-05-2009 05:38:52 8.2 C 7.45 g/m*3 8.2 C 0 km/h
1972 16-05-2009 05:50:52 8.1 C 7.41 g/m*3 8.1 C 0 km/h
1973 16-05-2009 06:02:52 8 C 7.36 g/m*3 8 C 0 km/h
1974 16-05-2009 06:14:51 8 C 7.36 g/m*3 8 C 0 km/h
1975 16-05-2009 06:26:51 8 C 7.36 g/m*3 8 C 0 km/h
Sensor: Nr:Datum:Temp:Abs-Feuchte:Windchill:Wind:
Aussen-T/F 1976 16-05-2009 06:38:52 8.2 C 7.45 g/m*3 8.2 C 0 km/h
1977 16-05-2009 06:50:51 8.4 C 7.47 g/m*3 8.4 C 0 km/h
1978 16-05-2009 07:02:52 8.6 C 7.48 g/m*3 8.6 C 0 km/h
1979 16-05-2009 07:14:51 8.9 C 7.45 g/m*3 8.9 C 0 km/h
1980 16-05-2009 07:26:51 8.9 C 7.53 g/m*3 8.9 C 0 km/h
1981 16-05-2009 07:38:51 9 C 7.58 g/m*3 9 C 0 km/h
1982 16-05-2009 07:50:51 9.2 C 7.59 g/m*3 9.2 C 0 km/h
1983 16-05-2009 08:02:51 9.5 C 7.65 g/m*3 9.5 C 0 km/h
1984 16-05-2009 08:14:50 9.8 C 7.7 g/m*3 9.8 C 0 km/h
1985 16-05-2009 08:26:50 10.7 C 7.37 g/m*3 10.7 C 0 km/h
1986 16-05-2009 08:38:50 10.9 C 6.96 g/m*3 10.9 C 0 km/h
1987 16-05-2009 08:50:50 10.9 C 7.06 g/m*3 10.9 C 0 km/h
1988 16-05-2009 09:02:50 10.9 C 7.06 g/m*3 10.9 C 0 km/h
1989 16-05-2009 09:14:50 11.2 C 7.2 g/m*3 11.2 C 0 km/h
1990 16-05-2009 09:26:50 11.7 C 7.22 g/m*3 11.7 C 0 km/h
1991 16-05-2009 09:38:50 12 C 7.14 g/m*3 12 C 0 km/h
1992 16-05-2009 09:50:50 12.6 C 7.19 g/m*3 12.6 C 0 km/h
1993 16-05-2009 10:02:49 12.4 C 6.99 g/m*3 12.4 C 0 km/h
1994 16-05-2009 10:14:49 12.8 C 6.61 g/m*3 12.8 C 0 km/h
1995 16-05-2009 10:26:49 12.8 C 6.61 g/m*3 12.8 C 0 km/h
1996 16-05-2009 10:38:49 13.6 C 6.59 g/m*3 13.6 C 0 km/h
1997 16-05-2009 10:50:49 13.8 C 6.2 g/m*3 13.8 C 0 km/h
1998 16-05-2009 11:02:48 13.7 C 6.39 g/m*3 13.7 C 0 km/h
1999 16-05-2009 11:14:49 13.6 C 6.24 g/m*3 13.6 C 0 km/h
2000 16-05-2009 11:26:49 13.6 C 6.24 g/m*3 13.6 C 0 km/h
Sensor: Nr:Datum:Temp:Abs-Feuchte:Windchill:Wind:
Aussen-T/F 2001 16-05-2009 11:38:49 14.1 C 6.07 g/m*3 14.1 C 0 km/h
2002 16-05-2009 11:50:48 14.6 C 6.13 g/m*3 14.6 C 0 km/h
2003 16-05-2009 12:02:49 15.8 C 6.19 g/m*3 15.8 C 0 km/h
2004 16-05-2009 12:14:48 15.8 C 5.65 g/m*3 15.8 C 0 km/h
2005 16-05-2009 12:26:48 16.2 C 5.52 g/m*3 16.2 C 0 km/h
2006 16-05-2009 12:38:48 17 C 5.5 g/m*3 17 C 0 km/h
2007 16-05-2009 12:50:48 16.7 C 5.12 g/m*3 16.7 C 0 km/h
2008 16-05-2009 13:02:48 16.8 C 5.29 g/m*3 16.8 C 0 km/h
2009 16-05-2009 13:14:47 16.4 C 5.16 g/m*3 16.4 C 0 km/h
2010 16-05-2009 13:26:47 15.8 C 5.52 g/m*3 15.8 C 0 km/h
2011 16-05-2009 13:38:47 16.6 C 5.65 g/m*3 16.6 C 0 km/h
2012 16-05-2009 13:50:47 17.1 C 5.39 g/m*3 17.1 C 0 km/h
2013 16-05-2009 14:02:47 17.7 C 5.43 g/m*3 17.7 C 0 km/h
2014 16-05-2009 14:14:47 17.1 C 5.39 g/m*3 17.1 C 0 km/h
2015 16-05-2009 14:26:47 17 C 5.5 g/m*3 17 C 0 km/h
2016 16-05-2009 14:38:47 17.4 C 5.48 g/m*3 17.4 C 0 km/h
2017 16-05-2009 14:50:47 17.4 C 5.48 g/m*3 17.4 C 0 km/h
2018 16-05-2009 15:02:46 17.8 C 5.77 g/m*3 17.8 C 0 km/h
2019 16-05-2009 15:14:46 18.2 C 5.75 g/m*3 18.2 C 0 km/h
2020 16-05-2009 15:26:46 17.6 C 5.55 g/m*3 17.6 C 0 km/h
2021 16-05-2009 15:38:47 17.8 C 5.77 g/m*3 17.8 C 0 km/h
2022 16-05-2009 15:50:46 17.6 C 6 g/m*3 17.6 C 0 km/h
2023 16-05-2009 16:02:46 17.4 C 5.93 g/m*3 17.4 C 0 km/h
2024 16-05-2009 16:14:46 17.7 C 6.04 g/m*3 17.7 C 0 km/h
2025 16-05-2009 16:26:46 17.7 C 6.04 g/m*3 17.7 C 0 km/h
Sensor: Nr:Datum:Temp:Abs-Feuchte:Windchill:Wind:
Aussen-T/F 2026 16-05-2009 16:38:46 19.1 C 5.9 g/m*3 19.1 C 0 km/h
2027 16-05-2009 16:50:45 19 C 5.7 g/m*3 19 C 0 km/h
2028 16-05-2009 17:02:46 19.1 C 6.07 g/m*3 19.1 C 0 km/h
2029 16-05-2009 17:14:45 18.7 C 5.92 g/m*3 18.7 C 0 km/h
2030 16-05-2009 17:26:45 18.2 C 5.91 g/m*3 18.2 C 0 km/h
2031 16-05-2009 17:38:45 18.5 C 6.01 g/m*3 18.5 C 0 km/h
2032 16-05-2009 17:50:45 18.2 C 6.06 g/m*3 18.2 C 0 km/h
2033 16-05-2009 18:02:45 20.4 C 5.84 g/m*3 20.4 C 0 km/h
2034 16-05-2009 18:14:45 20.7 C 5.76 g/m*3 20.7 C 0 km/h
2035 16-05-2009 18:26:45 20.9 C 5.83 g/m*3 20.9 C 0 km/h
2036 16-05-2009 18:38:48 21 C 5.68 g/m*3 21 C 0 km/h
2037 16-05-2009 18:50:44 20.7 C 6.12 g/m*3 20.7 C 0 km/h
2038 16-05-2009 19:02:44 21.6 C 6.07 g/m*3 21.6 C 0 km/h
2039 16-05-2009 19:14:44 20.8 C 6.16 g/m*3 20.8 C 0 km/h
2040 16-05-2009 19:26:44 20.7 C 5.94 g/m*3 20.7 C 0 km/h
2041 16-05-2009 19:38:44 20.2 C 6.29 g/m*3 20.2 C 0 km/h
2042 16-05-2009 19:50:43 19.3 C 7.13 g/m*3 19.3 C 0 km/h
2043 16-05-2009 20:02:44 18.7 C 7.2 g/m*3 18.7 C 0 km/h
2044 16-05-2009 20:14:44 17.7 C 7.69 g/m*3 17.7 C 0 km/h
2045 16-05-2009 20:26:44 17.3 C 7.96 g/m*3 17.3 C 0 km/h
2046 16-05-2009 20:38:43 16.7 C 7.82 g/m*3 16.7 C 0 km/h
2047 16-05-2009 20:50:44 16.1 C 7.54 g/m*3 16.1 C 0 km/h
2048 16-05-2009 21:02:43 15.6 C 7.71 g/m*3 15.6 C 0 km/h
2049 16-05-2009 21:14:43 15.2 C 7.4 g/m*3 15.2 C 0 km/h
2050 16-05-2009 21:26:43 14.4 C 7.54 g/m*3 14.4 C 0 km/h
Sensor: Nr:Datum:Temp:Abs-Feuchte:Windchill:Wind:
Aussen-T/F 2051 16-05-2009 21:38:42 14.1 C 7.52 g/m*3 14.1 C 0 km/h
2052 16-05-2009 21:50:43 13.5 C 7.49 g/m*3 13.5 C 0 km/h
2053 16-05-2009 22:02:43 13.3 C 7.51 g/m*3 13.3 C 0 km/h
2054 16-05-2009 22:14:42 13.3 C 7.51 g/m*3 13.3 C 0 km/h
2055 16-05-2009 22:26:42 13.2 C 7.81 g/m*3 13.2 C 0 km/h
2056 16-05-2009 22:38:43 13.1 C 7.76 g/m*3 13.1 C 0 km/h
2057 16-05-2009 22:50:42 13.1 C 7.65 g/m*3 13.1 C 0 km/h
2058 16-05-2009 23:02:42 13.1 C 7.65 g/m*3 13.1 C 0 km/h
2059 16-05-2009 23:14:41 13.2 C 7.81 g/m*3 13.2 C 0 km/h
2060 16-05-2009 23:26:41 13.5 C 7.49 g/m*3 13.5 C 0 km/h
2061 16-05-2009 23:38:42 13.8 C 7.39 g/m*3 13.8 C 0 km/h
2062 16-05-2009 23:50:41 14 C 7.12 g/m*3 14 C 0 km/h
2063 17-05-2009 00:02:41 14 C 7 g/m*3 14 C 0 km/h
2064 17-05-2009 00:14:41 13.9 C 7.19 g/m*3 13.9 C 0 km/h
2065 17-05-2009 00:26:41 13.9 C 7.31 g/m*3 13.9 C 0 km/h
2066 17-05-2009 00:38:41 13.9 C 7.31 g/m*3 13.9 C 0 km/h
2067 17-05-2009 00:50:41 13.6 C 7.41 g/m*3 13.6 C 0 km/h
2068 17-05-2009 01:02:41 13.4 C 7.32 g/m*3 13.4 C 0 km/h
2069 17-05-2009 01:14:40 13.5 C 7.37 g/m*3 13.5 C 0 km/h
2070 17-05-2009 01:26:40 13.7 C 7.22 g/m*3 13.7 C 0 km/h
2071 17-05-2009 01:38:41 13.6 C 7.3 g/m*3 13.6 C 0 km/h
2072 17-05-2009 01:50:40 13.4 C 7.21 g/m*3 13.4 C 0 km/h
2073 17-05-2009 02:02:40 13.6 C 7.3 g/m*3 13.6 C 0 km/h
2074 17-05-2009 02:14:40 13.5 C 7.37 g/m*3 13.5 C 0 km/h
2075 17-05-2009 02:26:40 13.2 C 7.35 g/m*3 13.2 C 0 km/h
Sensor: Nr:Datum:Temp:Abs-Feuchte:Windchill:Wind:
Aussen-T/F 2076 17-05-2009 02:38:40 13.1 C 7.42 g/m*3 13.1 C 0 km/h
2077 17-05-2009 02:51:01 12.8 C 7.5 g/m*3 12.8 C 0 km/h
2078 17-05-2009 03:03:01 12.6 C 7.41 g/m*3 12.6 C 0 km/h
2079 17-05-2009 03:15:01 12.1 C 7.4 g/m*3 12.1 C 0 km/h
2080 17-05-2009 03:27:02 11.8 C 7.37 g/m*3 11.8 C 0 km/h
2081 17-05-2009 03:39:01 11.6 C 7.48 g/m*3 11.6 C 0 km/h
2082 17-05-2009 03:51:01 11.5 C 7.54 g/m*3 11.5 C 0 km/h
2083 17-05-2009 04:03:01 11.6 C 7.48 g/m*3 11.6 C 0 km/h
2084 17-05-2009 04:15:02 11.5 C 7.54 g/m*3 11.5 C 0 km/h
2085 17-05-2009 04:27:02 12.1 C 7.18 g/m*3 12.1 C 0 km/h
2086 17-05-2009 04:39:01 12.2 C 7.12 g/m*3 12.2 C 0 km/h
2087 17-05-2009 04:51:01 11.9 C 7.31 g/m*3 11.9 C 0 km/h
2088 17-05-2009 05:03:01 11.7 C 7.43 g/m*3 11.7 C 0 km/h
2089 17-05-2009 05:15:01 11.3 C 7.34 g/m*3 11.3 C 0 km/h
2090 17-05-2009 05:27:01 11 C 7.41 g/m*3 11 C 0 km/h
2091 17-05-2009 05:39:01 10.8 C 7.41 g/m*3 10.8 C 0 km/h
2092 17-05-2009 05:51:02 10.7 C 7.46 g/m*3 10.7 C 0 km/h
2093 17-05-2009 06:03:01 10.7 C 7.46 g/m*3 10.7 C 0 km/h
2094 17-05-2009 06:15:02 10.6 C 7.52 g/m*3 10.6 C 0 km/h
2095 17-05-2009 06:27:02 10.5 C 7.57 g/m*3 10.5 C 0 km/h
2096 17-05-2009 06:39:01 10.8 C 7.71 g/m*3 10.8 C 0 km/h
2097 17-05-2009 06:51:02 11.1 C 7.76 g/m*3 11.1 C 0 km/h
2098 17-05-2009 07:03:01 11.4 C 7.8 g/m*3 11.4 C 0 km/h
2099 17-05-2009 07:15:01 11.9 C 8.05 g/m*3 11.9 C 0 km/h
2100 17-05-2009 07:27:01 12.1 C 7.94 g/m*3 12.1 C 0 km/h
Sensor: Nr:Datum:Temp:Abs-Feuchte:Windchill:Wind:
Aussen-T/F 2101 17-05-2009 07:39:02 12.1 C 7.72 g/m*3 12.1 C 0 km/h
2102 17-05-2009 07:51:02 12.1 C 7.61 g/m*3 12.1 C 0 km/h
2103 17-05-2009 08:03:01 11.7 C 7.95 g/m*3 11.7 C 0 km/h
2104 17-05-2009 08:15:02 11.4 C 8.11 g/m*3 11.4 C 0 km/h
2105 17-05-2009 08:27:02 11.9 C 8.68 g/m*3 11.9 C 0 km/h
2106 17-05-2009 08:39:01 12.1 C 8.69 g/m*3 12.1 C 0 km/h
2107 17-05-2009 08:51:02 12.4 C 8.96 g/m*3 12.4 C 0 km/h
2108 17-05-2009 09:03:01 12.8 C 9.07 g/m*3 12.8 C 0 km/h
2109 17-05-2009 09:15:01 13.3 C 9.13 g/m*3 13.3 C 0 km/h
2110 17-05-2009 09:27:01 13.8 C 9.17 g/m*3 13.8 C 0 km/h
2111 17-05-2009 09:39:01 14.4 C 8.53 g/m*3 14.4 C 0 km/h
2112 17-05-2009 09:51:01 15.2 C 8.7 g/m*3 15.2 C 0 km/h
2113 17-05-2009 10:03:02 15.7 C 8.43 g/m*3 15.7 C 0 km/h
2114 17-05-2009 10:15:01 15.3 C 8.1 g/m*3 15.3 C 0 km/h
2115 17-05-2009 10:27:01 15.4 C 7.88 g/m*3 15.4 C 0 km/h
2116 17-05-2009 10:39:02 16.3 C 7.91 g/m*3 16.3 C 0 km/h
2117 17-05-2009 10:51:01 17.5 C 8.05 g/m*3 17.5 C 0 km/h
2118 17-05-2009 11:03:02 17.9 C 8.24 g/m*3 17.9 C 0 km/h
2119 17-05-2009 11:15:01 18.5 C 8.23 g/m*3 18.5 C 0 km/h
2120 17-05-2009 11:27:01 18.6 C 7.8 g/m*3 18.6 C 0 km/h
2121 17-05-2009 11:39:01 20 C 8.64 g/m*3 20 C 0 km/h
2122 17-05-2009 11:51:01 21.2 C 8.52 g/m*3 21.2 C 0 km/h
2123 17-05-2009 12:03:01 22.3 C 8.29 g/m*3 22.3 C 0 km/h
2124 17-05-2009 12:15:02 21.9 C 7.72 g/m*3 21.9 C 0 km/h
2125 17-05-2009 12:27:02 21.3 C 8.39 g/m*3 21.3 C 0 km/h
Sensor: Nr:Datum:Temp:Abs-Feuchte:Windchill:Wind:
Aussen-T/F 2126 17-05-2009 12:39:01 20.4 C 8.49 g/m*3 20.4 C 0 km/h
2127 17-05-2009 12:51:02 21.3 C 8.39 g/m*3 21.3 C 0 km/h
2128 17-05-2009 13:03:01 22 C 8.35 g/m*3 22 C 0 km/h
2129 17-05-2009 13:15:02 22.7 C 8.28 g/m*3 22.7 C 0 km/h
2130 17-05-2009 13:27:02 22.2 C 7.85 g/m*3 22.2 C 0 km/h
2131 17-05-2009 13:39:01 23.3 C 7.95 g/m*3 23.3 C 0 km/h
2132 17-05-2009 13:51:01 22.8 C 7.72 g/m*3 22.8 C 0 km/h
2133 17-05-2009 14:03:01 22.4 C 7.94 g/m*3 22.4 C 0 km/h
2134 17-05-2009 14:15:01 22 C 7.76 g/m*3 22 C 0 km/h
2135 17-05-2009 14:27:01 21.3 C 7.46 g/m*3 21.3 C 0 km/h
2136 17-05-2009 14:39:02 21.2 C 7.6 g/m*3 21.2 C 0 km/h
2137 17-05-2009 14:51:01 21.4 C 7.69 g/m*3 21.4 C 0 km/h
2138 17-05-2009 15:03:02 21.9 C 7.72 g/m*3 21.9 C 0 km/h
2139 17-05-2009 15:15:01 22.8 C 7.92 g/m*3 22.8 C 0 km/h
2140 17-05-2009 15:27:01 23 C 7.6 g/m*3 23 C 0 km/h
2141 17-05-2009 15:39:01 23.4 C 7.78 g/m*3 23.4 C 0 km/h
2142 17-05-2009 15:51:01 23.3 C 7.32 g/m*3 23.3 C 0 km/h
2143 17-05-2009 16:03:01 23.5 C 6.98 g/m*3 23.5 C 0 km/h
2144 17-05-2009 16:15:01 23.4 C 6.73 g/m*3 23.4 C 0 km/h
2145 17-05-2009 16:27:01 23.9 C 6.92 g/m*3 23.9 C 0 km/h
2146 17-05-2009 16:39:01 23.5 C 6.56 g/m*3 23.5 C 0 km/h
2147 17-05-2009 16:51:01 24.2 C 5.94 g/m*3 24.2 C 0 km/h
2148 17-05-2009 17:03:01 24.1 C 6.13 g/m*3 24.1 C 0 km/h
2149 17-05-2009 17:15:02 24.1 C 6.13 g/m*3 24.1 C 0 km/h
2150 17-05-2009 17:27:02 24.5 C 6.27 g/m*3 24.5 C 0 km/h
Sensor: Nr:Datum:Temp:Abs-Feuchte:Windchill:Wind:
Aussen-T/F 2151 17-05-2009 17:39:01 24 C 6.53 g/m*3 24 C 0 km/h
2152 17-05-2009 17:51:02 23.3 C 6.48 g/m*3 23.3 C 0 km/h
2153 17-05-2009 18:03:01 22.9 C 6.54 g/m*3 22.9 C 0 km/h
2154 17-05-2009 18:15:01 22.1 C 6.64 g/m*3 22.1 C 0 km/h
2155 17-05-2009 18:27:02 21 C 6.41 g/m*3 21 C 0 km/h
2156 17-05-2009 18:39:01 20.9 C 6.74 g/m*3 20.9 C 0 km/h
2157 17-05-2009 18:51:01 20.4 C 7.25 g/m*3 20.4 C 0 km/h
2158 17-05-2009 19:03:01 20.5 C 7.12 g/m*3 20.5 C 0 km/h
2159 17-05-2009 19:15:01 20.9 C 7.29 g/m*3 20.9 C 0 km/h
2160 17-05-2009 19:27:01 20.7 C 7.56 g/m*3 20.7 C 0 km/h
2161 17-05-2009 19:39:02 20.4 C 7.43 g/m*3 20.4 C 0 km/h
2162 17-05-2009 19:51:01 20.1 C 7.3 g/m*3 20.1 C 0 km/h
2163 17-05-2009 20:03:02 19.7 C 7.64 g/m*3 19.7 C 0 km/h
2164 17-05-2009 20:15:01 19.5 C 7.72 g/m*3 19.5 C 0 km/h
2165 17-05-2009 20:27:01 19.3 C 7.96 g/m*3 19.3 C 0 km/h
2166 17-05-2009 20:39:01 18.9 C 8.59 g/m*3 18.9 C 0 km/h
2167 17-05-2009 20:51:01 19 C 8.15 g/m*3 19 C 0 km/h
2168 17-05-2009 21:03:01 18.9 C 8.1 g/m*3 18.9 C 0 km/h
2169 17-05-2009 21:15:01 18.5 C 7.59 g/m*3 18.5 C 0 km/h
2170 17-05-2009 21:27:01 18.3 C 7.66 g/m*3 18.3 C 0 km/h
2171 17-05-2009 21:39:02 18 C 7.68 g/m*3 18 C 0 km/h
2172 17-05-2009 21:51:01 17.7 C 7.69 g/m*3 17.7 C 0 km/h
2173 17-05-2009 22:03:02 17.5 C 7.45 g/m*3 17.5 C 0 km/h
2174 17-05-2009 22:15:01 17.3 C 7.37 g/m*3 17.3 C 0 km/h
2175 17-05-2009 22:27:01 17.2 C 7.47 g/m*3 17.2 C 0 km/h
Sensor: Nr:Datum:Temp:Abs-Feuchte:Windchill:Wind:
Aussen-T/F 2176 17-05-2009 22:39:01 16.9 C 7.19 g/m*3 16.9 C 0 km/h
2177 17-05-2009 22:51:01 16.8 C 7.15 g/m*3 16.8 C 0 km/h
2178 17-05-2009 23:03:01 16.6 C 7.35 g/m*3 16.6 C 0 km/h
2179 17-05-2009 23:15:01 16.3 C 7.08 g/m*3 16.3 C 0 km/h
2180 17-05-2009 23:27:01 16.2 C 6.9 g/m*3 16.2 C 0 km/h
2181 17-05-2009 23:39:01 16.2 C 6.48 g/m*3 16.2 C 0 km/h
2182 17-05-2009 23:51:02 16.2 C 6.48 g/m*3 16.2 C 0 km/h
2183 18-05-2009 00:03:01 16.1 C 6.58 g/m*3 16.1 C 0 km/h
2184 18-05-2009 00:15:01 15.8 C 6.87 g/m*3 15.8 C 0 km/h
2185 18-05-2009 00:27:01 15.6 C 7.05 g/m*3 15.6 C 0 km/h
2186 18-05-2009 00:39:01 15.4 C 7.09 g/m*3 15.4 C 0 km/h
2187 18-05-2009 00:51:01 15.4 C 7.23 g/m*3 15.4 C 0 km/h
2188 18-05-2009 01:03:01 15.1 C 7.22 g/m*3 15.1 C 0 km/h
2189 18-05-2009 01:15:02 14.9 C 7.39 g/m*3 14.9 C 0 km/h
2190 18-05-2009 01:27:02 14.7 C 7.43 g/m*3 14.7 C 0 km/h
2191 18-05-2009 01:39:01 14.7 C 7.3 g/m*3 14.7 C 0 km/h
2192 18-05-2009 01:51:02 14.5 C 7.21 g/m*3 14.5 C 0 km/h
2193 18-05-2009 02:03:01 14.5 C 7.34 g/m*3 14.5 C 0 km/h
2194 18-05-2009 02:15:02 14.3 C 7.25 g/m*3 14.3 C 0 km/h
2195 18-05-2009 02:27:02 14.2 C 7.33 g/m*3 14.2 C 0 km/h
2196 18-05-2009 02:39:01 14 C 7.36 g/m*3 14 C 0 km/h
2197 18-05-2009 02:51:30 13.7 C 7.34 g/m*3 13.7 C 0 km/h
2198 18-05-2009 03:03:30 13.6 C 7.3 g/m*3 13.6 C 0 km/h
2199 18-05-2009 03:15:29 13.3 C 7.28 g/m*3 13.3 C 0 km/h
2200 18-05-2009 03:27:29 13 C 7.26 g/m*3 13 C 0 km/h
Sensor: Nr:Datum:Temp:Abs-Feuchte:Windchill:Wind:
Aussen-T/F 2201 18-05-2009 03:39:29 12.6 C 7.3 g/m*3 12.6 C 0 km/h
2202 18-05-2009 03:51:29 12.8 C 7.5 g/m*3 12.8 C 0 km/h
2203 18-05-2009 04:03:28 13 C 7.6 g/m*3 13 C 0 km/h
2204 18-05-2009 04:15:29 13.1 C 7.65 g/m*3 13.1 C 0 km/h
2205 18-05-2009 04:27:29 12.8 C 7.62 g/m*3 12.8 C 0 km/h
2206 18-05-2009 04:39:28 12.4 C 7.43 g/m*3 12.4 C 0 km/h
2207 18-05-2009 04:51:28 12 C 7.46 g/m*3 12 C 0 km/h
2208 18-05-2009 05:03:28 11.6 C 7.38 g/m*3 11.6 C 0 km/h
2209 18-05-2009 05:15:28 11.7 C 7.64 g/m*3 11.7 C 0 km/h
2210 18-05-2009 05:27:28 11.2 C 7.4 g/m*3 11.2 C 0 km/h
2211 18-05-2009 05:39:28 11 C 7.41 g/m*3 11 C 0 km/h
2212 18-05-2009 05:51:28 10.9 C 7.56 g/m*3 10.9 C 0 km/h
2213 18-05-2009 06:03:28 10.8 C 7.61 g/m*3 10.8 C 0 km/h
2214 18-05-2009 06:15:27 10.7 C 7.66 g/m*3 10.7 C 0 km/h
2215 18-05-2009 06:27:27 10.7 C 7.76 g/m*3 10.7 C 0 km/h
2216 18-05-2009 06:39:27 10.7 C 7.86 g/m*3 10.7 C 0 km/h
2217 18-05-2009 06:51:27 10.8 C 7.91 g/m*3 10.8 C 0 km/h
2218 18-05-2009 07:03:27 11 C 7.91 g/m*3 11 C 0 km/h
2219 18-05-2009 07:15:27 11.3 C 8.06 g/m*3 11.3 C 0 km/h
2220 18-05-2009 07:27:27 11.4 C 8.11 g/m*3 11.4 C 0 km/h
2221 18-05-2009 07:39:27 11.6 C 8.21 g/m*3 11.6 C 0 km/h
2222 18-05-2009 07:51:27 11.9 C 8.26 g/m*3 11.9 C 0 km/h
2223 18-05-2009 08:03:26 12.1 C 8.26 g/m*3 12.1 C 0 km/h
2224 18-05-2009 08:15:26 12.4 C 8.3 g/m*3 12.4 C 0 km/h
2225 18-05-2009 08:27:26 12.8 C 8.51 g/m*3 12.8 C 0 km/h
Sensor: Nr:Datum:Temp:Abs-Feuchte:Windchill:Wind:
Aussen-T/F 2226 18-05-2009 08:39:26 13.2 C 8.38 g/m*3 13.2 C 0 km/h
2227 18-05-2009 08:51:26 13.7 C 8.41 g/m*3 13.7 C 0 km/h
2228 18-05-2009 09:03:25 14.8 C 8.11 g/m*3 14.8 C 0 km/h
2229 18-05-2009 09:15:26 15.4 C 7.49 g/m*3 15.4 C 0 km/h
2230 18-05-2009 09:27:26 15.2 C 7.53 g/m*3 15.2 C 0 km/h
2231 18-05-2009 09:39:26 15.2 C 7.53 g/m*3 15.2 C 0 km/h
2232 18-05-2009 09:51:25 15.9 C 7.58 g/m*3 15.9 C 0 km/h
2233 18-05-2009 10:03:26 16.5 C 7.44 g/m*3 16.5 C 0 km/h
2234 18-05-2009 10:15:25 16.7 C 7.25 g/m*3 16.7 C 0 km/h
2235 18-05-2009 10:27:25 17.1 C 6.99 g/m*3 17.1 C 0 km/h
2236 18-05-2009 10:39:25 16.5 C 7.02 g/m*3 16.5 C 0 km/h
2237 18-05-2009 10:51:25 16.6 C 7.06 g/m*3 16.6 C 0 km/h
2238 18-05-2009 11:03:25 17 C 6.95 g/m*3 17 C 0 km/h
2239 18-05-2009 11:15:24 17.3 C 6.78 g/m*3 17.3 C 0 km/h
2240 18-05-2009 11:27:24 18 C 6.45 g/m*3 18 C 0 km/h
2241 18-05-2009 11:39:24 17.6 C 6.3 g/m*3 17.6 C 0 km/h
2242 18-05-2009 11:51:24 18.4 C 6.29 g/m*3 18.4 C 0 km/h
2243 18-05-2009 12:03:24 18.5 C 6.17 g/m*3 18.5 C 0 km/h
2244 18-05-2009 12:15:24 18.7 C 6.24 g/m*3 18.7 C 0 km/h
2245 18-05-2009 12:27:24 19.4 C 6.01 g/m*3 19.4 C 0 km/h
2246 18-05-2009 12:39:24 19.3 C 5.47 g/m*3 19.3 C 0 km/h
2247 18-05-2009 12:51:24 19.3 C 4.98 g/m*3 19.3 C 0 km/h
2248 18-05-2009 13:03:23 19.2 C 5.11 g/m*3 19.2 C 0 km/h
2249 18-05-2009 13:15:23 20.6 C 5.19 g/m*3 20.6 C 0 km/h
2250 18-05-2009 13:27:23 20.8 C 3.98 g/m*3 20.8 C 0 km/h
Sensor: Nr:Datum:Temp:Abs-Feuchte:Windchill:Wind:
Aussen-T/F 2251 18-05-2009 13:39:24 21.1 C 3.69 g/m*3 21.1 C 0 km/h
2252 18-05-2009 13:51:23 21.1 C 3.69 g/m*3 21.1 C 0 km/h
2253 18-05-2009 14:03:23 20.7 C 3.6 g/m*3 20.7 C 0 km/h
2254 18-05-2009 14:15:23 20.6 C 3.58 g/m*3 20.6 C 0 km/h
2255 18-05-2009 14:27:23 20.8 C 3.62 g/m*3 20.8 C 0 km/h
2256 18-05-2009 14:39:23 20.9 C 3.64 g/m*3 20.9 C 0 km/h
2257 18-05-2009 14:51:22 21.6 C 3.79 g/m*3 21.6 C 0 km/h
2258 18-05-2009 15:03:23 22.5 C 3.99 g/m*3 22.5 C 0 km/h
2259 18-05-2009 15:15:22 22.2 C 3.93 g/m*3 22.2 C 0 km/h
2260 18-05-2009 15:27:22 21.2 C 3.89 g/m*3 21.2 C 0 km/h
2261 18-05-2009 15:39:22 22.3 C 3.95 g/m*3 22.3 C 0 km/h
2262 18-05-2009 15:51:21 22.6 C 4.02 g/m*3 22.6 C 0 km/h
2263 18-05-2009 16:03:22 22 C 4.08 g/m*3 22 C 0 km/h
2264 18-05-2009 16:15:22 21.8 C 4.22 g/m*3 21.8 C 0 km/h
2265 18-05-2009 16:27:22 21.4 C 4.12 g/m*3 21.4 C 0 km/h
2266 18-05-2009 16:39:21 22.6 C 4.02 g/m*3 22.6 C 0 km/h
2267 18-05-2009 16:51:22 22 C 3.88 g/m*3 22 C 0 km/h
2268 18-05-2009 17:03:21 21.8 C 4.22 g/m*3 21.8 C 0 km/h
2269 18-05-2009 17:15:21 22.8 C 4.27 g/m*3 22.8 C 0 km/h
2270 18-05-2009 17:27:21 22.8 C 4.06 g/m*3 22.8 C 0 km/h
2271 18-05-2009 17:39:21 22.2 C 4.12 g/m*3 22.2 C 0 km/h
2272 18-05-2009 17:51:21 23.1 C 4.13 g/m*3 23.1 C 0 km/h
2273 18-05-2009 18:03:21 22.4 C 3.97 g/m*3 22.4 C 0 km/h
2274 18-05-2009 18:15:20 22.8 C 4.27 g/m*3 22.8 C 0 km/h
2275 18-05-2009 18:27:20 22.6 C 4.02 g/m*3 22.6 C 0 km/h
Sensor: Nr:Datum:Temp:Abs-Feuchte:Windchill:Wind:
Aussen-T/F 2276 18-05-2009 18:39:21 23.6 C 4.25 g/m*3 23.6 C 0 km/h
2277 18-05-2009 18:51:20 23.7 C 4.28 g/m*3 23.7 C 0 km/h
2278 18-05-2009 19:03:20 23.4 C 4.21 g/m*3 23.4 C 0 km/h
2279 18-05-2009 19:15:19 23.4 C 4.21 g/m*3 23.4 C 0 km/h
2280 18-05-2009 19:27:19 23.3 C 4.18 g/m*3 23.3 C 0 km/h
2281 18-05-2009 19:39:20 22.3 C 4.15 g/m*3 22.3 C 0 km/h
2282 18-05-2009 19:51:19 22.1 C 4.68 g/m*3 22.1 C 0 km/h
2283 18-05-2009 20:03:20 22.3 C 4.74 g/m*3 22.3 C 0 km/h
2284 18-05-2009 20:15:19 21.8 C 4.99 g/m*3 21.8 C 0 km/h
2285 18-05-2009 20:27:19 21.6 C 5.12 g/m*3 21.6 C 0 km/h
2286 18-05-2009 20:39:19 20.4 C 4.78 g/m*3 20.4 C 0 km/h
2287 18-05-2009 20:51:19 19.4 C 5.01 g/m*3 19.4 C 0 km/h
2288 18-05-2009 21:03:19 18.5 C 5.06 g/m*3 18.5 C 0 km/h
2289 18-05-2009 21:15:19 17.9 C 5.8 g/m*3 17.9 C 0 km/h
2290 18-05-2009 21:27:19 17.3 C 5.3 g/m*3 17.3 C 0 km/h
2291 18-05-2009 21:39:19 17 C 5.5 g/m*3 17 C 0 km/h
2292 18-05-2009 21:51:18 16.7 C 5.4 g/m*3 16.7 C 0 km/h
2293 18-05-2009 22:04:20 16.1 C 5.48 g/m*3 16.1 C 0 km/h
2294 18-05-2009 22:16:20 15.9 C 5.82 g/m*3 15.9 C 0 km/h
2295 18-05-2009 22:28:20 15.2 C 5.58 g/m*3 15.2 C 0 km/h
2296 18-05-2009 22:40:20 14.8 C 5.83 g/m*3 14.8 C 0 km/h
2297 18-05-2009 22:52:20 14.6 C 5.76 g/m*3 14.6 C 0 km/h
2298 18-05-2009 23:04:20 14 C 5.91 g/m*3 14 C 0 km/h
2299 18-05-2009 23:16:20 13.9 C 6.11 g/m*3 13.9 C 0 km/h
2300 18-05-2009 23:28:20 13.6 C 6.12 g/m*3 13.6 C 0 km/h
Sensor: Nr:Datum:Temp:Abs-Feuchte:Windchill:Wind:
Aussen-T/F 2301 18-05-2009 23:40:20 13.5 C 6.2 g/m*3 13.5 C 0 km/h
2302 18-05-2009 23:52:20 12.9 C 6.76 g/m*3 12.9 C 0 km/h

Legende:
   Min
   Max


Maximal/Minimal-Werte vom 28.04.2009 - 18.05.2009

Sensor Min Max Avg
Temp
(Aussen-T/F)
6.4 °C
04-05-2009  07:06:00
28.3 °C
10-05-2009  17:11:18
14.49 °C
Abs-Feuchte
(Aussen-T/F)
2.56 g/m*3
04-05-2009  15:06:54
12.11 g/m*3
15-05-2009  08:11:41
7.57 g/m*3
Windchill
(Aussen-T/F)
6.4 C
04-05-2009  07:06:00
28.3 C
10-05-2009  17:11:18
14.48 C

Die Daten stammen von einer Davis Vantage Pro 2 Wetter-Station und werden unter Linux mit der Software wview2wettercgi und aufbereitet. Alle Angaben erfolgen ohne Gewähr für ihre Vollständigkeit oder Richtigkeit.
Kontakt: Rainer Krienke krienke@uni-koblenz.de . Meine Webseiten an der Uni Koblenz oder privat.
Version: $Revision: 0.78 $